<?xml version="1.0" encoding="UTF-8" standalone="no" ?>
<gpx xmlns="http://www.topografix.com/GPX/1/1" xmlns:xsi="http://www.w3.org/2001/XMLSchema-instance" xsi:schemaLocation="http://www.topografix.com/GPX/1/1 http://www.topografix.com/GPX/1/1/gpx.xsd" version="1.1" creator="VisuGPX - https://www.visugpx.com">
  <metadata>
    <name>Tesso - Mauriac</name>
    <desc><![CDATA[Petite rando pour une sortie scolaire]]></desc>
  </metadata>
  <trk>
    <name><![CDATA[Tesso Mauriac]]></name>
    <trkseg>
      <trkpt lat="43.9318" lon="1.93336">
        <ele>125.1087646</ele>
        <time>2014-06-20T13:29:02Z</time>
      </trkpt>
      <trkpt lat="43.93185" lon="1.93344">
        <ele>122.7054443</ele>
        <time>2014-06-20T13:29:12Z</time>
      </trkpt>
      <trkpt lat="43.93191" lon="1.93341">
        <ele>121.2635498</ele>
        <time>2014-06-20T13:29:17Z</time>
      </trkpt>
      <trkpt lat="43.93197" lon="1.93335">
        <ele>119.3408203</ele>
        <time>2014-06-20T13:29:22Z</time>
      </trkpt>
      <trkpt lat="43.93205" lon="1.9333">
        <ele>120.302124</ele>
        <time>2014-06-20T13:29:27Z</time>
      </trkpt>
      <trkpt lat="43.93209" lon="1.93328">
        <ele>124.1473389</ele>
        <time>2014-06-20T13:29:37Z</time>
      </trkpt>
      <trkpt lat="43.93218" lon="1.93317">
        <ele>125.5893555</ele>
        <time>2014-06-20T13:29:52Z</time>
      </trkpt>
      <trkpt lat="43.93221" lon="1.93309">
        <ele>127.5119629</ele>
        <time>2014-06-20T13:29:57Z</time>
      </trkpt>
      <trkpt lat="43.93222" lon="1.93301">
        <ele>128.4733887</ele>
        <time>2014-06-20T13:30:02Z</time>
      </trkpt>
      <trkpt lat="43.93222" lon="1.93292">
        <ele>128.9541016</ele>
        <time>2014-06-20T13:30:07Z</time>
      </trkpt>
      <trkpt lat="43.9322" lon="1.93284">
        <ele>128.9541016</ele>
        <time>2014-06-20T13:30:12Z</time>
      </trkpt>
      <trkpt lat="43.93216" lon="1.93277">
        <ele>128.4733887</ele>
        <time>2014-06-20T13:30:17Z</time>
      </trkpt>
      <trkpt lat="43.93212" lon="1.93273">
        <ele>129.9152832</ele>
        <time>2014-06-20T13:30:27Z</time>
      </trkpt>
      <trkpt lat="43.93202" lon="1.93259">
        <ele>138.5672607</ele>
        <time>2014-06-20T13:30:57Z</time>
      </trkpt>
      <trkpt lat="43.932" lon="1.93252">
        <ele>140.0091553</ele>
        <time>2014-06-20T13:31:02Z</time>
      </trkpt>
      <trkpt lat="43.93197" lon="1.93245">
        <ele>141.4510498</ele>
        <time>2014-06-20T13:31:07Z</time>
      </trkpt>
      <trkpt lat="43.93195" lon="1.93238">
        <ele>141.9317627</ele>
        <time>2014-06-20T13:31:12Z</time>
      </trkpt>
      <trkpt lat="43.93193" lon="1.93229">
        <ele>143.3736572</ele>
        <time>2014-06-20T13:31:17Z</time>
      </trkpt>
      <trkpt lat="43.9319" lon="1.93222">
        <ele>143.8543701</ele>
        <time>2014-06-20T13:31:22Z</time>
      </trkpt>
      <trkpt lat="43.93187" lon="1.93214">
        <ele>145.7770996</ele>
        <time>2014-06-20T13:31:27Z</time>
      </trkpt>
      <trkpt lat="43.93184" lon="1.93207">
        <ele>145.7770996</ele>
        <time>2014-06-20T13:31:32Z</time>
      </trkpt>
      <trkpt lat="43.93181" lon="1.93198">
        <ele>145.7770996</ele>
        <time>2014-06-20T13:31:37Z</time>
      </trkpt>
      <trkpt lat="43.93174" lon="1.93192">
        <ele>147.2189941</ele>
        <time>2014-06-20T13:31:42Z</time>
      </trkpt>
      <trkpt lat="43.9317" lon="1.93186">
        <ele>149.6223145</ele>
        <time>2014-06-20T13:31:47Z</time>
      </trkpt>
      <trkpt lat="43.9317" lon="1.93179">
        <ele>149.1416016</ele>
        <time>2014-06-20T13:31:52Z</time>
      </trkpt>
      <trkpt lat="43.93166" lon="1.93166">
        <ele>148.6610107</ele>
        <time>2014-06-20T13:32:02Z</time>
      </trkpt>
      <trkpt lat="43.93162" lon="1.93156">
        <ele>145.2963867</ele>
        <time>2014-06-20T13:32:12Z</time>
      </trkpt>
      <trkpt lat="43.93159" lon="1.93146">
        <ele>142.8930664</ele>
        <time>2014-06-20T13:32:17Z</time>
      </trkpt>
      <trkpt lat="43.93152" lon="1.93136">
        <ele>142.4124756</ele>
        <time>2014-06-20T13:32:22Z</time>
      </trkpt>
      <trkpt lat="43.93147" lon="1.93125">
        <ele>140.0091553</ele>
        <time>2014-06-20T13:32:27Z</time>
      </trkpt>
      <trkpt lat="43.93141" lon="1.93117">
        <ele>141.4510498</ele>
        <time>2014-06-20T13:32:32Z</time>
      </trkpt>
      <trkpt lat="43.9314" lon="1.93108">
        <ele>144.8157959</ele>
        <time>2014-06-20T13:32:37Z</time>
      </trkpt>
      <trkpt lat="43.93139" lon="1.93101">
        <ele>144.8157959</ele>
        <time>2014-06-20T13:32:42Z</time>
      </trkpt>
      <trkpt lat="43.93136" lon="1.93094">
        <ele>144.8157959</ele>
        <time>2014-06-20T13:32:47Z</time>
      </trkpt>
      <trkpt lat="43.93133" lon="1.93087">
        <ele>144.8157959</ele>
        <time>2014-06-20T13:32:52Z</time>
      </trkpt>
      <trkpt lat="43.9313" lon="1.93076">
        <ele>145.7770996</ele>
        <time>2014-06-20T13:33:12Z</time>
      </trkpt>
      <trkpt lat="43.93128" lon="1.93069">
        <ele>145.7770996</ele>
        <time>2014-06-20T13:33:17Z</time>
      </trkpt>
      <trkpt lat="43.93127" lon="1.93062">
        <ele>142.4124756</ele>
        <time>2014-06-20T13:33:22Z</time>
      </trkpt>
      <trkpt lat="43.93124" lon="1.93047">
        <ele>143.3736572</ele>
        <time>2014-06-20T13:33:27Z</time>
      </trkpt>
      <trkpt lat="43.93121" lon="1.9304">
        <ele>143.8543701</ele>
        <time>2014-06-20T13:33:32Z</time>
      </trkpt>
      <trkpt lat="43.93117" lon="1.9303">
        <ele>145.2963867</ele>
        <time>2014-06-20T13:33:42Z</time>
      </trkpt>
      <trkpt lat="43.93114" lon="1.93013">
        <ele>146.2578125</ele>
        <time>2014-06-20T13:33:52Z</time>
      </trkpt>
      <trkpt lat="43.93111" lon="1.93003">
        <ele>145.2963867</ele>
        <time>2014-06-20T13:33:57Z</time>
      </trkpt>
      <trkpt lat="43.93109" lon="1.92994">
        <ele>144.3352051</ele>
        <time>2014-06-20T13:34:02Z</time>
      </trkpt>
      <trkpt lat="43.93106" lon="1.92982">
        <ele>141.4510498</ele>
        <time>2014-06-20T13:34:07Z</time>
      </trkpt>
      <trkpt lat="43.93103" lon="1.92974">
        <ele>143.3736572</ele>
        <time>2014-06-20T13:34:12Z</time>
      </trkpt>
      <trkpt lat="43.931" lon="1.92966">
        <ele>142.8930664</ele>
        <time>2014-06-20T13:34:22Z</time>
      </trkpt>
      <trkpt lat="43.93099" lon="1.92957">
        <ele>143.3736572</ele>
        <time>2014-06-20T13:34:27Z</time>
      </trkpt>
      <trkpt lat="43.93095" lon="1.92942">
        <ele>141.9317627</ele>
        <time>2014-06-20T13:34:32Z</time>
      </trkpt>
      <trkpt lat="43.93092" lon="1.9293">
        <ele>145.2963867</ele>
        <time>2014-06-20T13:34:37Z</time>
      </trkpt>
      <trkpt lat="43.9309" lon="1.92921">
        <ele>146.7384033</ele>
        <time>2014-06-20T13:34:42Z</time>
      </trkpt>
      <trkpt lat="43.93089" lon="1.92915">
        <ele>148.6610107</ele>
        <time>2014-06-20T13:34:47Z</time>
      </trkpt>
      <trkpt lat="43.93084" lon="1.92905">
        <ele>150.1030273</ele>
        <time>2014-06-20T13:34:57Z</time>
      </trkpt>
      <trkpt lat="43.93082" lon="1.92897">
        <ele>151.5449219</ele>
        <time>2014-06-20T13:35:02Z</time>
      </trkpt>
      <trkpt lat="43.93081" lon="1.92888">
        <ele>150.1030273</ele>
        <time>2014-06-20T13:35:07Z</time>
      </trkpt>
      <trkpt lat="43.9308" lon="1.92879">
        <ele>150.1030273</ele>
        <time>2014-06-20T13:35:12Z</time>
      </trkpt>
      <trkpt lat="43.93079" lon="1.92871">
        <ele>151.5449219</ele>
        <time>2014-06-20T13:35:17Z</time>
      </trkpt>
      <trkpt lat="43.93075" lon="1.92863">
        <ele>152.5063477</ele>
        <time>2014-06-20T13:35:22Z</time>
      </trkpt>
      <trkpt lat="43.93079" lon="1.92858">
        <ele>152.9869385</ele>
        <time>2014-06-20T13:35:27Z</time>
      </trkpt>
      <trkpt lat="43.93089" lon="1.92857">
        <ele>152.5063477</ele>
        <time>2014-06-20T13:35:37Z</time>
      </trkpt>
      <trkpt lat="43.93096" lon="1.92858">
        <ele>152.9869385</ele>
        <time>2014-06-20T13:35:42Z</time>
      </trkpt>
      <trkpt lat="43.93107" lon="1.92857">
        <ele>152.9869385</ele>
        <time>2014-06-20T13:35:47Z</time>
      </trkpt>
      <trkpt lat="43.93117" lon="1.92858">
        <ele>154.4289551</ele>
        <time>2014-06-20T13:35:52Z</time>
      </trkpt>
      <trkpt lat="43.93123" lon="1.92858">
        <ele>152.9869385</ele>
        <time>2014-06-20T13:35:57Z</time>
      </trkpt>
      <trkpt lat="43.93128" lon="1.92855">
        <ele>153.4676514</ele>
        <time>2014-06-20T13:36:02Z</time>
      </trkpt>
      <trkpt lat="43.93131" lon="1.9286">
        <ele>156.3515625</ele>
        <time>2014-06-20T13:36:12Z</time>
      </trkpt>
      <trkpt lat="43.93138" lon="1.92859">
        <ele>157.7935791</ele>
        <time>2014-06-20T13:36:17Z</time>
      </trkpt>
      <trkpt lat="43.93147" lon="1.92856">
        <ele>158.7547607</ele>
        <time>2014-06-20T13:36:22Z</time>
      </trkpt>
      <trkpt lat="43.93157" lon="1.92847">
        <ele>157.7935791</ele>
        <time>2014-06-20T13:36:27Z</time>
      </trkpt>
      <trkpt lat="43.93165" lon="1.92842">
        <ele>158.2741699</ele>
        <time>2014-06-20T13:36:32Z</time>
      </trkpt>
      <trkpt lat="43.9317" lon="1.92841">
        <ele>157.7935791</ele>
        <time>2014-06-20T13:36:37Z</time>
      </trkpt>
      <trkpt lat="43.93181" lon="1.92839">
        <ele>159.2354736</ele>
        <time>2014-06-20T13:36:47Z</time>
      </trkpt>
      <trkpt lat="43.93187" lon="1.92837">
        <ele>159.7161865</ele>
        <time>2014-06-20T13:36:52Z</time>
      </trkpt>
      <trkpt lat="43.93195" lon="1.92835">
        <ele>159.2354736</ele>
        <time>2014-06-20T13:36:57Z</time>
      </trkpt>
      <trkpt lat="43.93204" lon="1.92832">
        <ele>159.2354736</ele>
        <time>2014-06-20T13:37:02Z</time>
      </trkpt>
      <trkpt lat="43.93209" lon="1.92829">
        <ele>159.2354736</ele>
        <time>2014-06-20T13:37:07Z</time>
      </trkpt>
      <trkpt lat="43.93217" lon="1.92828">
        <ele>162.1195068</ele>
        <time>2014-06-20T13:37:17Z</time>
      </trkpt>
      <trkpt lat="43.93225" lon="1.92824">
        <ele>161.638916</ele>
        <time>2014-06-20T13:37:22Z</time>
      </trkpt>
      <trkpt lat="43.93232" lon="1.9282">
        <ele>161.638916</ele>
        <time>2014-06-20T13:37:27Z</time>
      </trkpt>
      <trkpt lat="43.9324" lon="1.92818">
        <ele>161.1582031</ele>
        <time>2014-06-20T13:37:37Z</time>
      </trkpt>
      <trkpt lat="43.93248" lon="1.92817">
        <ele>160.6774902</ele>
        <time>2014-06-20T13:37:42Z</time>
      </trkpt>
      <trkpt lat="43.93256" lon="1.92815">
        <ele>161.1582031</ele>
        <time>2014-06-20T13:37:47Z</time>
      </trkpt>
      <trkpt lat="43.93261" lon="1.92812">
        <ele>155.8709717</ele>
        <time>2014-06-20T13:37:52Z</time>
      </trkpt>
      <trkpt lat="43.93268" lon="1.92809">
        <ele>155.8709717</ele>
        <time>2014-06-20T13:37:57Z</time>
      </trkpt>
      <trkpt lat="43.93274" lon="1.92806">
        <ele>155.8709717</ele>
        <time>2014-06-20T13:38:02Z</time>
      </trkpt>
      <trkpt lat="43.93279" lon="1.92803">
        <ele>156.3515625</ele>
        <time>2014-06-20T13:38:07Z</time>
      </trkpt>
      <trkpt lat="43.93284" lon="1.92796">
        <ele>156.8321533</ele>
        <time>2014-06-20T13:38:12Z</time>
      </trkpt>
      <trkpt lat="43.93293" lon="1.92789">
        <ele>154.9095459</ele>
        <time>2014-06-20T13:38:17Z</time>
      </trkpt>
      <trkpt lat="43.93298" lon="1.92784">
        <ele>153.9483643</ele>
        <time>2014-06-20T13:38:22Z</time>
      </trkpt>
      <trkpt lat="43.93302" lon="1.92779">
        <ele>153.4676514</ele>
        <time>2014-06-20T13:38:27Z</time>
      </trkpt>
      <trkpt lat="43.93307" lon="1.92776">
        <ele>152.9869385</ele>
        <time>2014-06-20T13:38:32Z</time>
      </trkpt>
      <trkpt lat="43.93313" lon="1.92774">
        <ele>153.9483643</ele>
        <time>2014-06-20T13:38:37Z</time>
      </trkpt>
      <trkpt lat="43.93323" lon="1.92771">
        <ele>154.9095459</ele>
        <time>2014-06-20T13:38:42Z</time>
      </trkpt>
      <trkpt lat="43.9333" lon="1.9277">
        <ele>155.3902588</ele>
        <time>2014-06-20T13:38:47Z</time>
      </trkpt>
      <trkpt lat="43.93335" lon="1.9277">
        <ele>155.8709717</ele>
        <time>2014-06-20T13:38:52Z</time>
      </trkpt>
      <trkpt lat="43.93345" lon="1.9277">
        <ele>158.2741699</ele>
        <time>2014-06-20T13:39:02Z</time>
      </trkpt>
      <trkpt lat="43.93353" lon="1.92768">
        <ele>160.6774902</ele>
        <time>2014-06-20T13:39:07Z</time>
      </trkpt>
      <trkpt lat="43.93361" lon="1.92766">
        <ele>165.4841309</ele>
        <time>2014-06-20T13:39:12Z</time>
      </trkpt>
      <trkpt lat="43.93367" lon="1.92767">
        <ele>167.4067383</ele>
        <time>2014-06-20T13:39:17Z</time>
      </trkpt>
      <trkpt lat="43.93373" lon="1.92769">
        <ele>166.4453125</ele>
        <time>2014-06-20T13:39:22Z</time>
      </trkpt>
      <trkpt lat="43.93379" lon="1.92768">
        <ele>169.3294678</ele>
        <time>2014-06-20T13:39:32Z</time>
      </trkpt>
      <trkpt lat="43.93384" lon="1.92769">
        <ele>170.2906494</ele>
        <time>2014-06-20T13:39:37Z</time>
      </trkpt>
      <trkpt lat="43.9339" lon="1.92768">
        <ele>169.3294678</ele>
        <time>2014-06-20T13:39:42Z</time>
      </trkpt>
      <trkpt lat="43.93397" lon="1.92766">
        <ele>169.3294678</ele>
        <time>2014-06-20T13:39:47Z</time>
      </trkpt>
      <trkpt lat="43.93405" lon="1.92767">
        <ele>169.3294678</ele>
        <time>2014-06-20T13:39:52Z</time>
      </trkpt>
      <trkpt lat="43.93412" lon="1.92769">
        <ele>171.2520752</ele>
        <time>2014-06-20T13:39:57Z</time>
      </trkpt>
      <trkpt lat="43.93418" lon="1.92769">
        <ele>174.6165771</ele>
        <time>2014-06-20T13:40:02Z</time>
      </trkpt>
      <trkpt lat="43.93426" lon="1.92773">
        <ele>177.0200195</ele>
        <time>2014-06-20T13:40:07Z</time>
      </trkpt>
      <trkpt lat="43.93432" lon="1.92776">
        <ele>176.0585938</ele>
        <time>2014-06-20T13:40:12Z</time>
      </trkpt>
      <trkpt lat="43.9344" lon="1.92778">
        <ele>176.0585938</ele>
        <time>2014-06-20T13:40:17Z</time>
      </trkpt>
      <trkpt lat="43.93446" lon="1.9278">
        <ele>176.5393066</ele>
        <time>2014-06-20T13:40:22Z</time>
      </trkpt>
      <trkpt lat="43.93453" lon="1.92778">
        <ele>176.5393066</ele>
        <time>2014-06-20T13:40:27Z</time>
      </trkpt>
      <trkpt lat="43.93459" lon="1.92778">
        <ele>176.5393066</ele>
        <time>2014-06-20T13:40:32Z</time>
      </trkpt>
      <trkpt lat="43.93465" lon="1.92778">
        <ele>177.0200195</ele>
        <time>2014-06-20T13:40:37Z</time>
      </trkpt>
      <trkpt lat="43.93472" lon="1.92775">
        <ele>175.09729</ele>
        <time>2014-06-20T13:40:42Z</time>
      </trkpt>
      <trkpt lat="43.93478" lon="1.92772">
        <ele>175.09729</ele>
        <time>2014-06-20T13:40:47Z</time>
      </trkpt>
      <trkpt lat="43.93483" lon="1.92767">
        <ele>177.0200195</ele>
        <time>2014-06-20T13:40:57Z</time>
      </trkpt>
      <trkpt lat="43.93487" lon="1.92763">
        <ele>176.5393066</ele>
        <time>2014-06-20T13:41:02Z</time>
      </trkpt>
      <trkpt lat="43.93495" lon="1.92754">
        <ele>172.6939697</ele>
        <time>2014-06-20T13:41:12Z</time>
      </trkpt>
      <trkpt lat="43.935" lon="1.92747">
        <ele>171.732666</ele>
        <time>2014-06-20T13:41:17Z</time>
      </trkpt>
      <trkpt lat="43.93503" lon="1.92738">
        <ele>169.8100586</ele>
        <time>2014-06-20T13:41:22Z</time>
      </trkpt>
      <trkpt lat="43.93504" lon="1.9273">
        <ele>168.8487549</ele>
        <time>2014-06-20T13:41:27Z</time>
      </trkpt>
      <trkpt lat="43.93506" lon="1.92723">
        <ele>168.8487549</ele>
        <time>2014-06-20T13:41:32Z</time>
      </trkpt>
      <trkpt lat="43.93506" lon="1.92715">
        <ele>169.8100586</ele>
        <time>2014-06-20T13:41:37Z</time>
      </trkpt>
      <trkpt lat="43.93507" lon="1.92709">
        <ele>170.7713623</ele>
        <time>2014-06-20T13:41:42Z</time>
      </trkpt>
      <trkpt lat="43.93509" lon="1.92699">
        <ele>172.2132568</ele>
        <time>2014-06-20T13:41:47Z</time>
      </trkpt>
      <trkpt lat="43.9351" lon="1.92693">
        <ele>174.1358643</ele>
        <time>2014-06-20T13:41:52Z</time>
      </trkpt>
      <trkpt lat="43.93512" lon="1.92683">
        <ele>176.0585938</ele>
        <time>2014-06-20T13:41:57Z</time>
      </trkpt>
      <trkpt lat="43.93511" lon="1.92674">
        <ele>177.9812012</ele>
        <time>2014-06-20T13:42:02Z</time>
      </trkpt>
      <trkpt lat="43.9351" lon="1.92666">
        <ele>179.4232178</ele>
        <time>2014-06-20T13:42:07Z</time>
      </trkpt>
      <trkpt lat="43.93512" lon="1.92659">
        <ele>180.8652344</ele>
        <time>2014-06-20T13:42:17Z</time>
      </trkpt>
      <trkpt lat="43.93516" lon="1.92654">
        <ele>182.3071289</ele>
        <time>2014-06-20T13:42:22Z</time>
      </trkpt>
      <trkpt lat="43.9352" lon="1.92647">
        <ele>182.3071289</ele>
        <time>2014-06-20T13:42:27Z</time>
      </trkpt>
      <trkpt lat="43.93525" lon="1.92642">
        <ele>182.7878418</ele>
        <time>2014-06-20T13:42:32Z</time>
      </trkpt>
      <trkpt lat="43.93534" lon="1.92634">
        <ele>182.7878418</ele>
        <time>2014-06-20T13:42:42Z</time>
      </trkpt>
      <trkpt lat="43.93538" lon="1.9263">
        <ele>184.2298584</ele>
        <time>2014-06-20T13:42:47Z</time>
      </trkpt>
      <trkpt lat="43.93545" lon="1.92629">
        <ele>185.6717529</ele>
        <time>2014-06-20T13:42:52Z</time>
      </trkpt>
      <trkpt lat="43.9355" lon="1.92627">
        <ele>184.7105713</ele>
        <time>2014-06-20T13:42:57Z</time>
      </trkpt>
      <trkpt lat="43.93561" lon="1.92625">
        <ele>186.6331787</ele>
        <time>2014-06-20T13:43:02Z</time>
      </trkpt>
      <trkpt lat="43.93568" lon="1.92623">
        <ele>188.5557861</ele>
        <time>2014-06-20T13:43:07Z</time>
      </trkpt>
      <trkpt lat="43.93575" lon="1.92622">
        <ele>189.036377</ele>
        <time>2014-06-20T13:43:12Z</time>
      </trkpt>
      <trkpt lat="43.93582" lon="1.92624">
        <ele>188.5557861</ele>
        <time>2014-06-20T13:43:22Z</time>
      </trkpt>
      <trkpt lat="43.93588" lon="1.92624">
        <ele>188.5557861</ele>
        <time>2014-06-20T13:43:27Z</time>
      </trkpt>
      <trkpt lat="43.93594" lon="1.92624">
        <ele>188.5557861</ele>
        <time>2014-06-20T13:43:32Z</time>
      </trkpt>
      <trkpt lat="43.93604" lon="1.92624">
        <ele>189.9976807</ele>
        <time>2014-06-20T13:43:37Z</time>
      </trkpt>
      <trkpt lat="43.93612" lon="1.92623">
        <ele>190.4783936</ele>
        <time>2014-06-20T13:43:42Z</time>
      </trkpt>
      <trkpt lat="43.93619" lon="1.92623">
        <ele>192.401123</ele>
        <time>2014-06-20T13:43:47Z</time>
      </trkpt>
      <trkpt lat="43.93626" lon="1.92624">
        <ele>193.3623047</ele>
        <time>2014-06-20T13:43:52Z</time>
      </trkpt>
      <trkpt lat="43.93633" lon="1.92624">
        <ele>197.2075195</ele>
        <time>2014-06-20T13:43:57Z</time>
      </trkpt>
      <trkpt lat="43.9364" lon="1.92625">
        <ele>198.1689453</ele>
        <time>2014-06-20T13:44:02Z</time>
      </trkpt>
      <trkpt lat="43.93645" lon="1.92624">
        <ele>196.7269287</ele>
        <time>2014-06-20T13:44:07Z</time>
      </trkpt>
      <trkpt lat="43.93652" lon="1.92623">
        <ele>197.2075195</ele>
        <time>2014-06-20T13:44:12Z</time>
      </trkpt>
      <trkpt lat="43.93662" lon="1.92622">
        <ele>198.1689453</ele>
        <time>2014-06-20T13:44:17Z</time>
      </trkpt>
      <trkpt lat="43.93669" lon="1.92624">
        <ele>197.2075195</ele>
        <time>2014-06-20T13:44:22Z</time>
      </trkpt>
      <trkpt lat="43.93673" lon="1.92625">
        <ele>198.1689453</ele>
        <time>2014-06-20T13:44:27Z</time>
      </trkpt>
      <trkpt lat="43.93679" lon="1.92624">
        <ele>198.6495361</ele>
        <time>2014-06-20T13:44:32Z</time>
      </trkpt>
      <trkpt lat="43.93687" lon="1.92625">
        <ele>198.6495361</ele>
        <time>2014-06-20T13:44:37Z</time>
      </trkpt>
      <trkpt lat="43.93691" lon="1.9262">
        <ele>199.130127</ele>
        <time>2014-06-20T13:44:42Z</time>
      </trkpt>
      <trkpt lat="43.93696" lon="1.92614">
        <ele>200.0916748</ele>
        <time>2014-06-20T13:44:47Z</time>
      </trkpt>
      <trkpt lat="43.93707" lon="1.92617">
        <ele>200.5722656</ele>
        <time>2014-06-20T13:44:52Z</time>
      </trkpt>
      <trkpt lat="43.93713" lon="1.92616">
        <ele>199.6108398</ele>
        <time>2014-06-20T13:44:57Z</time>
      </trkpt>
      <trkpt lat="43.93718" lon="1.92605">
        <ele>197.2075195</ele>
        <time>2014-06-20T13:45:07Z</time>
      </trkpt>
      <trkpt lat="43.93722" lon="1.92602">
        <ele>198.6495361</ele>
        <time>2014-06-20T13:45:12Z</time>
      </trkpt>
      <trkpt lat="43.93728" lon="1.92599">
        <ele>200.0916748</ele>
        <time>2014-06-20T13:45:17Z</time>
      </trkpt>
      <trkpt lat="43.93734" lon="1.92594">
        <ele>201.0528564</ele>
        <time>2014-06-20T13:45:22Z</time>
      </trkpt>
      <trkpt lat="43.93742" lon="1.92586">
        <ele>202.0142822</ele>
        <time>2014-06-20T13:45:32Z</time>
      </trkpt>
      <trkpt lat="43.93749" lon="1.92579">
        <ele>197.6882324</ele>
        <time>2014-06-20T13:45:42Z</time>
      </trkpt>
      <trkpt lat="43.93753" lon="1.92575">
        <ele>196.7269287</ele>
        <time>2014-06-20T13:45:47Z</time>
      </trkpt>
      <trkpt lat="43.93758" lon="1.92568">
        <ele>196.7269287</ele>
        <time>2014-06-20T13:45:52Z</time>
      </trkpt>
      <trkpt lat="43.93764" lon="1.9256">
        <ele>196.2463379</ele>
        <time>2014-06-20T13:45:57Z</time>
      </trkpt>
      <trkpt lat="43.93769" lon="1.92552">
        <ele>195.765625</ele>
        <time>2014-06-20T13:46:02Z</time>
      </trkpt>
      <trkpt lat="43.93772" lon="1.92545">
        <ele>194.3237305</ele>
        <time>2014-06-20T13:46:07Z</time>
      </trkpt>
      <trkpt lat="43.93774" lon="1.92539">
        <ele>193.3623047</ele>
        <time>2014-06-20T13:46:12Z</time>
      </trkpt>
      <trkpt lat="43.93777" lon="1.92533">
        <ele>191.4395752</ele>
        <time>2014-06-20T13:46:17Z</time>
      </trkpt>
      <trkpt lat="43.93782" lon="1.92523">
        <ele>191.9202881</ele>
        <time>2014-06-20T13:46:22Z</time>
      </trkpt>
      <trkpt lat="43.93786" lon="1.92515">
        <ele>190.9589844</ele>
        <time>2014-06-20T13:46:27Z</time>
      </trkpt>
      <trkpt lat="43.9379" lon="1.92506">
        <ele>189.9976807</ele>
        <time>2014-06-20T13:46:37Z</time>
      </trkpt>
      <trkpt lat="43.93796" lon="1.92495">
        <ele>190.4783936</ele>
        <time>2014-06-20T13:46:42Z</time>
      </trkpt>
      <trkpt lat="43.93801" lon="1.92486">
        <ele>190.9589844</ele>
        <time>2014-06-20T13:46:47Z</time>
      </trkpt>
      <trkpt lat="43.93806" lon="1.92479">
        <ele>192.401123</ele>
        <time>2014-06-20T13:46:52Z</time>
      </trkpt>
      <trkpt lat="43.93809" lon="1.92465">
        <ele>193.3623047</ele>
        <time>2014-06-20T13:47:02Z</time>
      </trkpt>
      <trkpt lat="43.93812" lon="1.92458">
        <ele>192.8817139</ele>
        <time>2014-06-20T13:47:07Z</time>
      </trkpt>
      <trkpt lat="43.93818" lon="1.9245">
        <ele>192.401123</ele>
        <time>2014-06-20T13:47:12Z</time>
      </trkpt>
      <trkpt lat="43.93822" lon="1.92441">
        <ele>192.8817139</ele>
        <time>2014-06-20T13:47:17Z</time>
      </trkpt>
      <trkpt lat="43.93825" lon="1.92436">
        <ele>191.4395752</ele>
        <time>2014-06-20T13:47:22Z</time>
      </trkpt>
      <trkpt lat="43.93826" lon="1.92428">
        <ele>190.9589844</ele>
        <time>2014-06-20T13:47:27Z</time>
      </trkpt>
      <trkpt lat="43.93828" lon="1.92421">
        <ele>191.4395752</ele>
        <time>2014-06-20T13:47:32Z</time>
      </trkpt>
      <trkpt lat="43.93831" lon="1.92414">
        <ele>189.9976807</ele>
        <time>2014-06-20T13:47:37Z</time>
      </trkpt>
      <trkpt lat="43.93835" lon="1.92405">
        <ele>188.5557861</ele>
        <time>2014-06-20T13:47:42Z</time>
      </trkpt>
      <trkpt lat="43.93837" lon="1.92399">
        <ele>186.6331787</ele>
        <time>2014-06-20T13:47:47Z</time>
      </trkpt>
      <trkpt lat="43.93841" lon="1.9239">
        <ele>187.1137695</ele>
        <time>2014-06-20T13:47:52Z</time>
      </trkpt>
      <trkpt lat="43.93844" lon="1.92384">
        <ele>186.6331787</ele>
        <time>2014-06-20T13:47:57Z</time>
      </trkpt>
      <trkpt lat="43.93848" lon="1.92372">
        <ele>186.6331787</ele>
        <time>2014-06-20T13:48:07Z</time>
      </trkpt>
      <trkpt lat="43.93852" lon="1.92364">
        <ele>186.1524658</ele>
        <time>2014-06-20T13:48:12Z</time>
      </trkpt>
      <trkpt lat="43.93855" lon="1.92353">
        <ele>185.1911621</ele>
        <time>2014-06-20T13:48:17Z</time>
      </trkpt>
      <trkpt lat="43.93859" lon="1.92344">
        <ele>184.7105713</ele>
        <time>2014-06-20T13:48:22Z</time>
      </trkpt>
      <trkpt lat="43.93863" lon="1.92335">
        <ele>184.2298584</ele>
        <time>2014-06-20T13:48:27Z</time>
      </trkpt>
      <trkpt lat="43.93868" lon="1.92323">
        <ele>185.1911621</ele>
        <time>2014-06-20T13:48:37Z</time>
      </trkpt>
      <trkpt lat="43.93872" lon="1.92314">
        <ele>184.7105713</ele>
        <time>2014-06-20T13:48:42Z</time>
      </trkpt>
      <trkpt lat="43.93874" lon="1.92306">
        <ele>181.826416</ele>
        <time>2014-06-20T13:48:47Z</time>
      </trkpt>
      <trkpt lat="43.93876" lon="1.92297">
        <ele>181.3458252</ele>
        <time>2014-06-20T13:48:52Z</time>
      </trkpt>
      <trkpt lat="43.93881" lon="1.92288">
        <ele>181.3458252</ele>
        <time>2014-06-20T13:48:57Z</time>
      </trkpt>
      <trkpt lat="43.9388" lon="1.92279">
        <ele>181.826416</ele>
        <time>2014-06-20T13:49:02Z</time>
      </trkpt>
      <trkpt lat="43.9388" lon="1.92267">
        <ele>181.3458252</ele>
        <time>2014-06-20T13:49:07Z</time>
      </trkpt>
      <trkpt lat="43.93879" lon="1.92253">
        <ele>181.3458252</ele>
        <time>2014-06-20T13:49:12Z</time>
      </trkpt>
      <trkpt lat="43.93878" lon="1.92244">
        <ele>180.8652344</ele>
        <time>2014-06-20T13:49:17Z</time>
      </trkpt>
      <trkpt lat="43.93877" lon="1.92235">
        <ele>182.3071289</ele>
        <time>2014-06-20T13:49:27Z</time>
      </trkpt>
      <trkpt lat="43.93877" lon="1.92225">
        <ele>181.3458252</ele>
        <time>2014-06-20T13:49:32Z</time>
      </trkpt>
      <trkpt lat="43.93881" lon="1.92215">
        <ele>181.3458252</ele>
        <time>2014-06-20T13:49:37Z</time>
      </trkpt>
      <trkpt lat="43.93888" lon="1.92208">
        <ele>181.826416</ele>
        <time>2014-06-20T13:49:42Z</time>
      </trkpt>
      <trkpt lat="43.93897" lon="1.922">
        <ele>180.3845215</ele>
        <time>2014-06-20T13:49:52Z</time>
      </trkpt>
      <trkpt lat="43.93902" lon="1.92193">
        <ele>180.8652344</ele>
        <time>2014-06-20T13:49:57Z</time>
      </trkpt>
      <trkpt lat="43.93906" lon="1.9219">
        <ele>180.3845215</ele>
        <time>2014-06-20T13:50:02Z</time>
      </trkpt>
      <trkpt lat="43.93912" lon="1.92182">
        <ele>181.3458252</ele>
        <time>2014-06-20T13:50:12Z</time>
      </trkpt>
      <trkpt lat="43.93916" lon="1.92177">
        <ele>180.8652344</ele>
        <time>2014-06-20T13:50:17Z</time>
      </trkpt>
      <trkpt lat="43.93919" lon="1.9217">
        <ele>180.8652344</ele>
        <time>2014-06-20T13:50:22Z</time>
      </trkpt>
      <trkpt lat="43.93927" lon="1.92162">
        <ele>181.3458252</ele>
        <time>2014-06-20T13:50:27Z</time>
      </trkpt>
      <trkpt lat="43.93933" lon="1.92154">
        <ele>182.3071289</ele>
        <time>2014-06-20T13:50:32Z</time>
      </trkpt>
      <trkpt lat="43.93937" lon="1.92148">
        <ele>182.7878418</ele>
        <time>2014-06-20T13:50:37Z</time>
      </trkpt>
      <trkpt lat="43.93942" lon="1.92141">
        <ele>182.7878418</ele>
        <time>2014-06-20T13:50:42Z</time>
      </trkpt>
      <trkpt lat="43.93944" lon="1.92133">
        <ele>182.7878418</ele>
        <time>2014-06-20T13:50:47Z</time>
      </trkpt>
      <trkpt lat="43.93948" lon="1.92125">
        <ele>182.7878418</ele>
        <time>2014-06-20T13:50:52Z</time>
      </trkpt>
      <trkpt lat="43.93952" lon="1.92119">
        <ele>183.2684326</ele>
        <time>2014-06-20T13:50:57Z</time>
      </trkpt>
      <trkpt lat="43.93955" lon="1.92114">
        <ele>182.7878418</ele>
        <time>2014-06-20T13:51:02Z</time>
      </trkpt>
      <trkpt lat="43.93959" lon="1.92108">
        <ele>183.2684326</ele>
        <time>2014-06-20T13:51:07Z</time>
      </trkpt>
      <trkpt lat="43.93965" lon="1.92102">
        <ele>183.2684326</ele>
        <time>2014-06-20T13:51:12Z</time>
      </trkpt>
      <trkpt lat="43.93973" lon="1.92099">
        <ele>183.2684326</ele>
        <time>2014-06-20T13:51:17Z</time>
      </trkpt>
      <trkpt lat="43.93978" lon="1.92094">
        <ele>183.2684326</ele>
        <time>2014-06-20T13:51:22Z</time>
      </trkpt>
      <trkpt lat="43.93982" lon="1.92086">
        <ele>179.9038086</ele>
        <time>2014-06-20T13:51:32Z</time>
      </trkpt>
      <trkpt lat="43.93986" lon="1.92081">
        <ele>180.3845215</ele>
        <time>2014-06-20T13:51:37Z</time>
      </trkpt>
      <trkpt lat="43.93996" lon="1.92074">
        <ele>180.3845215</ele>
        <time>2014-06-20T13:51:42Z</time>
      </trkpt>
      <trkpt lat="43.94003" lon="1.92066">
        <ele>181.826416</ele>
        <time>2014-06-20T13:51:47Z</time>
      </trkpt>
      <trkpt lat="43.94008" lon="1.92061">
        <ele>183.7490234</ele>
        <time>2014-06-20T13:51:52Z</time>
      </trkpt>
      <trkpt lat="43.94012" lon="1.92053">
        <ele>181.826416</ele>
        <time>2014-06-20T13:51:57Z</time>
      </trkpt>
      <trkpt lat="43.94015" lon="1.92048">
        <ele>179.9038086</ele>
        <time>2014-06-20T13:52:02Z</time>
      </trkpt>
      <trkpt lat="43.94019" lon="1.92036">
        <ele>174.1358643</ele>
        <time>2014-06-20T13:52:12Z</time>
      </trkpt>
      <trkpt lat="43.94021" lon="1.9203">
        <ele>172.6939697</ele>
        <time>2014-06-20T13:52:17Z</time>
      </trkpt>
      <trkpt lat="43.94025" lon="1.92023">
        <ele>172.2132568</ele>
        <time>2014-06-20T13:52:22Z</time>
      </trkpt>
      <trkpt lat="43.94027" lon="1.92011">
        <ele>173.6552734</ele>
        <time>2014-06-20T13:52:37Z</time>
      </trkpt>
      <trkpt lat="43.94023" lon="1.92004">
        <ele>174.6165771</ele>
        <time>2014-06-20T13:52:42Z</time>
      </trkpt>
      <trkpt lat="43.94022" lon="1.9199">
        <ele>175.5778809</ele>
        <time>2014-06-20T13:52:47Z</time>
      </trkpt>
      <trkpt lat="43.94018" lon="1.91985">
        <ele>177.9812012</ele>
        <time>2014-06-20T13:52:57Z</time>
      </trkpt>
      <trkpt lat="43.94013" lon="1.91982">
        <ele>177.9812012</ele>
        <time>2014-06-20T13:53:02Z</time>
      </trkpt>
      <trkpt lat="43.94011" lon="1.91975">
        <ele>177.5006104</ele>
        <time>2014-06-20T13:53:07Z</time>
      </trkpt>
      <trkpt lat="43.9401" lon="1.91968">
        <ele>177.0200195</ele>
        <time>2014-06-20T13:53:12Z</time>
      </trkpt>
      <trkpt lat="43.94009" lon="1.91961">
        <ele>177.0200195</ele>
        <time>2014-06-20T13:53:17Z</time>
      </trkpt>
      <trkpt lat="43.94007" lon="1.91954">
        <ele>176.5393066</ele>
        <time>2014-06-20T13:53:22Z</time>
      </trkpt>
      <trkpt lat="43.94005" lon="1.91946">
        <ele>176.0585938</ele>
        <time>2014-06-20T13:53:32Z</time>
      </trkpt>
      <trkpt lat="43.9401" lon="1.91941">
        <ele>175.09729</ele>
        <time>2014-06-20T13:53:47Z</time>
      </trkpt>
      <trkpt lat="43.94017" lon="1.91943">
        <ele>176.0585938</ele>
        <time>2014-06-20T13:54:02Z</time>
      </trkpt>
      <trkpt lat="43.94024" lon="1.91935">
        <ele>177.0200195</ele>
        <time>2014-06-20T13:54:07Z</time>
      </trkpt>
      <trkpt lat="43.9403" lon="1.91928">
        <ele>176.5393066</ele>
        <time>2014-06-20T13:54:12Z</time>
      </trkpt>
      <trkpt lat="43.94036" lon="1.91927">
        <ele>175.5778809</ele>
        <time>2014-06-20T13:54:17Z</time>
      </trkpt>
      <trkpt lat="43.94041" lon="1.91924">
        <ele>174.6165771</ele>
        <time>2014-06-20T13:54:22Z</time>
      </trkpt>
      <trkpt lat="43.94047" lon="1.9192">
        <ele>175.5778809</ele>
        <time>2014-06-20T13:54:27Z</time>
      </trkpt>
      <trkpt lat="43.94053" lon="1.91919">
        <ele>176.5393066</ele>
        <time>2014-06-20T13:54:32Z</time>
      </trkpt>
      <trkpt lat="43.94061" lon="1.91914">
        <ele>177.5006104</ele>
        <time>2014-06-20T13:54:37Z</time>
      </trkpt>
      <trkpt lat="43.94067" lon="1.91914">
        <ele>178.942627</ele>
        <time>2014-06-20T13:54:42Z</time>
      </trkpt>
      <trkpt lat="43.94073" lon="1.91912">
        <ele>180.8652344</ele>
        <time>2014-06-20T13:54:47Z</time>
      </trkpt>
      <trkpt lat="43.9408" lon="1.9191">
        <ele>179.9038086</ele>
        <time>2014-06-20T13:54:52Z</time>
      </trkpt>
      <trkpt lat="43.9409" lon="1.91908">
        <ele>177.0200195</ele>
        <time>2014-06-20T13:55:02Z</time>
      </trkpt>
      <trkpt lat="43.94096" lon="1.91906">
        <ele>176.5393066</ele>
        <time>2014-06-20T13:55:07Z</time>
      </trkpt>
      <trkpt lat="43.94102" lon="1.91904">
        <ele>177.9812012</ele>
        <time>2014-06-20T13:55:12Z</time>
      </trkpt>
      <trkpt lat="43.94107" lon="1.919">
        <ele>179.4232178</ele>
        <time>2014-06-20T13:55:17Z</time>
      </trkpt>
      <trkpt lat="43.94112" lon="1.919">
        <ele>178.4619141</ele>
        <time>2014-06-20T13:55:22Z</time>
      </trkpt>
      <trkpt lat="43.94119" lon="1.91899">
        <ele>176.5393066</ele>
        <time>2014-06-20T13:55:27Z</time>
      </trkpt>
      <trkpt lat="43.94124" lon="1.91898">
        <ele>177.9812012</ele>
        <time>2014-06-20T13:55:32Z</time>
      </trkpt>
      <trkpt lat="43.94133" lon="1.91899">
        <ele>176.0585938</ele>
        <time>2014-06-20T13:55:42Z</time>
      </trkpt>
      <trkpt lat="43.94138" lon="1.91902">
        <ele>177.9812012</ele>
        <time>2014-06-20T13:55:47Z</time>
      </trkpt>
      <trkpt lat="43.94146" lon="1.91902">
        <ele>176.5393066</ele>
        <time>2014-06-20T13:55:52Z</time>
      </trkpt>
      <trkpt lat="43.94152" lon="1.919">
        <ele>178.942627</ele>
        <time>2014-06-20T13:55:57Z</time>
      </trkpt>
      <trkpt lat="43.94157" lon="1.919">
        <ele>179.9038086</ele>
        <time>2014-06-20T13:56:02Z</time>
      </trkpt>
      <trkpt lat="43.94164" lon="1.91898">
        <ele>179.4232178</ele>
        <time>2014-06-20T13:56:07Z</time>
      </trkpt>
      <trkpt lat="43.9417" lon="1.91899">
        <ele>179.9038086</ele>
        <time>2014-06-20T13:56:12Z</time>
      </trkpt>
      <trkpt lat="43.94177" lon="1.91899">
        <ele>179.4232178</ele>
        <time>2014-06-20T13:56:17Z</time>
      </trkpt>
      <trkpt lat="43.94185" lon="1.91899">
        <ele>180.3845215</ele>
        <time>2014-06-20T13:56:22Z</time>
      </trkpt>
      <trkpt lat="43.94191" lon="1.919">
        <ele>182.7878418</ele>
        <time>2014-06-20T13:56:27Z</time>
      </trkpt>
      <trkpt lat="43.94199" lon="1.91901">
        <ele>184.7105713</ele>
        <time>2014-06-20T13:56:32Z</time>
      </trkpt>
      <trkpt lat="43.94204" lon="1.91901">
        <ele>186.6331787</ele>
        <time>2014-06-20T13:56:37Z</time>
      </trkpt>
      <trkpt lat="43.94209" lon="1.91902">
        <ele>184.2298584</ele>
        <time>2014-06-20T13:56:42Z</time>
      </trkpt>
      <trkpt lat="43.94216" lon="1.91901">
        <ele>180.8652344</ele>
        <time>2014-06-20T13:56:47Z</time>
      </trkpt>
      <trkpt lat="43.94223" lon="1.91899">
        <ele>178.942627</ele>
        <time>2014-06-20T13:56:52Z</time>
      </trkpt>
      <trkpt lat="43.94231" lon="1.91903">
        <ele>177.0200195</ele>
        <time>2014-06-20T13:56:57Z</time>
      </trkpt>
      <trkpt lat="43.94236" lon="1.91902">
        <ele>179.4232178</ele>
        <time>2014-06-20T13:57:02Z</time>
      </trkpt>
      <trkpt lat="43.94241" lon="1.91901">
        <ele>180.8652344</ele>
        <time>2014-06-20T13:57:07Z</time>
      </trkpt>
      <trkpt lat="43.9425" lon="1.91902">
        <ele>182.3071289</ele>
        <time>2014-06-20T13:57:17Z</time>
      </trkpt>
      <trkpt lat="43.94256" lon="1.91902">
        <ele>182.7878418</ele>
        <time>2014-06-20T13:57:22Z</time>
      </trkpt>
      <trkpt lat="43.94264" lon="1.91902">
        <ele>183.2684326</ele>
        <time>2014-06-20T13:57:27Z</time>
      </trkpt>
      <trkpt lat="43.94271" lon="1.91901">
        <ele>184.2298584</ele>
        <time>2014-06-20T13:57:32Z</time>
      </trkpt>
      <trkpt lat="43.94281" lon="1.91901">
        <ele>185.6717529</ele>
        <time>2014-06-20T13:57:37Z</time>
      </trkpt>
      <trkpt lat="43.94289" lon="1.919">
        <ele>185.6717529</ele>
        <time>2014-06-20T13:57:42Z</time>
      </trkpt>
      <trkpt lat="43.94296" lon="1.91902">
        <ele>194.3237305</ele>
        <time>2014-06-20T13:57:52Z</time>
      </trkpt>
      <trkpt lat="43.94302" lon="1.91904">
        <ele>197.6882324</ele>
        <time>2014-06-20T13:57:57Z</time>
      </trkpt>
      <trkpt lat="43.94308" lon="1.91906">
        <ele>199.6108398</ele>
        <time>2014-06-20T13:58:02Z</time>
      </trkpt>
      <trkpt lat="43.94315" lon="1.91905">
        <ele>199.6108398</ele>
        <time>2014-06-20T13:58:07Z</time>
      </trkpt>
      <trkpt lat="43.94324" lon="1.91904">
        <ele>197.6882324</ele>
        <time>2014-06-20T13:58:17Z</time>
      </trkpt>
      <trkpt lat="43.9433" lon="1.91902">
        <ele>196.7269287</ele>
        <time>2014-06-20T13:58:22Z</time>
      </trkpt>
      <trkpt lat="43.94334" lon="1.91899">
        <ele>197.6882324</ele>
        <time>2014-06-20T13:58:27Z</time>
      </trkpt>
      <trkpt lat="43.94339" lon="1.91899">
        <ele>197.2075195</ele>
        <time>2014-06-20T13:58:32Z</time>
      </trkpt>
      <trkpt lat="43.94347" lon="1.91902">
        <ele>193.3623047</ele>
        <time>2014-06-20T13:58:37Z</time>
      </trkpt>
      <trkpt lat="43.94354" lon="1.91905">
        <ele>189.036377</ele>
        <time>2014-06-20T13:58:47Z</time>
      </trkpt>
      <trkpt lat="43.94361" lon="1.91903">
        <ele>189.036377</ele>
        <time>2014-06-20T13:58:57Z</time>
      </trkpt>
      <trkpt lat="43.94371" lon="1.91901">
        <ele>191.4395752</ele>
        <time>2014-06-20T13:59:07Z</time>
      </trkpt>
      <trkpt lat="43.94376" lon="1.919">
        <ele>192.401123</ele>
        <time>2014-06-20T13:59:12Z</time>
      </trkpt>
      <trkpt lat="43.94385" lon="1.91898">
        <ele>195.765625</ele>
        <time>2014-06-20T13:59:22Z</time>
      </trkpt>
      <trkpt lat="43.94391" lon="1.91896">
        <ele>194.8043213</ele>
        <time>2014-06-20T13:59:27Z</time>
      </trkpt>
      <trkpt lat="43.94396" lon="1.91894">
        <ele>194.3237305</ele>
        <time>2014-06-20T13:59:32Z</time>
      </trkpt>
      <trkpt lat="43.94402" lon="1.91891">
        <ele>199.6108398</ele>
        <time>2014-06-20T13:59:42Z</time>
      </trkpt>
      <trkpt lat="43.94409" lon="1.9189">
        <ele>203.9368896</ele>
        <time>2014-06-20T13:59:52Z</time>
      </trkpt>
      <trkpt lat="43.94418" lon="1.91889">
        <ele>206.8206787</ele>
        <time>2014-06-20T14:00:02Z</time>
      </trkpt>
      <trkpt lat="43.94426" lon="1.91889">
        <ele>210.1854248</ele>
        <time>2014-06-20T14:00:12Z</time>
      </trkpt>
      <trkpt lat="43.94434" lon="1.91888">
        <ele>212.1080322</ele>
        <time>2014-06-20T14:00:22Z</time>
      </trkpt>
      <trkpt lat="43.94441" lon="1.91889">
        <ele>212.1080322</ele>
        <time>2014-06-20T14:00:27Z</time>
      </trkpt>
      <trkpt lat="43.94446" lon="1.91889">
        <ele>210.6660156</ele>
        <time>2014-06-20T14:00:37Z</time>
      </trkpt>
      <trkpt lat="43.9445" lon="1.9189">
        <ele>212.1080322</ele>
        <time>2014-06-20T14:00:42Z</time>
      </trkpt>
      <trkpt lat="43.94454" lon="1.91891">
        <ele>214.0306396</ele>
        <time>2014-06-20T14:00:47Z</time>
      </trkpt>
      <trkpt lat="43.94461" lon="1.91894">
        <ele>212.588623</ele>
        <time>2014-06-20T14:00:52Z</time>
      </trkpt>
      <trkpt lat="43.94465" lon="1.91895">
        <ele>212.588623</ele>
        <time>2014-06-20T14:00:57Z</time>
      </trkpt>
      <trkpt lat="43.94471" lon="1.91895">
        <ele>213.0693359</ele>
        <time>2014-06-20T14:01:02Z</time>
      </trkpt>
      <trkpt lat="43.94476" lon="1.91896">
        <ele>214.5112305</ele>
        <time>2014-06-20T14:01:07Z</time>
      </trkpt>
      <trkpt lat="43.94486" lon="1.919">
        <ele>216.43396</ele>
        <time>2014-06-20T14:01:17Z</time>
      </trkpt>
      <trkpt lat="43.94493" lon="1.91902">
        <ele>217.3953857</ele>
        <time>2014-06-20T14:01:27Z</time>
      </trkpt>
      <trkpt lat="43.94498" lon="1.91905">
        <ele>217.3953857</ele>
        <time>2014-06-20T14:01:32Z</time>
      </trkpt>
      <trkpt lat="43.94502" lon="1.91908">
        <ele>216.9146729</ele>
        <time>2014-06-20T14:01:37Z</time>
      </trkpt>
      <trkpt lat="43.94512" lon="1.91906">
        <ele>217.8759766</ele>
        <time>2014-06-20T14:01:47Z</time>
      </trkpt>
      <trkpt lat="43.94516" lon="1.91908">
        <ele>216.9146729</ele>
        <time>2014-06-20T14:01:52Z</time>
      </trkpt>
      <trkpt lat="43.94521" lon="1.9191">
        <ele>217.3953857</ele>
        <time>2014-06-20T14:01:57Z</time>
      </trkpt>
      <trkpt lat="43.94528" lon="1.91911">
        <ele>222.2017822</ele>
        <time>2014-06-20T14:02:07Z</time>
      </trkpt>
      <trkpt lat="43.94534" lon="1.91914">
        <ele>224.6052246</ele>
        <time>2014-06-20T14:02:12Z</time>
      </trkpt>
      <trkpt lat="43.94541" lon="1.91916">
        <ele>227.0085449</ele>
        <time>2014-06-20T14:02:22Z</time>
      </trkpt>
      <trkpt lat="43.9455" lon="1.91924">
        <ele>229.4117432</ele>
        <time>2014-06-20T14:02:32Z</time>
      </trkpt>
      <trkpt lat="43.94555" lon="1.91925">
        <ele>229.4117432</ele>
        <time>2014-06-20T14:02:37Z</time>
      </trkpt>
      <trkpt lat="43.9456" lon="1.91926">
        <ele>228.9311523</ele>
        <time>2014-06-20T14:02:42Z</time>
      </trkpt>
      <trkpt lat="43.94568" lon="1.91929">
        <ele>229.4117432</ele>
        <time>2014-06-20T14:02:52Z</time>
      </trkpt>
      <trkpt lat="43.94573" lon="1.91933">
        <ele>227.4891357</ele>
        <time>2014-06-20T14:02:57Z</time>
      </trkpt>
      <trkpt lat="43.94578" lon="1.91933">
        <ele>227.9697266</ele>
        <time>2014-06-20T14:03:02Z</time>
      </trkpt>
      <trkpt lat="43.94584" lon="1.91934">
        <ele>228.9311523</ele>
        <time>2014-06-20T14:03:07Z</time>
      </trkpt>
      <trkpt lat="43.94593" lon="1.91935">
        <ele>228.4504395</ele>
        <time>2014-06-20T14:03:12Z</time>
      </trkpt>
      <trkpt lat="43.94598" lon="1.91934">
        <ele>228.9311523</ele>
        <time>2014-06-20T14:03:17Z</time>
      </trkpt>
      <trkpt lat="43.94603" lon="1.91936">
        <ele>229.4117432</ele>
        <time>2014-06-20T14:03:22Z</time>
      </trkpt>
      <trkpt lat="43.9461" lon="1.91936">
        <ele>227.0085449</ele>
        <time>2014-06-20T14:03:27Z</time>
      </trkpt>
      <trkpt lat="43.94615" lon="1.91937">
        <ele>226.527832</ele>
        <time>2014-06-20T14:03:32Z</time>
      </trkpt>
      <trkpt lat="43.94621" lon="1.91941">
        <ele>228.9311523</ele>
        <time>2014-06-20T14:03:42Z</time>
      </trkpt>
      <trkpt lat="43.94628" lon="1.91947">
        <ele>231.3343506</ele>
        <time>2014-06-20T14:03:52Z</time>
      </trkpt>
      <trkpt lat="43.94634" lon="1.9195">
        <ele>230.8537598</ele>
        <time>2014-06-20T14:03:57Z</time>
      </trkpt>
      <trkpt lat="43.9464" lon="1.91954">
        <ele>231.3343506</ele>
        <time>2014-06-20T14:04:02Z</time>
      </trkpt>
      <trkpt lat="43.94644" lon="1.91956">
        <ele>232.2957764</ele>
        <time>2014-06-20T14:04:07Z</time>
      </trkpt>
      <trkpt lat="43.94652" lon="1.9196">
        <ele>232.7764893</ele>
        <time>2014-06-20T14:04:22Z</time>
      </trkpt>
      <trkpt lat="43.94658" lon="1.91965">
        <ele>232.2957764</ele>
        <time>2014-06-20T14:04:27Z</time>
      </trkpt>
      <trkpt lat="43.94662" lon="1.91969">
        <ele>231.3343506</ele>
        <time>2014-06-20T14:04:32Z</time>
      </trkpt>
      <trkpt lat="43.94668" lon="1.9197">
        <ele>230.3730469</ele>
        <time>2014-06-20T14:04:37Z</time>
      </trkpt>
      <trkpt lat="43.94672" lon="1.91973">
        <ele>230.3730469</ele>
        <time>2014-06-20T14:04:42Z</time>
      </trkpt>
      <trkpt lat="43.94678" lon="1.91975">
        <ele>228.4504395</ele>
        <time>2014-06-20T14:04:47Z</time>
      </trkpt>
      <trkpt lat="43.94684" lon="1.9198">
        <ele>226.0471191</ele>
        <time>2014-06-20T14:04:52Z</time>
      </trkpt>
      <trkpt lat="43.94689" lon="1.9198">
        <ele>222.6824951</ele>
        <time>2014-06-20T14:04:57Z</time>
      </trkpt>
      <trkpt lat="43.94697" lon="1.91983">
        <ele>222.2017822</ele>
        <time>2014-06-20T14:05:02Z</time>
      </trkpt>
      <trkpt lat="43.94702" lon="1.91985">
        <ele>223.163208</ele>
        <time>2014-06-20T14:05:07Z</time>
      </trkpt>
      <trkpt lat="43.94709" lon="1.91987">
        <ele>224.1245117</ele>
        <time>2014-06-20T14:05:12Z</time>
      </trkpt>
      <trkpt lat="43.94715" lon="1.91992">
        <ele>225.5665283</ele>
        <time>2014-06-20T14:05:17Z</time>
      </trkpt>
      <trkpt lat="43.94721" lon="1.91994">
        <ele>227.0085449</ele>
        <time>2014-06-20T14:05:22Z</time>
      </trkpt>
      <trkpt lat="43.94725" lon="1.91999">
        <ele>227.4891357</ele>
        <time>2014-06-20T14:05:27Z</time>
      </trkpt>
      <trkpt lat="43.94729" lon="1.92002">
        <ele>227.9697266</ele>
        <time>2014-06-20T14:05:32Z</time>
      </trkpt>
      <trkpt lat="43.94736" lon="1.92002">
        <ele>228.9311523</ele>
        <time>2014-06-20T14:05:37Z</time>
      </trkpt>
      <trkpt lat="43.94741" lon="1.92006">
        <ele>230.3730469</ele>
        <time>2014-06-20T14:05:42Z</time>
      </trkpt>
      <trkpt lat="43.94746" lon="1.92012">
        <ele>234.2183838</ele>
        <time>2014-06-20T14:05:52Z</time>
      </trkpt>
      <trkpt lat="43.94751" lon="1.92017">
        <ele>235.1796875</ele>
        <time>2014-06-20T14:05:57Z</time>
      </trkpt>
      <trkpt lat="43.94757" lon="1.92016">
        <ele>235.6602783</ele>
        <time>2014-06-20T14:06:12Z</time>
      </trkpt>
      <trkpt lat="43.94766" lon="1.92012">
        <ele>235.6602783</ele>
        <time>2014-06-20T14:06:17Z</time>
      </trkpt>
      <trkpt lat="43.9477" lon="1.92008">
        <ele>233.7376709</ele>
        <time>2014-06-20T14:06:22Z</time>
      </trkpt>
      <trkpt lat="43.94775" lon="1.92003">
        <ele>232.2957764</ele>
        <time>2014-06-20T14:06:27Z</time>
      </trkpt>
      <trkpt lat="43.94777" lon="1.91998">
        <ele>230.3730469</ele>
        <time>2014-06-20T14:06:32Z</time>
      </trkpt>
      <trkpt lat="43.94782" lon="1.91994">
        <ele>229.4117432</ele>
        <time>2014-06-20T14:06:37Z</time>
      </trkpt>
      <trkpt lat="43.94789" lon="1.91987">
        <ele>227.4891357</ele>
        <time>2014-06-20T14:06:42Z</time>
      </trkpt>
      <trkpt lat="43.94798" lon="1.9198">
        <ele>226.0471191</ele>
        <time>2014-06-20T14:06:47Z</time>
      </trkpt>
      <trkpt lat="43.94804" lon="1.91974">
        <ele>224.1245117</ele>
        <time>2014-06-20T14:06:52Z</time>
      </trkpt>
      <trkpt lat="43.94812" lon="1.9197">
        <ele>223.163208</ele>
        <time>2014-06-20T14:06:57Z</time>
      </trkpt>
      <trkpt lat="43.94818" lon="1.91965">
        <ele>222.6824951</ele>
        <time>2014-06-20T14:07:02Z</time>
      </trkpt>
      <trkpt lat="43.94827" lon="1.91964">
        <ele>222.2017822</ele>
        <time>2014-06-20T14:07:12Z</time>
      </trkpt>
      <trkpt lat="43.94832" lon="1.91959">
        <ele>227.0085449</ele>
        <time>2014-06-20T14:07:22Z</time>
      </trkpt>
      <trkpt lat="43.94838" lon="1.91956">
        <ele>226.0471191</ele>
        <time>2014-06-20T14:07:27Z</time>
      </trkpt>
      <trkpt lat="43.94844" lon="1.91953">
        <ele>227.0085449</ele>
        <time>2014-06-20T14:07:32Z</time>
      </trkpt>
      <trkpt lat="43.94851" lon="1.91949">
        <ele>227.9697266</ele>
        <time>2014-06-20T14:07:37Z</time>
      </trkpt>
      <trkpt lat="43.94862" lon="1.91951">
        <ele>231.3343506</ele>
        <time>2014-06-20T14:07:47Z</time>
      </trkpt>
      <trkpt lat="43.94869" lon="1.91949">
        <ele>235.6602783</ele>
        <time>2014-06-20T14:07:52Z</time>
      </trkpt>
      <trkpt lat="43.94878" lon="1.91949">
        <ele>236.6217041</ele>
        <time>2014-06-20T14:08:02Z</time>
      </trkpt>
      <trkpt lat="43.94882" lon="1.91948">
        <ele>236.6217041</ele>
        <time>2014-06-20T14:08:07Z</time>
      </trkpt>
      <trkpt lat="43.94892" lon="1.91947">
        <ele>238.5443115</ele>
        <time>2014-06-20T14:08:17Z</time>
      </trkpt>
      <trkpt lat="43.94897" lon="1.91947">
        <ele>239.9862061</ele>
        <time>2014-06-20T14:08:22Z</time>
      </trkpt>
      <trkpt lat="43.94902" lon="1.91946">
        <ele>240.467041</ele>
        <time>2014-06-20T14:08:27Z</time>
      </trkpt>
      <trkpt lat="43.94907" lon="1.91948">
        <ele>239.9862061</ele>
        <time>2014-06-20T14:08:32Z</time>
      </trkpt>
      <trkpt lat="43.94914" lon="1.91947">
        <ele>239.0249023</ele>
        <time>2014-06-20T14:08:37Z</time>
      </trkpt>
      <trkpt lat="43.94923" lon="1.91946">
        <ele>239.0249023</ele>
        <time>2014-06-20T14:08:42Z</time>
      </trkpt>
      <trkpt lat="43.94928" lon="1.91946">
        <ele>237.5828857</ele>
        <time>2014-06-20T14:08:47Z</time>
      </trkpt>
      <trkpt lat="43.94938" lon="1.91946">
        <ele>235.6602783</ele>
        <time>2014-06-20T14:08:57Z</time>
      </trkpt>
      <trkpt lat="43.94943" lon="1.9195">
        <ele>237.1022949</ele>
        <time>2014-06-20T14:09:02Z</time>
      </trkpt>
      <trkpt lat="43.94956" lon="1.91954">
        <ele>239.0249023</ele>
        <time>2014-06-20T14:10:02Z</time>
      </trkpt>
      <trkpt lat="43.94962" lon="1.91946">
        <ele>237.5828857</ele>
        <time>2014-06-20T14:10:12Z</time>
      </trkpt>
      <trkpt lat="43.94966" lon="1.9194">
        <ele>237.5828857</ele>
        <time>2014-06-20T14:10:17Z</time>
      </trkpt>
      <trkpt lat="43.94972" lon="1.91934">
        <ele>237.5828857</ele>
        <time>2014-06-20T14:10:22Z</time>
      </trkpt>
      <trkpt lat="43.9498" lon="1.91933">
        <ele>239.0249023</ele>
        <time>2014-06-20T14:10:27Z</time>
      </trkpt>
      <trkpt lat="43.94987" lon="1.91932">
        <ele>239.0249023</ele>
        <time>2014-06-20T14:10:32Z</time>
      </trkpt>
      <trkpt lat="43.94994" lon="1.91933">
        <ele>238.5443115</ele>
        <time>2014-06-20T14:10:37Z</time>
      </trkpt>
      <trkpt lat="43.95001" lon="1.91932">
        <ele>238.0635986</ele>
        <time>2014-06-20T14:10:42Z</time>
      </trkpt>
      <trkpt lat="43.95006" lon="1.91932">
        <ele>238.0635986</ele>
        <time>2014-06-20T14:10:47Z</time>
      </trkpt>
      <trkpt lat="43.95013" lon="1.91932">
        <ele>240.467041</ele>
        <time>2014-06-20T14:10:57Z</time>
      </trkpt>
      <trkpt lat="43.9502" lon="1.91929">
        <ele>240.467041</ele>
        <time>2014-06-20T14:11:02Z</time>
      </trkpt>
      <trkpt lat="43.95022" lon="1.91937">
        <ele>238.5443115</ele>
        <time>2014-06-20T14:11:07Z</time>
      </trkpt>
      <trkpt lat="43.95021" lon="1.91943">
        <ele>238.0635986</ele>
        <time>2014-06-20T14:11:12Z</time>
      </trkpt>
      <trkpt lat="43.95018" lon="1.91952">
        <ele>236.6217041</ele>
        <time>2014-06-20T14:11:17Z</time>
      </trkpt>
      <trkpt lat="43.95014" lon="1.91958">
        <ele>236.6217041</ele>
        <time>2014-06-20T14:11:22Z</time>
      </trkpt>
      <trkpt lat="43.95009" lon="1.91966">
        <ele>237.5828857</ele>
        <time>2014-06-20T14:11:27Z</time>
      </trkpt>
      <trkpt lat="43.95006" lon="1.91973">
        <ele>237.5828857</ele>
        <time>2014-06-20T14:11:32Z</time>
      </trkpt>
      <trkpt lat="43.95006" lon="1.91972">
        <ele>237.5828857</ele>
        <time>2014-06-20T14:11:57Z</time>
      </trkpt>
      <trkpt lat="43.95005" lon="1.91973">
        <ele>234.2183838</ele>
        <time>2014-06-20T14:12:27Z</time>
      </trkpt>
      <trkpt lat="43.95002" lon="1.91977">
        <ele>232.7764893</ele>
        <time>2014-06-20T14:12:37Z</time>
      </trkpt>
      <trkpt lat="43.94999" lon="1.91984">
        <ele>233.2570801</ele>
        <time>2014-06-20T14:12:42Z</time>
      </trkpt>
      <trkpt lat="43.94995" lon="1.91991">
        <ele>232.7764893</ele>
        <time>2014-06-20T14:12:47Z</time>
      </trkpt>
      <trkpt lat="43.94992" lon="1.92001">
        <ele>233.2570801</ele>
        <time>2014-06-20T14:12:52Z</time>
      </trkpt>
      <trkpt lat="43.94988" lon="1.92008">
        <ele>233.7376709</ele>
        <time>2014-06-20T14:12:57Z</time>
      </trkpt>
      <trkpt lat="43.94991" lon="1.92003">
        <ele>234.6990967</ele>
        <time>2014-06-20T14:13:22Z</time>
      </trkpt>
      <trkpt lat="43.9499" lon="1.92011">
        <ele>236.1409912</ele>
        <time>2014-06-20T14:13:37Z</time>
      </trkpt>
      <trkpt lat="43.94985" lon="1.92019">
        <ele>236.1409912</ele>
        <time>2014-06-20T14:13:42Z</time>
      </trkpt>
      <trkpt lat="43.94981" lon="1.92027">
        <ele>236.1409912</ele>
        <time>2014-06-20T14:13:47Z</time>
      </trkpt>
      <trkpt lat="43.94977" lon="1.92034">
        <ele>236.1409912</ele>
        <time>2014-06-20T14:13:52Z</time>
      </trkpt>
      <trkpt lat="43.94974" lon="1.9204">
        <ele>237.5828857</ele>
        <time>2014-06-20T14:13:57Z</time>
      </trkpt>
      <trkpt lat="43.94969" lon="1.92046">
        <ele>238.0635986</ele>
        <time>2014-06-20T14:14:02Z</time>
      </trkpt>
      <trkpt lat="43.94964" lon="1.92051">
        <ele>238.5443115</ele>
        <time>2014-06-20T14:14:07Z</time>
      </trkpt>
      <trkpt lat="43.9496" lon="1.92055">
        <ele>239.0249023</ele>
        <time>2014-06-20T14:14:12Z</time>
      </trkpt>
      <trkpt lat="43.94957" lon="1.92063">
        <ele>239.5054932</ele>
        <time>2014-06-20T14:14:17Z</time>
      </trkpt>
      <trkpt lat="43.94951" lon="1.9207">
        <ele>239.9862061</ele>
        <time>2014-06-20T14:14:22Z</time>
      </trkpt>
      <trkpt lat="43.94948" lon="1.92076">
        <ele>240.9476318</ele>
        <time>2014-06-20T14:14:27Z</time>
      </trkpt>
      <trkpt lat="43.94944" lon="1.92086">
        <ele>242.8702393</ele>
        <time>2014-06-20T14:14:52Z</time>
      </trkpt>
      <trkpt lat="43.94938" lon="1.92089">
        <ele>243.3508301</ele>
        <time>2014-06-20T14:14:57Z</time>
      </trkpt>
      <trkpt lat="43.94933" lon="1.92097">
        <ele>243.3508301</ele>
        <time>2014-06-20T14:15:02Z</time>
      </trkpt>
      <trkpt lat="43.94929" lon="1.92103">
        <ele>242.8702393</ele>
        <time>2014-06-20T14:15:07Z</time>
      </trkpt>
      <trkpt lat="43.94927" lon="1.92109">
        <ele>242.8702393</ele>
        <time>2014-06-20T14:15:12Z</time>
      </trkpt>
      <trkpt lat="43.94928" lon="1.92112">
        <ele>242.3896484</ele>
        <time>2014-06-20T14:15:47Z</time>
      </trkpt>
      <trkpt lat="43.9493" lon="1.92107">
        <ele>239.9862061</ele>
        <time>2014-06-20T14:17:02Z</time>
      </trkpt>
      <trkpt lat="43.94934" lon="1.9211">
        <ele>240.9476318</ele>
        <time>2014-06-20T14:17:12Z</time>
      </trkpt>
      <trkpt lat="43.94939" lon="1.92112">
        <ele>241.9089355</ele>
        <time>2014-06-20T14:17:17Z</time>
      </trkpt>
      <trkpt lat="43.94944" lon="1.92115">
        <ele>243.3508301</ele>
        <time>2014-06-20T14:17:22Z</time>
      </trkpt>
      <trkpt lat="43.9495" lon="1.92116">
        <ele>245.7541504</ele>
        <time>2014-06-20T14:17:27Z</time>
      </trkpt>
      <trkpt lat="43.94956" lon="1.92119">
        <ele>245.7541504</ele>
        <time>2014-06-20T14:17:32Z</time>
      </trkpt>
      <trkpt lat="43.94962" lon="1.92121">
        <ele>244.7928467</ele>
        <time>2014-06-20T14:17:37Z</time>
      </trkpt>
      <trkpt lat="43.94969" lon="1.92124">
        <ele>243.831543</ele>
        <time>2014-06-20T14:17:42Z</time>
      </trkpt>
      <trkpt lat="43.94981" lon="1.92123">
        <ele>241.9089355</ele>
        <time>2014-06-20T14:17:52Z</time>
      </trkpt>
      <trkpt lat="43.94987" lon="1.92126">
        <ele>236.1409912</ele>
        <time>2014-06-20T14:17:57Z</time>
      </trkpt>
      <trkpt lat="43.9499" lon="1.9213">
        <ele>233.2570801</ele>
        <time>2014-06-20T14:18:02Z</time>
      </trkpt>
      <trkpt lat="43.94999" lon="1.9213">
        <ele>228.9311523</ele>
        <time>2014-06-20T14:18:07Z</time>
      </trkpt>
      <trkpt lat="43.95004" lon="1.92132">
        <ele>227.4891357</ele>
        <time>2014-06-20T14:18:12Z</time>
      </trkpt>
      <trkpt lat="43.95012" lon="1.92133">
        <ele>227.4891357</ele>
        <time>2014-06-20T14:18:22Z</time>
      </trkpt>
      <trkpt lat="43.95017" lon="1.92134">
        <ele>227.0085449</ele>
        <time>2014-06-20T14:18:27Z</time>
      </trkpt>
      <trkpt lat="43.95024" lon="1.92137">
        <ele>224.6052246</ele>
        <time>2014-06-20T14:18:32Z</time>
      </trkpt>
      <trkpt lat="43.95029" lon="1.92136">
        <ele>223.163208</ele>
        <time>2014-06-20T14:18:37Z</time>
      </trkpt>
      <trkpt lat="43.95035" lon="1.92139">
        <ele>220.2791748</ele>
        <time>2014-06-20T14:18:42Z</time>
      </trkpt>
      <trkpt lat="43.95043" lon="1.9214">
        <ele>215.9532471</ele>
        <time>2014-06-20T14:18:47Z</time>
      </trkpt>
      <trkpt lat="43.95049" lon="1.92142">
        <ele>214.0306396</ele>
        <time>2014-06-20T14:18:52Z</time>
      </trkpt>
      <trkpt lat="43.95055" lon="1.92143">
        <ele>214.0306396</ele>
        <time>2014-06-20T14:18:57Z</time>
      </trkpt>
      <trkpt lat="43.95061" lon="1.92146">
        <ele>214.5112305</ele>
        <time>2014-06-20T14:19:02Z</time>
      </trkpt>
      <trkpt lat="43.95066" lon="1.92145">
        <ele>214.5112305</ele>
        <time>2014-06-20T14:19:07Z</time>
      </trkpt>
      <trkpt lat="43.95071" lon="1.92148">
        <ele>215.9532471</ele>
        <time>2014-06-20T14:19:12Z</time>
      </trkpt>
      <trkpt lat="43.95078" lon="1.92147">
        <ele>216.43396</ele>
        <time>2014-06-20T14:19:17Z</time>
      </trkpt>
      <trkpt lat="43.95083" lon="1.92147">
        <ele>216.9146729</ele>
        <time>2014-06-20T14:19:22Z</time>
      </trkpt>
      <trkpt lat="43.95089" lon="1.92144">
        <ele>216.43396</ele>
        <time>2014-06-20T14:19:27Z</time>
      </trkpt>
      <trkpt lat="43.9509" lon="1.92143">
        <ele>219.3179932</ele>
        <time>2014-06-20T14:19:37Z</time>
      </trkpt>
      <trkpt lat="43.95094" lon="1.92156">
        <ele>217.3953857</ele>
        <time>2014-06-20T14:20:12Z</time>
      </trkpt>
      <trkpt lat="43.95096" lon="1.92165">
        <ele>216.9146729</ele>
        <time>2014-06-20T14:20:17Z</time>
      </trkpt>
      <trkpt lat="43.95099" lon="1.9217">
        <ele>216.9146729</ele>
        <time>2014-06-20T14:20:22Z</time>
      </trkpt>
      <trkpt lat="43.95102" lon="1.92176">
        <ele>215.9532471</ele>
        <time>2014-06-20T14:20:27Z</time>
      </trkpt>
      <trkpt lat="43.95105" lon="1.92179">
        <ele>214.5112305</ele>
        <time>2014-06-20T14:20:57Z</time>
      </trkpt>
      <trkpt lat="43.95107" lon="1.92192">
        <ele>214.9919434</ele>
        <time>2014-06-20T14:21:02Z</time>
      </trkpt>
      <trkpt lat="43.95111" lon="1.922">
        <ele>214.5112305</ele>
        <time>2014-06-20T14:21:07Z</time>
      </trkpt>
      <trkpt lat="43.95112" lon="1.9221">
        <ele>212.588623</ele>
        <time>2014-06-20T14:21:12Z</time>
      </trkpt>
      <trkpt lat="43.95118" lon="1.92216">
        <ele>212.588623</ele>
        <time>2014-06-20T14:21:17Z</time>
      </trkpt>
      <trkpt lat="43.95128" lon="1.92221">
        <ele>214.5112305</ele>
        <time>2014-06-20T14:21:27Z</time>
      </trkpt>
      <trkpt lat="43.95135" lon="1.92222">
        <ele>214.9919434</ele>
        <time>2014-06-20T14:21:32Z</time>
      </trkpt>
      <trkpt lat="43.95141" lon="1.92229">
        <ele>214.5112305</ele>
        <time>2014-06-20T14:21:37Z</time>
      </trkpt>
      <trkpt lat="43.95145" lon="1.92236">
        <ele>213.0693359</ele>
        <time>2014-06-20T14:21:42Z</time>
      </trkpt>
      <trkpt lat="43.95148" lon="1.92243">
        <ele>213.0693359</ele>
        <time>2014-06-20T14:21:47Z</time>
      </trkpt>
      <trkpt lat="43.95153" lon="1.92246">
        <ele>211.1467285</ele>
        <time>2014-06-20T14:21:52Z</time>
      </trkpt>
      <trkpt lat="43.95158" lon="1.92249">
        <ele>209.704834</ele>
        <time>2014-06-20T14:21:57Z</time>
      </trkpt>
      <trkpt lat="43.95163" lon="1.92256">
        <ele>208.2628174</ele>
        <time>2014-06-20T14:22:02Z</time>
      </trkpt>
      <trkpt lat="43.95165" lon="1.92265">
        <ele>205.8594971</ele>
        <time>2014-06-20T14:22:07Z</time>
      </trkpt>
      <trkpt lat="43.95169" lon="1.92271">
        <ele>206.3400879</ele>
        <time>2014-06-20T14:22:12Z</time>
      </trkpt>
      <trkpt lat="43.95174" lon="1.92274">
        <ele>205.8594971</ele>
        <time>2014-06-20T14:22:17Z</time>
      </trkpt>
      <trkpt lat="43.95178" lon="1.92279">
        <ele>205.8594971</ele>
        <time>2014-06-20T14:22:22Z</time>
      </trkpt>
      <trkpt lat="43.95181" lon="1.92286">
        <ele>205.8594971</ele>
        <time>2014-06-20T14:22:27Z</time>
      </trkpt>
      <trkpt lat="43.95186" lon="1.92291">
        <ele>205.8594971</ele>
        <time>2014-06-20T14:22:32Z</time>
      </trkpt>
      <trkpt lat="43.95189" lon="1.92299">
        <ele>205.8594971</ele>
        <time>2014-06-20T14:22:37Z</time>
      </trkpt>
      <trkpt lat="43.95201" lon="1.92305">
        <ele>205.8594971</ele>
        <time>2014-06-20T14:22:47Z</time>
      </trkpt>
      <trkpt lat="43.95204" lon="1.9231">
        <ele>205.3787842</ele>
        <time>2014-06-20T14:22:52Z</time>
      </trkpt>
      <trkpt lat="43.95209" lon="1.92315">
        <ele>204.8980713</ele>
        <time>2014-06-20T14:22:57Z</time>
      </trkpt>
      <trkpt lat="43.95212" lon="1.92322">
        <ele>204.8980713</ele>
        <time>2014-06-20T14:23:02Z</time>
      </trkpt>
      <trkpt lat="43.95212" lon="1.92329">
        <ele>204.4174805</ele>
        <time>2014-06-20T14:23:07Z</time>
      </trkpt>
      <trkpt lat="43.95217" lon="1.92341">
        <ele>202.494873</ele>
        <time>2014-06-20T14:23:17Z</time>
      </trkpt>
      <trkpt lat="43.95222" lon="1.9235">
        <ele>201.5335693</ele>
        <time>2014-06-20T14:23:22Z</time>
      </trkpt>
      <trkpt lat="43.95223" lon="1.92362">
        <ele>202.494873</ele>
        <time>2014-06-20T14:23:32Z</time>
      </trkpt>
      <trkpt lat="43.95227" lon="1.92371">
        <ele>202.9754639</ele>
        <time>2014-06-20T14:23:37Z</time>
      </trkpt>
      <trkpt lat="43.95232" lon="1.92374">
        <ele>203.4561768</ele>
        <time>2014-06-20T14:23:42Z</time>
      </trkpt>
      <trkpt lat="43.95239" lon="1.92374">
        <ele>203.4561768</ele>
        <time>2014-06-20T14:23:47Z</time>
      </trkpt>
      <trkpt lat="43.95246" lon="1.9238">
        <ele>204.4174805</ele>
        <time>2014-06-20T14:23:52Z</time>
      </trkpt>
      <trkpt lat="43.95251" lon="1.92388">
        <ele>205.3787842</ele>
        <time>2014-06-20T14:23:57Z</time>
      </trkpt>
      <trkpt lat="43.95253" lon="1.92398">
        <ele>207.3013916</ele>
        <time>2014-06-20T14:24:02Z</time>
      </trkpt>
      <trkpt lat="43.95261" lon="1.92406">
        <ele>207.3013916</ele>
        <time>2014-06-20T14:24:07Z</time>
      </trkpt>
      <trkpt lat="43.95263" lon="1.92413">
        <ele>208.2628174</ele>
        <time>2014-06-20T14:24:12Z</time>
      </trkpt>
      <trkpt lat="43.95264" lon="1.92422">
        <ele>208.7434082</ele>
        <time>2014-06-20T14:24:17Z</time>
      </trkpt>
      <trkpt lat="43.95269" lon="1.92424">
        <ele>209.2241211</ele>
        <time>2014-06-20T14:24:22Z</time>
      </trkpt>
      <trkpt lat="43.95269" lon="1.92433">
        <ele>208.2628174</ele>
        <time>2014-06-20T14:24:27Z</time>
      </trkpt>
      <trkpt lat="43.95274" lon="1.92439">
        <ele>207.3013916</ele>
        <time>2014-06-20T14:24:32Z</time>
      </trkpt>
      <trkpt lat="43.95276" lon="1.92445">
        <ele>207.7821045</ele>
        <time>2014-06-20T14:24:37Z</time>
      </trkpt>
      <trkpt lat="43.9528" lon="1.9245">
        <ele>207.7821045</ele>
        <time>2014-06-20T14:24:42Z</time>
      </trkpt>
      <trkpt lat="43.95286" lon="1.92453">
        <ele>206.8206787</ele>
        <time>2014-06-20T14:24:47Z</time>
      </trkpt>
      <trkpt lat="43.95291" lon="1.9246">
        <ele>201.0528564</ele>
        <time>2014-06-20T14:24:57Z</time>
      </trkpt>
      <trkpt lat="43.95298" lon="1.92463">
        <ele>199.130127</ele>
        <time>2014-06-20T14:25:07Z</time>
      </trkpt>
      <trkpt lat="43.95301" lon="1.92472">
        <ele>197.2075195</ele>
        <time>2014-06-20T14:25:12Z</time>
      </trkpt>
      <trkpt lat="43.95308" lon="1.92474">
        <ele>195.2849121</ele>
        <time>2014-06-20T14:25:17Z</time>
      </trkpt>
      <trkpt lat="43.95312" lon="1.92481">
        <ele>194.8043213</ele>
        <time>2014-06-20T14:25:22Z</time>
      </trkpt>
      <trkpt lat="43.95317" lon="1.92488">
        <ele>194.8043213</ele>
        <time>2014-06-20T14:25:27Z</time>
      </trkpt>
      <trkpt lat="43.9532" lon="1.92494">
        <ele>193.8430176</ele>
        <time>2014-06-20T14:25:32Z</time>
      </trkpt>
      <trkpt lat="43.95325" lon="1.92498">
        <ele>190.9589844</ele>
        <time>2014-06-20T14:25:37Z</time>
      </trkpt>
      <trkpt lat="43.95328" lon="1.92501">
        <ele>190.4783936</ele>
        <time>2014-06-20T14:25:42Z</time>
      </trkpt>
      <trkpt lat="43.95332" lon="1.92506">
        <ele>189.036377</ele>
        <time>2014-06-20T14:25:47Z</time>
      </trkpt>
      <trkpt lat="43.95335" lon="1.92514">
        <ele>186.6331787</ele>
        <time>2014-06-20T14:25:52Z</time>
      </trkpt>
      <trkpt lat="43.95336" lon="1.92525">
        <ele>187.5943604</ele>
        <time>2014-06-20T14:25:57Z</time>
      </trkpt>
      <trkpt lat="43.95338" lon="1.92532">
        <ele>188.5557861</ele>
        <time>2014-06-20T14:26:02Z</time>
      </trkpt>
      <trkpt lat="43.95343" lon="1.92541">
        <ele>189.9976807</ele>
        <time>2014-06-20T14:26:07Z</time>
      </trkpt>
      <trkpt lat="43.95343" lon="1.9255">
        <ele>190.9589844</ele>
        <time>2014-06-20T14:26:17Z</time>
      </trkpt>
      <trkpt lat="43.95337" lon="1.92554">
        <ele>191.4395752</ele>
        <time>2014-06-20T14:26:27Z</time>
      </trkpt>
      <trkpt lat="43.95342" lon="1.92552">
        <ele>190.9589844</ele>
        <time>2014-06-20T14:26:37Z</time>
      </trkpt>
      <trkpt lat="43.95349" lon="1.92553">
        <ele>189.5169678</ele>
        <time>2014-06-20T14:26:47Z</time>
      </trkpt>
      <trkpt lat="43.95348" lon="1.92553">
        <ele>187.5943604</ele>
        <time>2014-06-20T14:27:07Z</time>
      </trkpt>
      <trkpt lat="43.9535" lon="1.92548">
        <ele>186.6331787</ele>
        <time>2014-06-20T14:27:27Z</time>
      </trkpt>
      <trkpt lat="43.95355" lon="1.92559">
        <ele>187.1137695</ele>
        <time>2014-06-20T14:27:37Z</time>
      </trkpt>
      <trkpt lat="43.95359" lon="1.92563">
        <ele>186.1524658</ele>
        <time>2014-06-20T14:27:42Z</time>
      </trkpt>
      <trkpt lat="43.95365" lon="1.92572">
        <ele>184.7105713</ele>
        <time>2014-06-20T14:27:52Z</time>
      </trkpt>
      <trkpt lat="43.95368" lon="1.92578">
        <ele>183.7490234</ele>
        <time>2014-06-20T14:27:57Z</time>
      </trkpt>
      <trkpt lat="43.95372" lon="1.92581">
        <ele>183.7490234</ele>
        <time>2014-06-20T14:28:12Z</time>
      </trkpt>
      <trkpt lat="43.95379" lon="1.92591">
        <ele>182.3071289</ele>
        <time>2014-06-20T14:28:22Z</time>
      </trkpt>
      <trkpt lat="43.95384" lon="1.92598">
        <ele>181.826416</ele>
        <time>2014-06-20T14:28:27Z</time>
      </trkpt>
      <trkpt lat="43.95387" lon="1.92606">
        <ele>181.3458252</ele>
        <time>2014-06-20T14:28:32Z</time>
      </trkpt>
      <trkpt lat="43.95394" lon="1.92616">
        <ele>181.826416</ele>
        <time>2014-06-20T14:28:42Z</time>
      </trkpt>
      <trkpt lat="43.95396" lon="1.92624">
        <ele>181.826416</ele>
        <time>2014-06-20T14:28:47Z</time>
      </trkpt>
      <trkpt lat="43.95402" lon="1.92631">
        <ele>180.8652344</ele>
        <time>2014-06-20T14:28:52Z</time>
      </trkpt>
      <trkpt lat="43.95406" lon="1.92638">
        <ele>180.8652344</ele>
        <time>2014-06-20T14:28:57Z</time>
      </trkpt>
      <trkpt lat="43.95409" lon="1.92649">
        <ele>181.3458252</ele>
        <time>2014-06-20T14:29:02Z</time>
      </trkpt>
      <trkpt lat="43.95414" lon="1.9266">
        <ele>181.826416</ele>
        <time>2014-06-20T14:29:12Z</time>
      </trkpt>
      <trkpt lat="43.95418" lon="1.92664">
        <ele>178.942627</ele>
        <time>2014-06-20T14:29:17Z</time>
      </trkpt>
      <trkpt lat="43.95424" lon="1.92668">
        <ele>176.5393066</ele>
        <time>2014-06-20T14:29:32Z</time>
      </trkpt>
      <trkpt lat="43.95429" lon="1.92672">
        <ele>176.0585938</ele>
        <time>2014-06-20T14:29:37Z</time>
      </trkpt>
      <trkpt lat="43.95432" lon="1.92677">
        <ele>176.5393066</ele>
        <time>2014-06-20T14:29:42Z</time>
      </trkpt>
      <trkpt lat="43.95437" lon="1.92685">
        <ele>176.5393066</ele>
        <time>2014-06-20T14:29:47Z</time>
      </trkpt>
      <trkpt lat="43.95442" lon="1.92693">
        <ele>176.5393066</ele>
        <time>2014-06-20T14:29:52Z</time>
      </trkpt>
      <trkpt lat="43.95447" lon="1.92699">
        <ele>177.0200195</ele>
        <time>2014-06-20T14:29:57Z</time>
      </trkpt>
      <trkpt lat="43.95452" lon="1.92704">
        <ele>176.5393066</ele>
        <time>2014-06-20T14:30:02Z</time>
      </trkpt>
      <trkpt lat="43.95457" lon="1.92709">
        <ele>176.5393066</ele>
        <time>2014-06-20T14:30:07Z</time>
      </trkpt>
      <trkpt lat="43.95463" lon="1.92719">
        <ele>175.5778809</ele>
        <time>2014-06-20T14:30:17Z</time>
      </trkpt>
      <trkpt lat="43.95465" lon="1.92729">
        <ele>173.6552734</ele>
        <time>2014-06-20T14:30:22Z</time>
      </trkpt>
      <trkpt lat="43.9547" lon="1.92738">
        <ele>174.1358643</ele>
        <time>2014-06-20T14:30:27Z</time>
      </trkpt>
      <trkpt lat="43.95477" lon="1.92743">
        <ele>173.1746826</ele>
        <time>2014-06-20T14:30:32Z</time>
      </trkpt>
      <trkpt lat="43.95482" lon="1.92747">
        <ele>173.6552734</ele>
        <time>2014-06-20T14:30:37Z</time>
      </trkpt>
      <trkpt lat="43.95485" lon="1.92755">
        <ele>174.1358643</ele>
        <time>2014-06-20T14:30:42Z</time>
      </trkpt>
      <trkpt lat="43.95489" lon="1.92761">
        <ele>175.5778809</ele>
        <time>2014-06-20T14:30:47Z</time>
      </trkpt>
      <trkpt lat="43.95493" lon="1.92768">
        <ele>176.5393066</ele>
        <time>2014-06-20T14:30:52Z</time>
      </trkpt>
      <trkpt lat="43.95496" lon="1.92772">
        <ele>176.5393066</ele>
        <time>2014-06-20T14:30:57Z</time>
      </trkpt>
      <trkpt lat="43.95504" lon="1.92778">
        <ele>173.6552734</ele>
        <time>2014-06-20T14:31:07Z</time>
      </trkpt>
      <trkpt lat="43.9551" lon="1.9279">
        <ele>170.2906494</ele>
        <time>2014-06-20T14:31:17Z</time>
      </trkpt>
      <trkpt lat="43.95514" lon="1.92793">
        <ele>167.4067383</ele>
        <time>2014-06-20T14:31:22Z</time>
      </trkpt>
      <trkpt lat="43.95518" lon="1.92802">
        <ele>165.4841309</ele>
        <time>2014-06-20T14:31:27Z</time>
      </trkpt>
      <trkpt lat="43.95524" lon="1.92808">
        <ele>162.6000977</ele>
        <time>2014-06-20T14:31:32Z</time>
      </trkpt>
      <trkpt lat="43.95529" lon="1.92814">
        <ele>164.0421143</ele>
        <time>2014-06-20T14:31:37Z</time>
      </trkpt>
      <trkpt lat="43.95529" lon="1.92823">
        <ele>165.003418</ele>
        <time>2014-06-20T14:31:42Z</time>
      </trkpt>
      <trkpt lat="43.95529" lon="1.9283">
        <ele>165.9647217</ele>
        <time>2014-06-20T14:31:47Z</time>
      </trkpt>
      <trkpt lat="43.95535" lon="1.92832">
        <ele>165.9647217</ele>
        <time>2014-06-20T14:31:52Z</time>
      </trkpt>
      <trkpt lat="43.95539" lon="1.92841">
        <ele>164.5227051</ele>
        <time>2014-06-20T14:31:57Z</time>
      </trkpt>
      <trkpt lat="43.95542" lon="1.92847">
        <ele>163.5615234</ele>
        <time>2014-06-20T14:32:02Z</time>
      </trkpt>
      <trkpt lat="43.95547" lon="1.92854">
        <ele>161.638916</ele>
        <time>2014-06-20T14:32:07Z</time>
      </trkpt>
      <trkpt lat="43.9555" lon="1.92859">
        <ele>160.6774902</ele>
        <time>2014-06-20T14:32:12Z</time>
      </trkpt>
      <trkpt lat="43.95555" lon="1.92858">
        <ele>160.6774902</ele>
        <time>2014-06-20T14:32:22Z</time>
      </trkpt>
      <trkpt lat="43.95554" lon="1.92864">
        <ele>161.638916</ele>
        <time>2014-06-20T14:32:32Z</time>
      </trkpt>
      <trkpt lat="43.9556" lon="1.92871">
        <ele>162.1195068</ele>
        <time>2014-06-20T14:32:42Z</time>
      </trkpt>
      <trkpt lat="43.95566" lon="1.9288">
        <ele>163.0808105</ele>
        <time>2014-06-20T14:32:52Z</time>
      </trkpt>
      <trkpt lat="43.95566" lon="1.9289">
        <ele>163.5615234</ele>
        <time>2014-06-20T14:32:57Z</time>
      </trkpt>
      <trkpt lat="43.95569" lon="1.92897">
        <ele>164.0421143</ele>
        <time>2014-06-20T14:33:07Z</time>
      </trkpt>
      <trkpt lat="43.95578" lon="1.92899">
        <ele>165.003418</ele>
        <time>2014-06-20T14:33:22Z</time>
      </trkpt>
      <trkpt lat="43.95582" lon="1.92892">
        <ele>164.0421143</ele>
        <time>2014-06-20T14:33:27Z</time>
      </trkpt>
      <trkpt lat="43.95586" lon="1.92887">
        <ele>164.0421143</ele>
        <time>2014-06-20T14:33:32Z</time>
      </trkpt>
      <trkpt lat="43.9559" lon="1.92883">
        <ele>164.0421143</ele>
        <time>2014-06-20T14:33:37Z</time>
      </trkpt>
      <trkpt lat="43.95594" lon="1.92878">
        <ele>163.5615234</ele>
        <time>2014-06-20T14:33:42Z</time>
      </trkpt>
      <trkpt lat="43.95603" lon="1.9287">
        <ele>163.0808105</ele>
        <time>2014-06-20T14:33:47Z</time>
      </trkpt>
      <trkpt lat="43.95609" lon="1.92864">
        <ele>162.1195068</ele>
        <time>2014-06-20T14:33:52Z</time>
      </trkpt>
      <trkpt lat="43.95612" lon="1.92857">
        <ele>162.1195068</ele>
        <time>2014-06-20T14:33:57Z</time>
      </trkpt>
      <trkpt lat="43.95621" lon="1.92849">
        <ele>167.8873291</ele>
        <time>2014-06-20T14:41:22Z</time>
      </trkpt>
      <trkpt lat="43.95632" lon="1.92837">
        <ele>167.8873291</ele>
        <time>2014-06-20T14:41:32Z</time>
      </trkpt>
      <trkpt lat="43.95639" lon="1.92833">
        <ele>168.368042</ele>
        <time>2014-06-20T14:41:37Z</time>
      </trkpt>
      <trkpt lat="43.95645" lon="1.92826">
        <ele>168.8487549</ele>
        <time>2014-06-20T14:41:47Z</time>
      </trkpt>
      <trkpt lat="43.95651" lon="1.92816">
        <ele>169.3294678</ele>
        <time>2014-06-20T14:41:52Z</time>
      </trkpt>
      <trkpt lat="43.95656" lon="1.92806">
        <ele>170.7713623</ele>
        <time>2014-06-20T14:41:57Z</time>
      </trkpt>
      <trkpt lat="43.95661" lon="1.928">
        <ele>171.732666</ele>
        <time>2014-06-20T14:42:02Z</time>
      </trkpt>
      <trkpt lat="43.95667" lon="1.92793">
        <ele>171.2520752</ele>
        <time>2014-06-20T14:42:12Z</time>
      </trkpt>
      <trkpt lat="43.95673" lon="1.92782">
        <ele>171.732666</ele>
        <time>2014-06-20T14:42:17Z</time>
      </trkpt>
      <trkpt lat="43.95678" lon="1.92775">
        <ele>173.6552734</ele>
        <time>2014-06-20T14:42:22Z</time>
      </trkpt>
      <trkpt lat="43.95683" lon="1.92769">
        <ele>173.1746826</ele>
        <time>2014-06-20T14:42:32Z</time>
      </trkpt>
      <trkpt lat="43.95688" lon="1.92763">
        <ele>172.2132568</ele>
        <time>2014-06-20T14:42:37Z</time>
      </trkpt>
      <trkpt lat="43.95697" lon="1.92755">
        <ele>171.2520752</ele>
        <time>2014-06-20T14:42:42Z</time>
      </trkpt>
      <trkpt lat="43.95703" lon="1.9275">
        <ele>171.732666</ele>
        <time>2014-06-20T14:42:47Z</time>
      </trkpt>
      <trkpt lat="43.95709" lon="1.92744">
        <ele>172.6939697</ele>
        <time>2014-06-20T14:42:52Z</time>
      </trkpt>
      <trkpt lat="43.95714" lon="1.9274">
        <ele>172.6939697</ele>
        <time>2014-06-20T14:42:57Z</time>
      </trkpt>
      <trkpt lat="43.95717" lon="1.92735">
        <ele>171.2520752</ele>
        <time>2014-06-20T14:43:02Z</time>
      </trkpt>
      <trkpt lat="43.95724" lon="1.92728">
        <ele>170.7713623</ele>
        <time>2014-06-20T14:43:07Z</time>
      </trkpt>
      <trkpt lat="43.9573" lon="1.92724">
        <ele>171.2520752</ele>
        <time>2014-06-20T14:43:12Z</time>
      </trkpt>
      <trkpt lat="43.95737" lon="1.92714">
        <ele>171.2520752</ele>
        <time>2014-06-20T14:43:17Z</time>
      </trkpt>
      <trkpt lat="43.95745" lon="1.92705">
        <ele>176.5393066</ele>
        <time>2014-06-20T14:43:27Z</time>
      </trkpt>
      <trkpt lat="43.95751" lon="1.92704">
        <ele>176.0585938</ele>
        <time>2014-06-20T14:43:32Z</time>
      </trkpt>
      <trkpt lat="43.95756" lon="1.92699">
        <ele>175.5778809</ele>
        <time>2014-06-20T14:43:37Z</time>
      </trkpt>
      <trkpt lat="43.95758" lon="1.92698">
        <ele>176.5393066</ele>
        <time>2014-06-20T14:43:57Z</time>
      </trkpt>
      <trkpt lat="43.95764" lon="1.92693">
        <ele>176.0585938</ele>
        <time>2014-06-20T14:44:02Z</time>
      </trkpt>
      <trkpt lat="43.95771" lon="1.92687">
        <ele>177.0200195</ele>
        <time>2014-06-20T14:44:07Z</time>
      </trkpt>
      <trkpt lat="43.95778" lon="1.92678">
        <ele>176.5393066</ele>
        <time>2014-06-20T14:44:12Z</time>
      </trkpt>
      <trkpt lat="43.95784" lon="1.92674">
        <ele>175.5778809</ele>
        <time>2014-06-20T14:44:17Z</time>
      </trkpt>
      <trkpt lat="43.95789" lon="1.92664">
        <ele>171.2520752</ele>
        <time>2014-06-20T14:44:27Z</time>
      </trkpt>
      <trkpt lat="43.95796" lon="1.92658">
        <ele>169.8100586</ele>
        <time>2014-06-20T14:44:32Z</time>
      </trkpt>
      <trkpt lat="43.95802" lon="1.92653">
        <ele>169.8100586</ele>
        <time>2014-06-20T14:44:37Z</time>
      </trkpt>
      <trkpt lat="43.95805" lon="1.92648">
        <ele>170.2906494</ele>
        <time>2014-06-20T14:44:42Z</time>
      </trkpt>
      <trkpt lat="43.95811" lon="1.92645">
        <ele>168.368042</ele>
        <time>2014-06-20T14:44:47Z</time>
      </trkpt>
      <trkpt lat="43.95817" lon="1.92649">
        <ele>167.4067383</ele>
        <time>2014-06-20T14:44:52Z</time>
      </trkpt>
      <trkpt lat="43.95823" lon="1.92656">
        <ele>165.9647217</ele>
        <time>2014-06-20T14:44:57Z</time>
      </trkpt>
      <trkpt lat="43.95826" lon="1.92664">
        <ele>167.8873291</ele>
        <time>2014-06-20T14:45:02Z</time>
      </trkpt>
      <trkpt lat="43.9583" lon="1.92672">
        <ele>168.368042</ele>
        <time>2014-06-20T14:45:07Z</time>
      </trkpt>
      <trkpt lat="43.95834" lon="1.92677">
        <ele>169.3294678</ele>
        <time>2014-06-20T14:45:12Z</time>
      </trkpt>
      <trkpt lat="43.95839" lon="1.92688">
        <ele>171.2520752</ele>
        <time>2014-06-20T14:45:22Z</time>
      </trkpt>
      <trkpt lat="43.95843" lon="1.92695">
        <ele>172.6939697</ele>
        <time>2014-06-20T14:45:27Z</time>
      </trkpt>
      <trkpt lat="43.95845" lon="1.92701">
        <ele>174.6165771</ele>
        <time>2014-06-20T14:45:32Z</time>
      </trkpt>
      <trkpt lat="43.9585" lon="1.92706">
        <ele>175.5778809</ele>
        <time>2014-06-20T14:45:37Z</time>
      </trkpt>
      <trkpt lat="43.95854" lon="1.9271">
        <ele>176.5393066</ele>
        <time>2014-06-20T14:45:42Z</time>
      </trkpt>
      <trkpt lat="43.9586" lon="1.92712">
        <ele>177.0200195</ele>
        <time>2014-06-20T14:45:47Z</time>
      </trkpt>
      <trkpt lat="43.95868" lon="1.92718">
        <ele>180.3845215</ele>
        <time>2014-06-20T14:45:57Z</time>
      </trkpt>
      <trkpt lat="43.95872" lon="1.92721">
        <ele>180.8652344</ele>
        <time>2014-06-20T14:46:42Z</time>
      </trkpt>
      <trkpt lat="43.95878" lon="1.92726">
        <ele>181.3458252</ele>
        <time>2014-06-20T14:46:47Z</time>
      </trkpt>
      <trkpt lat="43.95882" lon="1.92731">
        <ele>181.3458252</ele>
        <time>2014-06-20T14:46:52Z</time>
      </trkpt>
      <trkpt lat="43.95887" lon="1.92739">
        <ele>181.826416</ele>
        <time>2014-06-20T14:46:57Z</time>
      </trkpt>
      <trkpt lat="43.9589" lon="1.92744">
        <ele>181.3458252</ele>
        <time>2014-06-20T14:47:02Z</time>
      </trkpt>
      <trkpt lat="43.95896" lon="1.92749">
        <ele>182.7878418</ele>
        <time>2014-06-20T14:47:07Z</time>
      </trkpt>
      <trkpt lat="43.95901" lon="1.92752">
        <ele>182.3071289</ele>
        <time>2014-06-20T14:47:12Z</time>
      </trkpt>
      <trkpt lat="43.95905" lon="1.92757">
        <ele>182.3071289</ele>
        <time>2014-06-20T14:47:17Z</time>
      </trkpt>
      <trkpt lat="43.95912" lon="1.92765">
        <ele>183.7490234</ele>
        <time>2014-06-20T14:47:27Z</time>
      </trkpt>
      <trkpt lat="43.95914" lon="1.92772">
        <ele>184.7105713</ele>
        <time>2014-06-20T14:47:32Z</time>
      </trkpt>
      <trkpt lat="43.95914" lon="1.9278">
        <ele>186.6331787</ele>
        <time>2014-06-20T14:47:37Z</time>
      </trkpt>
      <trkpt lat="43.95912" lon="1.92786">
        <ele>187.5943604</ele>
        <time>2014-06-20T14:47:42Z</time>
      </trkpt>
      <trkpt lat="43.95908" lon="1.92795">
        <ele>188.5557861</ele>
        <time>2014-06-20T14:47:47Z</time>
      </trkpt>
      <trkpt lat="43.95905" lon="1.92805">
        <ele>190.9589844</ele>
        <time>2014-06-20T14:47:52Z</time>
      </trkpt>
      <trkpt lat="43.95903" lon="1.92811">
        <ele>192.8817139</ele>
        <time>2014-06-20T14:47:57Z</time>
      </trkpt>
      <trkpt lat="43.959" lon="1.92821">
        <ele>193.3623047</ele>
        <time>2014-06-20T14:48:07Z</time>
      </trkpt>
      <trkpt lat="43.95895" lon="1.92833">
        <ele>194.8043213</ele>
        <time>2014-06-20T14:48:12Z</time>
      </trkpt>
      <trkpt lat="43.9589" lon="1.92842">
        <ele>197.6882324</ele>
        <time>2014-06-20T14:48:22Z</time>
      </trkpt>
      <trkpt lat="43.95884" lon="1.92849">
        <ele>197.6882324</ele>
        <time>2014-06-20T14:48:32Z</time>
      </trkpt>
      <trkpt lat="43.95879" lon="1.92855">
        <ele>197.2075195</ele>
        <time>2014-06-20T14:48:37Z</time>
      </trkpt>
      <trkpt lat="43.95878" lon="1.92862">
        <ele>195.2849121</ele>
        <time>2014-06-20T14:48:42Z</time>
      </trkpt>
      <trkpt lat="43.9588" lon="1.92872">
        <ele>194.3237305</ele>
        <time>2014-06-20T14:48:47Z</time>
      </trkpt>
      <trkpt lat="43.95884" lon="1.92873">
        <ele>193.3623047</ele>
        <time>2014-06-20T14:49:07Z</time>
      </trkpt>
      <trkpt lat="43.95885" lon="1.92871">
        <ele>193.3623047</ele>
        <time>2014-06-20T14:49:27Z</time>
      </trkpt>
      <trkpt lat="43.95881" lon="1.92878">
        <ele>193.8430176</ele>
        <time>2014-06-20T14:49:47Z</time>
      </trkpt>
      <trkpt lat="43.95877" lon="1.92887">
        <ele>192.8817139</ele>
        <time>2014-06-20T14:49:52Z</time>
      </trkpt>
      <trkpt lat="43.95875" lon="1.92893">
        <ele>192.8817139</ele>
        <time>2014-06-20T14:49:57Z</time>
      </trkpt>
      <trkpt lat="43.95873" lon="1.929">
        <ele>191.9202881</ele>
        <time>2014-06-20T14:50:17Z</time>
      </trkpt>
      <trkpt lat="43.9587" lon="1.92906">
        <ele>190.9589844</ele>
        <time>2014-06-20T14:50:27Z</time>
      </trkpt>
      <trkpt lat="43.95866" lon="1.92907">
        <ele>191.4395752</ele>
        <time>2014-06-20T14:50:47Z</time>
      </trkpt>
      <trkpt lat="43.95861" lon="1.92909">
        <ele>192.401123</ele>
        <time>2014-06-20T14:50:57Z</time>
      </trkpt>
      <trkpt lat="43.95855" lon="1.92909">
        <ele>193.3623047</ele>
        <time>2014-06-20T14:51:17Z</time>
      </trkpt>
      <trkpt lat="43.95858" lon="1.92909">
        <ele>194.3237305</ele>
        <time>2014-06-20T14:51:32Z</time>
      </trkpt>
      <trkpt lat="43.9586" lon="1.92903">
        <ele>193.3623047</ele>
        <time>2014-06-20T14:51:42Z</time>
      </trkpt>
      <trkpt lat="43.95856" lon="1.92908">
        <ele>192.401123</ele>
        <time>2014-06-20T14:52:07Z</time>
      </trkpt>
      <trkpt lat="43.95857" lon="1.92912">
        <ele>192.401123</ele>
        <time>2014-06-20T14:52:17Z</time>
      </trkpt>
      <trkpt lat="43.95862" lon="1.92907">
        <ele>192.401123</ele>
        <time>2014-06-20T14:52:32Z</time>
      </trkpt>
      <trkpt lat="43.95865" lon="1.92913">
        <ele>192.8817139</ele>
        <time>2014-06-20T14:52:42Z</time>
      </trkpt>
      <trkpt lat="43.95863" lon="1.92919">
        <ele>193.3623047</ele>
        <time>2014-06-20T14:52:47Z</time>
      </trkpt>
      <trkpt lat="43.9586" lon="1.92933">
        <ele>192.8817139</ele>
        <time>2014-06-20T14:52:57Z</time>
      </trkpt>
      <trkpt lat="43.95858" lon="1.92943">
        <ele>193.8430176</ele>
        <time>2014-06-20T14:53:02Z</time>
      </trkpt>
      <trkpt lat="43.95853" lon="1.92952">
        <ele>194.8043213</ele>
        <time>2014-06-20T14:53:07Z</time>
      </trkpt>
      <trkpt lat="43.9585" lon="1.9296">
        <ele>195.765625</ele>
        <time>2014-06-20T14:53:12Z</time>
      </trkpt>
      <trkpt lat="43.95846" lon="1.92966">
        <ele>196.7269287</ele>
        <time>2014-06-20T14:53:17Z</time>
      </trkpt>
      <trkpt lat="43.95843" lon="1.92976">
        <ele>197.6882324</ele>
        <time>2014-06-20T14:53:22Z</time>
      </trkpt>
      <trkpt lat="43.95839" lon="1.92985">
        <ele>199.6108398</ele>
        <time>2014-06-20T14:53:27Z</time>
      </trkpt>
      <trkpt lat="43.95836" lon="1.92994">
        <ele>199.6108398</ele>
        <time>2014-06-20T14:53:32Z</time>
      </trkpt>
      <trkpt lat="43.95833" lon="1.93001">
        <ele>200.5722656</ele>
        <time>2014-06-20T14:53:37Z</time>
      </trkpt>
      <trkpt lat="43.95829" lon="1.93009">
        <ele>202.494873</ele>
        <time>2014-06-20T14:53:42Z</time>
      </trkpt>
      <trkpt lat="43.95824" lon="1.93012">
        <ele>203.9368896</ele>
        <time>2014-06-20T14:53:47Z</time>
      </trkpt>
      <trkpt lat="43.95821" lon="1.93019">
        <ele>205.8594971</ele>
        <time>2014-06-20T14:53:52Z</time>
      </trkpt>
      <trkpt lat="43.95817" lon="1.93031">
        <ele>203.9368896</ele>
        <time>2014-06-20T14:54:02Z</time>
      </trkpt>
      <trkpt lat="43.95814" lon="1.93038">
        <ele>204.4174805</ele>
        <time>2014-06-20T14:54:07Z</time>
      </trkpt>
      <trkpt lat="43.95811" lon="1.93049">
        <ele>205.8594971</ele>
        <time>2014-06-20T14:54:17Z</time>
      </trkpt>
      <trkpt lat="43.95808" lon="1.93056">
        <ele>206.8206787</ele>
        <time>2014-06-20T14:54:22Z</time>
      </trkpt>
      <trkpt lat="43.95804" lon="1.93064">
        <ele>209.704834</ele>
        <time>2014-06-20T14:54:32Z</time>
      </trkpt>
      <trkpt lat="43.958" lon="1.93066">
        <ele>211.1467285</ele>
        <time>2014-06-20T14:54:42Z</time>
      </trkpt>
      <trkpt lat="43.95793" lon="1.93067">
        <ele>212.588623</ele>
        <time>2014-06-20T14:54:47Z</time>
      </trkpt>
      <trkpt lat="43.95788" lon="1.93069">
        <ele>214.5112305</ele>
        <time>2014-06-20T14:54:57Z</time>
      </trkpt>
      <trkpt lat="43.95783" lon="1.93072">
        <ele>215.4726563</ele>
        <time>2014-06-20T14:55:07Z</time>
      </trkpt>
      <trkpt lat="43.9578" lon="1.93078">
        <ele>215.4726563</ele>
        <time>2014-06-20T14:55:12Z</time>
      </trkpt>
      <trkpt lat="43.95774" lon="1.93083">
        <ele>216.43396</ele>
        <time>2014-06-20T14:55:17Z</time>
      </trkpt>
      <trkpt lat="43.95769" lon="1.93085">
        <ele>216.43396</ele>
        <time>2014-06-20T14:55:22Z</time>
      </trkpt>
      <trkpt lat="43.95766" lon="1.93091">
        <ele>216.43396</ele>
        <time>2014-06-20T14:55:27Z</time>
      </trkpt>
      <trkpt lat="43.95761" lon="1.93095">
        <ele>216.43396</ele>
        <time>2014-06-20T14:55:37Z</time>
      </trkpt>
      <trkpt lat="43.95753" lon="1.93103">
        <ele>217.8759766</ele>
        <time>2014-06-20T14:55:57Z</time>
      </trkpt>
      <trkpt lat="43.9575" lon="1.9311">
        <ele>219.3179932</ele>
        <time>2014-06-20T14:56:02Z</time>
      </trkpt>
      <trkpt lat="43.95747" lon="1.93117">
        <ele>220.2791748</ele>
        <time>2014-06-20T14:56:07Z</time>
      </trkpt>
      <trkpt lat="43.95744" lon="1.93125">
        <ele>221.2406006</ele>
        <time>2014-06-20T14:56:12Z</time>
      </trkpt>
      <trkpt lat="43.95741" lon="1.93132">
        <ele>222.2017822</ele>
        <time>2014-06-20T14:56:17Z</time>
      </trkpt>
      <trkpt lat="43.95735" lon="1.93138">
        <ele>222.6824951</ele>
        <time>2014-06-20T14:56:22Z</time>
      </trkpt>
      <trkpt lat="43.95737" lon="1.93144">
        <ele>222.2017822</ele>
        <time>2014-06-20T14:56:42Z</time>
      </trkpt>
      <trkpt lat="43.95732" lon="1.93152">
        <ele>222.2017822</ele>
        <time>2014-06-20T14:56:47Z</time>
      </trkpt>
      <trkpt lat="43.95728" lon="1.93163">
        <ele>221.7211914</ele>
        <time>2014-06-20T14:56:52Z</time>
      </trkpt>
      <trkpt lat="43.95724" lon="1.93176">
        <ele>221.7211914</ele>
        <time>2014-06-20T14:56:57Z</time>
      </trkpt>
      <trkpt lat="43.95719" lon="1.93185">
        <ele>221.7211914</ele>
        <time>2014-06-20T14:57:02Z</time>
      </trkpt>
      <trkpt lat="43.95719" lon="1.93193">
        <ele>221.2406006</ele>
        <time>2014-06-20T14:57:07Z</time>
      </trkpt>
      <trkpt lat="43.95718" lon="1.93202">
        <ele>220.7598877</ele>
        <time>2014-06-20T14:57:12Z</time>
      </trkpt>
      <trkpt lat="43.95716" lon="1.93211">
        <ele>220.2791748</ele>
        <time>2014-06-20T14:57:17Z</time>
      </trkpt>
      <trkpt lat="43.95715" lon="1.93222">
        <ele>219.798584</ele>
        <time>2014-06-20T14:57:22Z</time>
      </trkpt>
      <trkpt lat="43.95715" lon="1.93232">
        <ele>218.3565674</ele>
        <time>2014-06-20T14:57:27Z</time>
      </trkpt>
      <trkpt lat="43.95712" lon="1.93239">
        <ele>217.8759766</ele>
        <time>2014-06-20T14:57:32Z</time>
      </trkpt>
      <trkpt lat="43.9571" lon="1.93246">
        <ele>215.4726563</ele>
        <time>2014-06-20T14:57:42Z</time>
      </trkpt>
      <trkpt lat="43.95706" lon="1.93254">
        <ele>214.9919434</ele>
        <time>2014-06-20T14:57:47Z</time>
      </trkpt>
      <trkpt lat="43.95702" lon="1.93257">
        <ele>214.0306396</ele>
        <time>2014-06-20T14:57:52Z</time>
      </trkpt>
      <trkpt lat="43.95696" lon="1.93258">
        <ele>214.0306396</ele>
        <time>2014-06-20T14:57:57Z</time>
      </trkpt>
      <trkpt lat="43.95692" lon="1.93264">
        <ele>212.588623</ele>
        <time>2014-06-20T14:58:02Z</time>
      </trkpt>
      <trkpt lat="43.95687" lon="1.93266">
        <ele>211.6274414</ele>
        <time>2014-06-20T14:58:12Z</time>
      </trkpt>
      <trkpt lat="43.95681" lon="1.93272">
        <ele>212.1080322</ele>
        <time>2014-06-20T14:58:22Z</time>
      </trkpt>
      <trkpt lat="43.95679" lon="1.9328">
        <ele>212.588623</ele>
        <time>2014-06-20T14:58:27Z</time>
      </trkpt>
      <trkpt lat="43.95676" lon="1.93288">
        <ele>214.0306396</ele>
        <time>2014-06-20T14:58:37Z</time>
      </trkpt>
      <trkpt lat="43.95676" lon="1.93279">
        <ele>215.4726563</ele>
        <time>2014-06-20T14:58:57Z</time>
      </trkpt>
      <trkpt lat="43.95678" lon="1.93279">
        <ele>215.9532471</ele>
        <time>2014-06-20T14:59:12Z</time>
      </trkpt>
      <trkpt lat="43.95688" lon="1.93275">
        <ele>215.9532471</ele>
        <time>2014-06-20T14:59:17Z</time>
      </trkpt>
      <trkpt lat="43.95693" lon="1.93272">
        <ele>215.9532471</ele>
        <time>2014-06-20T14:59:22Z</time>
      </trkpt>
      <trkpt lat="43.95703" lon="1.93273">
        <ele>218.8372803</ele>
        <time>2014-06-20T14:59:32Z</time>
      </trkpt>
      <trkpt lat="43.95706" lon="1.93278">
        <ele>217.8759766</ele>
        <time>2014-06-20T14:59:37Z</time>
      </trkpt>
      <trkpt lat="43.9571" lon="1.93285">
        <ele>217.3953857</ele>
        <time>2014-06-20T14:59:42Z</time>
      </trkpt>
      <trkpt lat="43.95712" lon="1.93295">
        <ele>216.9146729</ele>
        <time>2014-06-20T14:59:47Z</time>
      </trkpt>
      <trkpt lat="43.95714" lon="1.93302">
        <ele>216.43396</ele>
        <time>2014-06-20T14:59:52Z</time>
      </trkpt>
      <trkpt lat="43.95717" lon="1.93311">
        <ele>214.9919434</ele>
        <time>2014-06-20T14:59:57Z</time>
      </trkpt>
      <trkpt lat="43.95716" lon="1.93318">
        <ele>213.0693359</ele>
        <time>2014-06-20T15:00:02Z</time>
      </trkpt>
      <trkpt lat="43.95713" lon="1.93329">
        <ele>212.588623</ele>
        <time>2014-06-20T15:00:07Z</time>
      </trkpt>
      <trkpt lat="43.95708" lon="1.93336">
        <ele>213.5500488</ele>
        <time>2014-06-20T15:00:12Z</time>
      </trkpt>
      <trkpt lat="43.95703" lon="1.93343">
        <ele>214.5112305</ele>
        <time>2014-06-20T15:00:17Z</time>
      </trkpt>
      <trkpt lat="43.95708" lon="1.93356">
        <ele>215.9532471</ele>
        <time>2014-06-20T15:00:22Z</time>
      </trkpt>
      <trkpt lat="43.95706" lon="1.93362">
        <ele>216.43396</ele>
        <time>2014-06-20T15:00:27Z</time>
      </trkpt>
      <trkpt lat="43.95704" lon="1.93371">
        <ele>218.8372803</ele>
        <time>2014-06-20T15:00:32Z</time>
      </trkpt>
      <trkpt lat="43.95703" lon="1.93378">
        <ele>219.798584</ele>
        <time>2014-06-20T15:00:37Z</time>
      </trkpt>
      <trkpt lat="43.95706" lon="1.93386">
        <ele>220.7598877</ele>
        <time>2014-06-20T15:00:42Z</time>
      </trkpt>
      <trkpt lat="43.95704" lon="1.93393">
        <ele>222.2017822</ele>
        <time>2014-06-20T15:00:47Z</time>
      </trkpt>
      <trkpt lat="43.957" lon="1.93394">
        <ele>220.7598877</ele>
        <time>2014-06-20T15:00:57Z</time>
      </trkpt>
      <trkpt lat="43.957" lon="1.93387">
        <ele>219.3179932</ele>
        <time>2014-06-20T15:01:02Z</time>
      </trkpt>
      <trkpt lat="43.957" lon="1.93378">
        <ele>217.8759766</ele>
        <time>2014-06-20T15:01:07Z</time>
      </trkpt>
      <trkpt lat="43.95701" lon="1.93361">
        <ele>215.9532471</ele>
        <time>2014-06-20T15:01:17Z</time>
      </trkpt>
      <trkpt lat="43.95702" lon="1.9335">
        <ele>214.9919434</ele>
        <time>2014-06-20T15:01:22Z</time>
      </trkpt>
      <trkpt lat="43.95698" lon="1.93343">
        <ele>215.4726563</ele>
        <time>2014-06-20T15:01:27Z</time>
      </trkpt>
      <trkpt lat="43.95694" lon="1.93334">
        <ele>214.0306396</ele>
        <time>2014-06-20T15:01:32Z</time>
      </trkpt>
      <trkpt lat="43.95686" lon="1.93331">
        <ele>213.5500488</ele>
        <time>2014-06-20T15:01:37Z</time>
      </trkpt>
      <trkpt lat="43.95682" lon="1.93331">
        <ele>215.4726563</ele>
        <time>2014-06-20T15:01:52Z</time>
      </trkpt>
      <trkpt lat="43.95682" lon="1.93337">
        <ele>214.9919434</ele>
        <time>2014-06-20T15:02:22Z</time>
      </trkpt>
      <trkpt lat="43.95677" lon="1.9334">
        <ele>213.0693359</ele>
        <time>2014-06-20T15:02:27Z</time>
      </trkpt>
      <trkpt lat="43.95672" lon="1.93344">
        <ele>212.1080322</ele>
        <time>2014-06-20T15:02:32Z</time>
      </trkpt>
      <trkpt lat="43.95668" lon="1.9335">
        <ele>212.1080322</ele>
        <time>2014-06-20T15:02:37Z</time>
      </trkpt>
      <trkpt lat="43.95664" lon="1.93356">
        <ele>211.6274414</ele>
        <time>2014-06-20T15:02:42Z</time>
      </trkpt>
      <trkpt lat="43.95656" lon="1.93366">
        <ele>211.6274414</ele>
        <time>2014-06-20T15:02:52Z</time>
      </trkpt>
      <trkpt lat="43.95651" lon="1.93371">
        <ele>213.0693359</ele>
        <time>2014-06-20T15:02:57Z</time>
      </trkpt>
      <trkpt lat="43.95645" lon="1.93372">
        <ele>214.0306396</ele>
        <time>2014-06-20T15:03:02Z</time>
      </trkpt>
      <trkpt lat="43.95636" lon="1.9338">
        <ele>214.5112305</ele>
        <time>2014-06-20T15:03:12Z</time>
      </trkpt>
      <trkpt lat="43.95625" lon="1.93381">
        <ele>214.9919434</ele>
        <time>2014-06-20T15:03:17Z</time>
      </trkpt>
      <trkpt lat="43.95614" lon="1.93379">
        <ele>215.4726563</ele>
        <time>2014-06-20T15:03:22Z</time>
      </trkpt>
      <trkpt lat="43.95608" lon="1.9338">
        <ele>215.4726563</ele>
        <time>2014-06-20T15:03:27Z</time>
      </trkpt>
      <trkpt lat="43.95602" lon="1.9338">
        <ele>215.9532471</ele>
        <time>2014-06-20T15:03:32Z</time>
      </trkpt>
      <trkpt lat="43.95594" lon="1.93377">
        <ele>214.0306396</ele>
        <time>2014-06-20T15:03:42Z</time>
      </trkpt>
      <trkpt lat="43.95589" lon="1.93377">
        <ele>212.1080322</ele>
        <time>2014-06-20T15:03:47Z</time>
      </trkpt>
      <trkpt lat="43.95583" lon="1.93371">
        <ele>210.1854248</ele>
        <time>2014-06-20T15:03:52Z</time>
      </trkpt>
      <trkpt lat="43.95577" lon="1.93365">
        <ele>205.8594971</ele>
        <time>2014-06-20T15:03:57Z</time>
      </trkpt>
      <trkpt lat="43.95571" lon="1.93359">
        <ele>203.9368896</ele>
        <time>2014-06-20T15:04:02Z</time>
      </trkpt>
      <trkpt lat="43.95563" lon="1.93352">
        <ele>202.0142822</ele>
        <time>2014-06-20T15:04:12Z</time>
      </trkpt>
      <trkpt lat="43.95555" lon="1.93345">
        <ele>200.5722656</ele>
        <time>2014-06-20T15:04:27Z</time>
      </trkpt>
      <trkpt lat="43.95548" lon="1.93343">
        <ele>201.0528564</ele>
        <time>2014-06-20T15:04:32Z</time>
      </trkpt>
      <trkpt lat="43.95537" lon="1.93341">
        <ele>201.0528564</ele>
        <time>2014-06-20T15:04:42Z</time>
      </trkpt>
      <trkpt lat="43.95532" lon="1.93333">
        <ele>201.5335693</ele>
        <time>2014-06-20T15:04:47Z</time>
      </trkpt>
      <trkpt lat="43.95525" lon="1.93326">
        <ele>200.5722656</ele>
        <time>2014-06-20T15:04:52Z</time>
      </trkpt>
      <trkpt lat="43.9552" lon="1.93321">
        <ele>199.6108398</ele>
        <time>2014-06-20T15:04:57Z</time>
      </trkpt>
      <trkpt lat="43.95513" lon="1.93316">
        <ele>198.1689453</ele>
        <time>2014-06-20T15:05:02Z</time>
      </trkpt>
      <trkpt lat="43.95507" lon="1.93313">
        <ele>196.7269287</ele>
        <time>2014-06-20T15:05:07Z</time>
      </trkpt>
      <trkpt lat="43.95501" lon="1.933">
        <ele>193.3623047</ele>
        <time>2014-06-20T15:05:17Z</time>
      </trkpt>
      <trkpt lat="43.95495" lon="1.93295">
        <ele>191.9202881</ele>
        <time>2014-06-20T15:05:22Z</time>
      </trkpt>
      <trkpt lat="43.95493" lon="1.93289">
        <ele>190.9589844</ele>
        <time>2014-06-20T15:05:27Z</time>
      </trkpt>
      <trkpt lat="43.95488" lon="1.93284">
        <ele>189.5169678</ele>
        <time>2014-06-20T15:05:32Z</time>
      </trkpt>
      <trkpt lat="43.95482" lon="1.93276">
        <ele>186.6331787</ele>
        <time>2014-06-20T15:05:37Z</time>
      </trkpt>
      <trkpt lat="43.95476" lon="1.93276">
        <ele>186.1524658</ele>
        <time>2014-06-20T15:05:52Z</time>
      </trkpt>
      <trkpt lat="43.9547" lon="1.93272">
        <ele>185.6717529</ele>
        <time>2014-06-20T15:05:57Z</time>
      </trkpt>
      <trkpt lat="43.95462" lon="1.93267">
        <ele>183.2684326</ele>
        <time>2014-06-20T15:06:02Z</time>
      </trkpt>
      <trkpt lat="43.95455" lon="1.93264">
        <ele>180.3845215</ele>
        <time>2014-06-20T15:06:07Z</time>
      </trkpt>
      <trkpt lat="43.95449" lon="1.93261">
        <ele>178.942627</ele>
        <time>2014-06-20T15:06:12Z</time>
      </trkpt>
      <trkpt lat="43.95442" lon="1.93257">
        <ele>176.5393066</ele>
        <time>2014-06-20T15:06:17Z</time>
      </trkpt>
      <trkpt lat="43.95433" lon="1.93257">
        <ele>175.09729</ele>
        <time>2014-06-20T15:06:27Z</time>
      </trkpt>
      <trkpt lat="43.95428" lon="1.93255">
        <ele>173.6552734</ele>
        <time>2014-06-20T15:06:32Z</time>
      </trkpt>
      <trkpt lat="43.95423" lon="1.93254">
        <ele>172.2132568</ele>
        <time>2014-06-20T15:06:37Z</time>
      </trkpt>
      <trkpt lat="43.95417" lon="1.93253">
        <ele>171.2520752</ele>
        <time>2014-06-20T15:06:42Z</time>
      </trkpt>
      <trkpt lat="43.95411" lon="1.93249">
        <ele>170.2906494</ele>
        <time>2014-06-20T15:06:47Z</time>
      </trkpt>
      <trkpt lat="43.95407" lon="1.93246">
        <ele>168.8487549</ele>
        <time>2014-06-20T15:06:52Z</time>
      </trkpt>
      <trkpt lat="43.95401" lon="1.93244">
        <ele>167.4067383</ele>
        <time>2014-06-20T15:06:57Z</time>
      </trkpt>
      <trkpt lat="43.95392" lon="1.93241">
        <ele>166.9260254</ele>
        <time>2014-06-20T15:07:02Z</time>
      </trkpt>
      <trkpt lat="43.95386" lon="1.93238">
        <ele>165.003418</ele>
        <time>2014-06-20T15:07:07Z</time>
      </trkpt>
      <trkpt lat="43.95381" lon="1.93237">
        <ele>163.5615234</ele>
        <time>2014-06-20T15:07:12Z</time>
      </trkpt>
      <trkpt lat="43.95372" lon="1.93233">
        <ele>162.6000977</ele>
        <time>2014-06-20T15:07:17Z</time>
      </trkpt>
      <trkpt lat="43.95364" lon="1.93231">
        <ele>161.1582031</ele>
        <time>2014-06-20T15:07:22Z</time>
      </trkpt>
      <trkpt lat="43.95358" lon="1.93229">
        <ele>160.6774902</ele>
        <time>2014-06-20T15:07:27Z</time>
      </trkpt>
      <trkpt lat="43.9535" lon="1.93225">
        <ele>161.1582031</ele>
        <time>2014-06-20T15:07:32Z</time>
      </trkpt>
      <trkpt lat="43.95343" lon="1.9322">
        <ele>160.6774902</ele>
        <time>2014-06-20T15:07:37Z</time>
      </trkpt>
      <trkpt lat="43.95336" lon="1.93218">
        <ele>156.8321533</ele>
        <time>2014-06-20T15:07:42Z</time>
      </trkpt>
      <trkpt lat="43.95331" lon="1.93218">
        <ele>156.8321533</ele>
        <time>2014-06-20T15:07:47Z</time>
      </trkpt>
      <trkpt lat="43.95323" lon="1.93223">
        <ele>158.7547607</ele>
        <time>2014-06-20T15:07:52Z</time>
      </trkpt>
      <trkpt lat="43.95321" lon="1.93229">
        <ele>160.1968994</ele>
        <time>2014-06-20T15:07:57Z</time>
      </trkpt>
      <trkpt lat="43.95315" lon="1.93237">
        <ele>159.7161865</ele>
        <time>2014-06-20T15:08:02Z</time>
      </trkpt>
      <trkpt lat="43.95311" lon="1.93248">
        <ele>162.1195068</ele>
        <time>2014-06-20T15:08:07Z</time>
      </trkpt>
      <trkpt lat="43.95306" lon="1.93254">
        <ele>162.6000977</ele>
        <time>2014-06-20T15:08:12Z</time>
      </trkpt>
      <trkpt lat="43.95309" lon="1.93264">
        <ele>162.6000977</ele>
        <time>2014-06-20T15:08:17Z</time>
      </trkpt>
      <trkpt lat="43.95302" lon="1.93269">
        <ele>162.6000977</ele>
        <time>2014-06-20T15:08:22Z</time>
      </trkpt>
      <trkpt lat="43.95293" lon="1.93272">
        <ele>162.1195068</ele>
        <time>2014-06-20T15:08:27Z</time>
      </trkpt>
      <trkpt lat="43.95285" lon="1.93269">
        <ele>162.6000977</ele>
        <time>2014-06-20T15:08:32Z</time>
      </trkpt>
      <trkpt lat="43.95279" lon="1.93262">
        <ele>162.6000977</ele>
        <time>2014-06-20T15:08:37Z</time>
      </trkpt>
      <trkpt lat="43.95278" lon="1.93255">
        <ele>163.0808105</ele>
        <time>2014-06-20T15:08:42Z</time>
      </trkpt>
      <trkpt lat="43.95271" lon="1.93244">
        <ele>162.1195068</ele>
        <time>2014-06-20T15:08:47Z</time>
      </trkpt>
      <trkpt lat="43.95266" lon="1.93241">
        <ele>162.1195068</ele>
        <time>2014-06-20T15:08:52Z</time>
      </trkpt>
      <trkpt lat="43.95261" lon="1.93237">
        <ele>161.638916</ele>
        <time>2014-06-20T15:08:57Z</time>
      </trkpt>
      <trkpt lat="43.9526" lon="1.93228">
        <ele>159.7161865</ele>
        <time>2014-06-20T15:09:02Z</time>
      </trkpt>
      <trkpt lat="43.95257" lon="1.93215">
        <ele>161.1582031</ele>
        <time>2014-06-20T15:09:07Z</time>
      </trkpt>
      <trkpt lat="43.95248" lon="1.93209">
        <ele>161.1582031</ele>
        <time>2014-06-20T15:09:12Z</time>
      </trkpt>
      <trkpt lat="43.95243" lon="1.93207">
        <ele>161.1582031</ele>
        <time>2014-06-20T15:09:17Z</time>
      </trkpt>
      <trkpt lat="43.95236" lon="1.93198">
        <ele>158.7547607</ele>
        <time>2014-06-20T15:09:22Z</time>
      </trkpt>
      <trkpt lat="43.95228" lon="1.93193">
        <ele>158.2741699</ele>
        <time>2014-06-20T15:09:27Z</time>
      </trkpt>
      <trkpt lat="43.95223" lon="1.93189">
        <ele>158.2741699</ele>
        <time>2014-06-20T15:09:32Z</time>
      </trkpt>
      <trkpt lat="43.95219" lon="1.93181">
        <ele>158.2741699</ele>
        <time>2014-06-20T15:09:37Z</time>
      </trkpt>
      <trkpt lat="43.95212" lon="1.93178">
        <ele>158.2741699</ele>
        <time>2014-06-20T15:09:42Z</time>
      </trkpt>
      <trkpt lat="43.95206" lon="1.93174">
        <ele>158.2741699</ele>
        <time>2014-06-20T15:09:47Z</time>
      </trkpt>
      <trkpt lat="43.95202" lon="1.93168">
        <ele>158.2741699</ele>
        <time>2014-06-20T15:09:52Z</time>
      </trkpt>
      <trkpt lat="43.95196" lon="1.93161">
        <ele>158.7547607</ele>
        <time>2014-06-20T15:09:57Z</time>
      </trkpt>
      <trkpt lat="43.95191" lon="1.93153">
        <ele>159.2354736</ele>
        <time>2014-06-20T15:10:02Z</time>
      </trkpt>
      <trkpt lat="43.9518" lon="1.93147">
        <ele>159.7161865</ele>
        <time>2014-06-20T15:10:07Z</time>
      </trkpt>
      <trkpt lat="43.95173" lon="1.93143">
        <ele>160.1968994</ele>
        <time>2014-06-20T15:10:12Z</time>
      </trkpt>
      <trkpt lat="43.95169" lon="1.93137">
        <ele>160.1968994</ele>
        <time>2014-06-20T15:10:17Z</time>
      </trkpt>
      <trkpt lat="43.95164" lon="1.93135">
        <ele>160.1968994</ele>
        <time>2014-06-20T15:10:22Z</time>
      </trkpt>
      <trkpt lat="43.95153" lon="1.93125">
        <ele>160.1968994</ele>
        <time>2014-06-20T15:10:32Z</time>
      </trkpt>
      <trkpt lat="43.95149" lon="1.93117">
        <ele>160.6774902</ele>
        <time>2014-06-20T15:10:37Z</time>
      </trkpt>
      <trkpt lat="43.95145" lon="1.93114">
        <ele>160.6774902</ele>
        <time>2014-06-20T15:10:42Z</time>
      </trkpt>
      <trkpt lat="43.9514" lon="1.93114">
        <ele>160.6774902</ele>
        <time>2014-06-20T15:10:47Z</time>
      </trkpt>
      <trkpt lat="43.95132" lon="1.93108">
        <ele>160.6774902</ele>
        <time>2014-06-20T15:10:57Z</time>
      </trkpt>
      <trkpt lat="43.95124" lon="1.93106">
        <ele>161.1582031</ele>
        <time>2014-06-20T15:11:02Z</time>
      </trkpt>
      <trkpt lat="43.95115" lon="1.931">
        <ele>161.1582031</ele>
        <time>2014-06-20T15:11:07Z</time>
      </trkpt>
      <trkpt lat="43.95108" lon="1.93096">
        <ele>161.638916</ele>
        <time>2014-06-20T15:11:12Z</time>
      </trkpt>
      <trkpt lat="43.95108" lon="1.93094">
        <ele>162.1195068</ele>
        <time>2014-06-20T15:11:27Z</time>
      </trkpt>
      <trkpt lat="43.95102" lon="1.93091">
        <ele>162.1195068</ele>
        <time>2014-06-20T15:11:32Z</time>
      </trkpt>
      <trkpt lat="43.95092" lon="1.93089">
        <ele>162.6000977</ele>
        <time>2014-06-20T15:11:37Z</time>
      </trkpt>
      <trkpt lat="43.95087" lon="1.93089">
        <ele>162.6000977</ele>
        <time>2014-06-20T15:11:42Z</time>
      </trkpt>
      <trkpt lat="43.95078" lon="1.93088">
        <ele>162.1195068</ele>
        <time>2014-06-20T15:11:47Z</time>
      </trkpt>
      <trkpt lat="43.9507" lon="1.93085">
        <ele>162.1195068</ele>
        <time>2014-06-20T15:11:52Z</time>
      </trkpt>
      <trkpt lat="43.95063" lon="1.93082">
        <ele>162.1195068</ele>
        <time>2014-06-20T15:11:57Z</time>
      </trkpt>
      <trkpt lat="43.95052" lon="1.93075">
        <ele>160.6774902</ele>
        <time>2014-06-20T15:12:07Z</time>
      </trkpt>
      <trkpt lat="43.95043" lon="1.93071">
        <ele>158.7547607</ele>
        <time>2014-06-20T15:12:12Z</time>
      </trkpt>
      <trkpt lat="43.95036" lon="1.93071">
        <ele>157.3128662</ele>
        <time>2014-06-20T15:12:17Z</time>
      </trkpt>
      <trkpt lat="43.95029" lon="1.93069">
        <ele>156.3515625</ele>
        <time>2014-06-20T15:12:22Z</time>
      </trkpt>
      <trkpt lat="43.95024" lon="1.93066">
        <ele>155.3902588</ele>
        <time>2014-06-20T15:12:27Z</time>
      </trkpt>
      <trkpt lat="43.95018" lon="1.93067">
        <ele>156.8321533</ele>
        <time>2014-06-20T15:12:32Z</time>
      </trkpt>
      <trkpt lat="43.95011" lon="1.93068">
        <ele>155.8709717</ele>
        <time>2014-06-20T15:12:37Z</time>
      </trkpt>
      <trkpt lat="43.95001" lon="1.93067">
        <ele>158.2741699</ele>
        <time>2014-06-20T15:12:47Z</time>
      </trkpt>
      <trkpt lat="43.94995" lon="1.93068">
        <ele>160.1968994</ele>
        <time>2014-06-20T15:12:52Z</time>
      </trkpt>
      <trkpt lat="43.94989" lon="1.93067">
        <ele>160.6774902</ele>
        <time>2014-06-20T15:12:57Z</time>
      </trkpt>
      <trkpt lat="43.9498" lon="1.93066">
        <ele>160.6774902</ele>
        <time>2014-06-20T15:13:07Z</time>
      </trkpt>
      <trkpt lat="43.94973" lon="1.93068">
        <ele>163.0808105</ele>
        <time>2014-06-20T15:13:12Z</time>
      </trkpt>
      <trkpt lat="43.94966" lon="1.93067">
        <ele>164.0421143</ele>
        <time>2014-06-20T15:13:17Z</time>
      </trkpt>
      <trkpt lat="43.94959" lon="1.93073">
        <ele>162.6000977</ele>
        <time>2014-06-20T15:13:27Z</time>
      </trkpt>
      <trkpt lat="43.94952" lon="1.93075">
        <ele>164.0421143</ele>
        <time>2014-06-20T15:13:32Z</time>
      </trkpt>
      <trkpt lat="43.94945" lon="1.93075">
        <ele>163.5615234</ele>
        <time>2014-06-20T15:13:37Z</time>
      </trkpt>
      <trkpt lat="43.94938" lon="1.93077">
        <ele>163.0808105</ele>
        <time>2014-06-20T15:13:42Z</time>
      </trkpt>
      <trkpt lat="43.94932" lon="1.93077">
        <ele>162.1195068</ele>
        <time>2014-06-20T15:13:47Z</time>
      </trkpt>
      <trkpt lat="43.94925" lon="1.93075">
        <ele>161.638916</ele>
        <time>2014-06-20T15:13:52Z</time>
      </trkpt>
      <trkpt lat="43.94919" lon="1.93077">
        <ele>162.6000977</ele>
        <time>2014-06-20T15:13:57Z</time>
      </trkpt>
      <trkpt lat="43.94914" lon="1.93079">
        <ele>163.5615234</ele>
        <time>2014-06-20T15:14:02Z</time>
      </trkpt>
      <trkpt lat="43.94908" lon="1.9308">
        <ele>163.0808105</ele>
        <time>2014-06-20T15:14:07Z</time>
      </trkpt>
      <trkpt lat="43.94902" lon="1.93081">
        <ele>162.6000977</ele>
        <time>2014-06-20T15:14:12Z</time>
      </trkpt>
      <trkpt lat="43.94897" lon="1.93082">
        <ele>163.5615234</ele>
        <time>2014-06-20T15:14:17Z</time>
      </trkpt>
      <trkpt lat="43.94889" lon="1.93088">
        <ele>165.003418</ele>
        <time>2014-06-20T15:14:22Z</time>
      </trkpt>
      <trkpt lat="43.94883" lon="1.93092">
        <ele>164.5227051</ele>
        <time>2014-06-20T15:14:27Z</time>
      </trkpt>
      <trkpt lat="43.94879" lon="1.93097">
        <ele>164.5227051</ele>
        <time>2014-06-20T15:14:32Z</time>
      </trkpt>
      <trkpt lat="43.94872" lon="1.93094">
        <ele>164.5227051</ele>
        <time>2014-06-20T15:14:37Z</time>
      </trkpt>
      <trkpt lat="43.94867" lon="1.93098">
        <ele>164.5227051</ele>
        <time>2014-06-20T15:14:42Z</time>
      </trkpt>
      <trkpt lat="43.94861" lon="1.93104">
        <ele>164.0421143</ele>
        <time>2014-06-20T15:14:47Z</time>
      </trkpt>
      <trkpt lat="43.94855" lon="1.93109">
        <ele>164.5227051</ele>
        <time>2014-06-20T15:14:52Z</time>
      </trkpt>
      <trkpt lat="43.94849" lon="1.93112">
        <ele>164.0421143</ele>
        <time>2014-06-20T15:14:57Z</time>
      </trkpt>
      <trkpt lat="43.94843" lon="1.93113">
        <ele>164.5227051</ele>
        <time>2014-06-20T15:15:02Z</time>
      </trkpt>
      <trkpt lat="43.94837" lon="1.93118">
        <ele>165.4841309</ele>
        <time>2014-06-20T15:15:07Z</time>
      </trkpt>
      <trkpt lat="43.94829" lon="1.93117">
        <ele>166.4453125</ele>
        <time>2014-06-20T15:15:12Z</time>
      </trkpt>
      <trkpt lat="43.94824" lon="1.9312">
        <ele>167.4067383</ele>
        <time>2014-06-20T15:15:17Z</time>
      </trkpt>
      <trkpt lat="43.94816" lon="1.93119">
        <ele>165.9647217</ele>
        <time>2014-06-20T15:15:27Z</time>
      </trkpt>
      <trkpt lat="43.9481" lon="1.93121">
        <ele>167.4067383</ele>
        <time>2014-06-20T15:15:32Z</time>
      </trkpt>
      <trkpt lat="43.94803" lon="1.93123">
        <ele>167.4067383</ele>
        <time>2014-06-20T15:15:37Z</time>
      </trkpt>
      <trkpt lat="43.94797" lon="1.93127">
        <ele>167.8873291</ele>
        <time>2014-06-20T15:15:42Z</time>
      </trkpt>
      <trkpt lat="43.94792" lon="1.93131">
        <ele>168.8487549</ele>
        <time>2014-06-20T15:15:47Z</time>
      </trkpt>
      <trkpt lat="43.94786" lon="1.93136">
        <ele>165.9647217</ele>
        <time>2014-06-20T15:15:52Z</time>
      </trkpt>
      <trkpt lat="43.94781" lon="1.93139">
        <ele>165.9647217</ele>
        <time>2014-06-20T15:15:57Z</time>
      </trkpt>
      <trkpt lat="43.94774" lon="1.93143">
        <ele>165.9647217</ele>
        <time>2014-06-20T15:16:02Z</time>
      </trkpt>
      <trkpt lat="43.94769" lon="1.93146">
        <ele>165.4841309</ele>
        <time>2014-06-20T15:16:07Z</time>
      </trkpt>
      <trkpt lat="43.94761" lon="1.93152">
        <ele>167.4067383</ele>
        <time>2014-06-20T15:16:12Z</time>
      </trkpt>
      <trkpt lat="43.94755" lon="1.93155">
        <ele>167.4067383</ele>
        <time>2014-06-20T15:16:17Z</time>
      </trkpt>
      <trkpt lat="43.94748" lon="1.9316">
        <ele>167.4067383</ele>
        <time>2014-06-20T15:16:22Z</time>
      </trkpt>
      <trkpt lat="43.9474" lon="1.93165">
        <ele>166.9260254</ele>
        <time>2014-06-20T15:16:32Z</time>
      </trkpt>
      <trkpt lat="43.94733" lon="1.93173">
        <ele>168.8487549</ele>
        <time>2014-06-20T15:16:37Z</time>
      </trkpt>
      <trkpt lat="43.9473" lon="1.93179">
        <ele>170.2906494</ele>
        <time>2014-06-20T15:16:42Z</time>
      </trkpt>
      <trkpt lat="43.94732" lon="1.93189">
        <ele>171.2520752</ele>
        <time>2014-06-20T15:16:47Z</time>
      </trkpt>
      <trkpt lat="43.94735" lon="1.93196">
        <ele>173.6552734</ele>
        <time>2014-06-20T15:17:07Z</time>
      </trkpt>
      <trkpt lat="43.94736" lon="1.93207">
        <ele>171.732666</ele>
        <time>2014-06-20T15:17:12Z</time>
      </trkpt>
      <trkpt lat="43.94739" lon="1.93216">
        <ele>171.2520752</ele>
        <time>2014-06-20T15:17:17Z</time>
      </trkpt>
      <trkpt lat="43.94746" lon="1.93224">
        <ele>169.8100586</ele>
        <time>2014-06-20T15:17:27Z</time>
      </trkpt>
      <trkpt lat="43.94748" lon="1.93232">
        <ele>169.8100586</ele>
        <time>2014-06-20T15:17:32Z</time>
      </trkpt>
      <trkpt lat="43.9475" lon="1.93243">
        <ele>169.8100586</ele>
        <time>2014-06-20T15:17:37Z</time>
      </trkpt>
      <trkpt lat="43.94754" lon="1.93253">
        <ele>169.8100586</ele>
        <time>2014-06-20T15:17:42Z</time>
      </trkpt>
      <trkpt lat="43.94755" lon="1.93262">
        <ele>165.4841309</ele>
        <time>2014-06-20T15:17:52Z</time>
      </trkpt>
      <trkpt lat="43.94757" lon="1.93266">
        <ele>165.003418</ele>
        <time>2014-06-20T15:18:02Z</time>
      </trkpt>
      <trkpt lat="43.94754" lon="1.93272">
        <ele>166.4453125</ele>
        <time>2014-06-20T15:18:27Z</time>
      </trkpt>
      <trkpt lat="43.94751" lon="1.93279">
        <ele>165.9647217</ele>
        <time>2014-06-20T15:18:32Z</time>
      </trkpt>
      <trkpt lat="43.94747" lon="1.93286">
        <ele>165.4841309</ele>
        <time>2014-06-20T15:18:37Z</time>
      </trkpt>
      <trkpt lat="43.94743" lon="1.93292">
        <ele>164.5227051</ele>
        <time>2014-06-20T15:18:42Z</time>
      </trkpt>
      <trkpt lat="43.94738" lon="1.93297">
        <ele>164.0421143</ele>
        <time>2014-06-20T15:18:47Z</time>
      </trkpt>
      <trkpt lat="43.9473" lon="1.93303">
        <ele>162.6000977</ele>
        <time>2014-06-20T15:18:52Z</time>
      </trkpt>
      <trkpt lat="43.94727" lon="1.9331">
        <ele>161.638916</ele>
        <time>2014-06-20T15:18:57Z</time>
      </trkpt>
      <trkpt lat="43.94722" lon="1.93312">
        <ele>160.6774902</ele>
        <time>2014-06-20T15:19:02Z</time>
      </trkpt>
      <trkpt lat="43.94717" lon="1.93316">
        <ele>159.7161865</ele>
        <time>2014-06-20T15:19:07Z</time>
      </trkpt>
      <trkpt lat="43.94712" lon="1.9332">
        <ele>159.2354736</ele>
        <time>2014-06-20T15:19:12Z</time>
      </trkpt>
      <trkpt lat="43.94703" lon="1.93324">
        <ele>158.2741699</ele>
        <time>2014-06-20T15:19:17Z</time>
      </trkpt>
      <trkpt lat="43.94696" lon="1.93327">
        <ele>157.3128662</ele>
        <time>2014-06-20T15:19:22Z</time>
      </trkpt>
      <trkpt lat="43.94689" lon="1.93333">
        <ele>156.3515625</ele>
        <time>2014-06-20T15:19:27Z</time>
      </trkpt>
      <trkpt lat="43.9468" lon="1.93336">
        <ele>155.3902588</ele>
        <time>2014-06-20T15:19:32Z</time>
      </trkpt>
      <trkpt lat="43.94672" lon="1.93343">
        <ele>154.9095459</ele>
        <time>2014-06-20T15:19:37Z</time>
      </trkpt>
      <trkpt lat="43.94665" lon="1.9335">
        <ele>154.4289551</ele>
        <time>2014-06-20T15:19:42Z</time>
      </trkpt>
      <trkpt lat="43.94657" lon="1.93356">
        <ele>153.4676514</ele>
        <time>2014-06-20T15:19:52Z</time>
      </trkpt>
      <trkpt lat="43.9465" lon="1.93358">
        <ele>152.9869385</ele>
        <time>2014-06-20T15:19:57Z</time>
      </trkpt>
      <trkpt lat="43.94644" lon="1.93351">
        <ele>152.9869385</ele>
        <time>2014-06-20T15:20:02Z</time>
      </trkpt>
      <trkpt lat="43.94641" lon="1.93346">
        <ele>155.8709717</ele>
        <time>2014-06-20T15:20:07Z</time>
      </trkpt>
      <trkpt lat="43.94638" lon="1.9334">
        <ele>156.3515625</ele>
        <time>2014-06-20T15:20:12Z</time>
      </trkpt>
      <trkpt lat="43.94635" lon="1.93331">
        <ele>157.3128662</ele>
        <time>2014-06-20T15:20:17Z</time>
      </trkpt>
      <trkpt lat="43.94631" lon="1.93328">
        <ele>158.7547607</ele>
        <time>2014-06-20T15:20:27Z</time>
      </trkpt>
      <trkpt lat="43.94626" lon="1.93327">
        <ele>164.5227051</ele>
        <time>2014-06-20T15:21:07Z</time>
      </trkpt>
      <trkpt lat="43.94622" lon="1.93323">
        <ele>165.9647217</ele>
        <time>2014-06-20T15:21:12Z</time>
      </trkpt>
      <trkpt lat="43.9462" lon="1.93315">
        <ele>165.9647217</ele>
        <time>2014-06-20T15:21:22Z</time>
      </trkpt>
      <trkpt lat="43.9462" lon="1.93302">
        <ele>166.9260254</ele>
        <time>2014-06-20T15:21:32Z</time>
      </trkpt>
      <trkpt lat="43.94617" lon="1.93296">
        <ele>168.368042</ele>
        <time>2014-06-20T15:21:42Z</time>
      </trkpt>
      <trkpt lat="43.9461" lon="1.93297">
        <ele>169.3294678</ele>
        <time>2014-06-20T15:21:52Z</time>
      </trkpt>
      <trkpt lat="43.94616" lon="1.93305">
        <ele>169.3294678</ele>
        <time>2014-06-20T15:22:02Z</time>
      </trkpt>
      <trkpt lat="43.94619" lon="1.933">
        <ele>168.368042</ele>
        <time>2014-06-20T15:22:17Z</time>
      </trkpt>
      <trkpt lat="43.94624" lon="1.93297">
        <ele>167.8873291</ele>
        <time>2014-06-20T15:22:37Z</time>
      </trkpt>
      <trkpt lat="43.94621" lon="1.93295">
        <ele>166.9260254</ele>
        <time>2014-06-20T15:22:52Z</time>
      </trkpt>
      <trkpt lat="43.94617" lon="1.93292">
        <ele>165.4841309</ele>
        <time>2014-06-20T15:23:07Z</time>
      </trkpt>
      <trkpt lat="43.9461" lon="1.93284">
        <ele>165.4841309</ele>
        <time>2014-06-20T15:23:17Z</time>
      </trkpt>
      <trkpt lat="43.946" lon="1.93284">
        <ele>167.8873291</ele>
        <time>2014-06-20T15:23:27Z</time>
      </trkpt>
      <trkpt lat="43.9459" lon="1.93287">
        <ele>168.368042</ele>
        <time>2014-06-20T15:23:32Z</time>
      </trkpt>
      <trkpt lat="43.94585" lon="1.93289">
        <ele>169.3294678</ele>
        <time>2014-06-20T15:23:37Z</time>
      </trkpt>
      <trkpt lat="43.9458" lon="1.93292">
        <ele>169.3294678</ele>
        <time>2014-06-20T15:23:42Z</time>
      </trkpt>
      <trkpt lat="43.94575" lon="1.93297">
        <ele>170.7713623</ele>
        <time>2014-06-20T15:23:47Z</time>
      </trkpt>
      <trkpt lat="43.9457" lon="1.93302">
        <ele>173.6552734</ele>
        <time>2014-06-20T15:23:57Z</time>
      </trkpt>
      <trkpt lat="43.94566" lon="1.93298">
        <ele>175.09729</ele>
        <time>2014-06-20T15:24:02Z</time>
      </trkpt>
      <trkpt lat="43.94559" lon="1.9328">
        <ele>177.5006104</ele>
        <time>2014-06-20T15:24:12Z</time>
      </trkpt>
      <trkpt lat="43.94556" lon="1.93274">
        <ele>178.942627</ele>
        <time>2014-06-20T15:24:17Z</time>
      </trkpt>
      <trkpt lat="43.94553" lon="1.93266">
        <ele>176.5393066</ele>
        <time>2014-06-20T15:24:22Z</time>
      </trkpt>
      <trkpt lat="43.9455" lon="1.9326">
        <ele>176.5393066</ele>
        <time>2014-06-20T15:24:27Z</time>
      </trkpt>
      <trkpt lat="43.94548" lon="1.93246">
        <ele>176.5393066</ele>
        <time>2014-06-20T15:24:32Z</time>
      </trkpt>
      <trkpt lat="43.94544" lon="1.93238">
        <ele>175.5778809</ele>
        <time>2014-06-20T15:24:37Z</time>
      </trkpt>
      <trkpt lat="43.94538" lon="1.93222">
        <ele>176.0585938</ele>
        <time>2014-06-20T15:24:47Z</time>
      </trkpt>
      <trkpt lat="43.94535" lon="1.93213">
        <ele>175.5778809</ele>
        <time>2014-06-20T15:24:52Z</time>
      </trkpt>
      <trkpt lat="43.94527" lon="1.93201">
        <ele>174.6165771</ele>
        <time>2014-06-20T15:24:57Z</time>
      </trkpt>
      <trkpt lat="43.94522" lon="1.93193">
        <ele>175.5778809</ele>
        <time>2014-06-20T15:25:02Z</time>
      </trkpt>
      <trkpt lat="43.94518" lon="1.93186">
        <ele>176.0585938</ele>
        <time>2014-06-20T15:25:07Z</time>
      </trkpt>
      <trkpt lat="43.94515" lon="1.9318">
        <ele>173.6552734</ele>
        <time>2014-06-20T15:25:12Z</time>
      </trkpt>
      <trkpt lat="43.94511" lon="1.93175">
        <ele>173.1746826</ele>
        <time>2014-06-20T15:25:17Z</time>
      </trkpt>
      <trkpt lat="43.94505" lon="1.93173">
        <ele>173.1746826</ele>
        <time>2014-06-20T15:25:22Z</time>
      </trkpt>
      <trkpt lat="43.94501" lon="1.93177">
        <ele>170.7713623</ele>
        <time>2014-06-20T15:25:27Z</time>
      </trkpt>
      <trkpt lat="43.94495" lon="1.93179">
        <ele>170.7713623</ele>
        <time>2014-06-20T15:25:32Z</time>
      </trkpt>
      <trkpt lat="43.9449" lon="1.93179">
        <ele>172.2132568</ele>
        <time>2014-06-20T15:25:37Z</time>
      </trkpt>
      <trkpt lat="43.94483" lon="1.93169">
        <ele>175.5778809</ele>
        <time>2014-06-20T15:25:52Z</time>
      </trkpt>
      <trkpt lat="43.94481" lon="1.93162">
        <ele>176.5393066</ele>
        <time>2014-06-20T15:25:57Z</time>
      </trkpt>
      <trkpt lat="43.9448" lon="1.93155">
        <ele>178.4619141</ele>
        <time>2014-06-20T15:26:02Z</time>
      </trkpt>
      <trkpt lat="43.94477" lon="1.93147">
        <ele>177.9812012</ele>
        <time>2014-06-20T15:26:07Z</time>
      </trkpt>
      <trkpt lat="43.94469" lon="1.93136">
        <ele>177.5006104</ele>
        <time>2014-06-20T15:26:12Z</time>
      </trkpt>
      <trkpt lat="43.94465" lon="1.93128">
        <ele>177.0200195</ele>
        <time>2014-06-20T15:26:17Z</time>
      </trkpt>
      <trkpt lat="43.94461" lon="1.93122">
        <ele>177.9812012</ele>
        <time>2014-06-20T15:26:22Z</time>
      </trkpt>
      <trkpt lat="43.94456" lon="1.93115">
        <ele>178.942627</ele>
        <time>2014-06-20T15:26:27Z</time>
      </trkpt>
      <trkpt lat="43.94452" lon="1.93108">
        <ele>179.9038086</ele>
        <time>2014-06-20T15:26:32Z</time>
      </trkpt>
      <trkpt lat="43.94446" lon="1.93101">
        <ele>181.3458252</ele>
        <time>2014-06-20T15:26:37Z</time>
      </trkpt>
      <trkpt lat="43.94443" lon="1.93094">
        <ele>182.3071289</ele>
        <time>2014-06-20T15:26:42Z</time>
      </trkpt>
      <trkpt lat="43.9444" lon="1.93089">
        <ele>181.826416</ele>
        <time>2014-06-20T15:26:47Z</time>
      </trkpt>
      <trkpt lat="43.94436" lon="1.93084">
        <ele>182.3071289</ele>
        <time>2014-06-20T15:26:52Z</time>
      </trkpt>
      <trkpt lat="43.94433" lon="1.93077">
        <ele>181.826416</ele>
        <time>2014-06-20T15:26:57Z</time>
      </trkpt>
      <trkpt lat="43.94428" lon="1.9307">
        <ele>182.7878418</ele>
        <time>2014-06-20T15:27:02Z</time>
      </trkpt>
      <trkpt lat="43.94421" lon="1.93062">
        <ele>181.3458252</ele>
        <time>2014-06-20T15:27:07Z</time>
      </trkpt>
      <trkpt lat="43.94417" lon="1.93055">
        <ele>183.2684326</ele>
        <time>2014-06-20T15:27:12Z</time>
      </trkpt>
      <trkpt lat="43.94414" lon="1.93048">
        <ele>183.7490234</ele>
        <time>2014-06-20T15:27:17Z</time>
      </trkpt>
      <trkpt lat="43.94411" lon="1.93039">
        <ele>184.7105713</ele>
        <time>2014-06-20T15:27:22Z</time>
      </trkpt>
      <trkpt lat="43.94409" lon="1.93032">
        <ele>186.1524658</ele>
        <time>2014-06-20T15:27:27Z</time>
      </trkpt>
      <trkpt lat="43.94408" lon="1.93023">
        <ele>186.1524658</ele>
        <time>2014-06-20T15:27:32Z</time>
      </trkpt>
      <trkpt lat="43.94409" lon="1.93014">
        <ele>188.5557861</ele>
        <time>2014-06-20T15:27:37Z</time>
      </trkpt>
      <trkpt lat="43.9441" lon="1.93006">
        <ele>189.5169678</ele>
        <time>2014-06-20T15:27:42Z</time>
      </trkpt>
      <trkpt lat="43.94415" lon="1.92998">
        <ele>194.8043213</ele>
        <time>2014-06-20T15:27:47Z</time>
      </trkpt>
      <trkpt lat="43.94419" lon="1.9299">
        <ele>198.1689453</ele>
        <time>2014-06-20T15:27:52Z</time>
      </trkpt>
      <trkpt lat="43.94421" lon="1.92981">
        <ele>199.6108398</ele>
        <time>2014-06-20T15:27:57Z</time>
      </trkpt>
      <trkpt lat="43.94422" lon="1.92973">
        <ele>203.4561768</ele>
        <time>2014-06-20T15:28:02Z</time>
      </trkpt>
      <trkpt lat="43.94427" lon="1.92965">
        <ele>202.9754639</ele>
        <time>2014-06-20T15:28:07Z</time>
      </trkpt>
      <trkpt lat="43.94428" lon="1.92955">
        <ele>202.9754639</ele>
        <time>2014-06-20T15:28:17Z</time>
      </trkpt>
      <trkpt lat="43.94427" lon="1.92949">
        <ele>201.5335693</ele>
        <time>2014-06-20T15:28:22Z</time>
      </trkpt>
      <trkpt lat="43.94428" lon="1.92939">
        <ele>199.130127</ele>
        <time>2014-06-20T15:28:27Z</time>
      </trkpt>
      <trkpt lat="43.94431" lon="1.9293">
        <ele>198.1689453</ele>
        <time>2014-06-20T15:28:32Z</time>
      </trkpt>
      <trkpt lat="43.94434" lon="1.92919">
        <ele>198.6495361</ele>
        <time>2014-06-20T15:28:37Z</time>
      </trkpt>
      <trkpt lat="43.94436" lon="1.92908">
        <ele>201.0528564</ele>
        <time>2014-06-20T15:28:42Z</time>
      </trkpt>
      <trkpt lat="43.94441" lon="1.92902">
        <ele>203.9368896</ele>
        <time>2014-06-20T15:28:47Z</time>
      </trkpt>
      <trkpt lat="43.94446" lon="1.92897">
        <ele>206.3400879</ele>
        <time>2014-06-20T15:28:52Z</time>
      </trkpt>
      <trkpt lat="43.94454" lon="1.9289">
        <ele>207.7821045</ele>
        <time>2014-06-20T15:29:02Z</time>
      </trkpt>
      <trkpt lat="43.94464" lon="1.92893">
        <ele>208.2628174</ele>
        <time>2014-06-20T15:29:07Z</time>
      </trkpt>
      <trkpt lat="43.94467" lon="1.92899">
        <ele>211.6274414</ele>
        <time>2014-06-20T15:29:12Z</time>
      </trkpt>
      <trkpt lat="43.94471" lon="1.92896">
        <ele>212.1080322</ele>
        <time>2014-06-20T15:29:17Z</time>
      </trkpt>
      <trkpt lat="43.94481" lon="1.92885">
        <ele>209.2241211</ele>
        <time>2014-06-20T15:29:22Z</time>
      </trkpt>
      <trkpt lat="43.94484" lon="1.92877">
        <ele>207.7821045</ele>
        <time>2014-06-20T15:29:27Z</time>
      </trkpt>
      <trkpt lat="43.94485" lon="1.9287">
        <ele>206.8206787</ele>
        <time>2014-06-20T15:29:32Z</time>
      </trkpt>
      <trkpt lat="43.94485" lon="1.92862">
        <ele>206.3400879</ele>
        <time>2014-06-20T15:30:07Z</time>
      </trkpt>
      <trkpt lat="43.94487" lon="1.9285">
        <ele>207.3013916</ele>
        <time>2014-06-20T15:30:12Z</time>
      </trkpt>
      <trkpt lat="43.94484" lon="1.9284">
        <ele>209.704834</ele>
        <time>2014-06-20T15:30:17Z</time>
      </trkpt>
      <trkpt lat="43.94486" lon="1.92829">
        <ele>211.1467285</ele>
        <time>2014-06-20T15:30:22Z</time>
      </trkpt>
      <trkpt lat="43.9449" lon="1.92822">
        <ele>214.0306396</ele>
        <time>2014-06-20T15:30:32Z</time>
      </trkpt>
      <trkpt lat="43.94494" lon="1.92812">
        <ele>215.4726563</ele>
        <time>2014-06-20T15:30:37Z</time>
      </trkpt>
      <trkpt lat="43.94492" lon="1.92805">
        <ele>215.4726563</ele>
        <time>2014-06-20T15:30:42Z</time>
      </trkpt>
      <trkpt lat="43.94495" lon="1.92794">
        <ele>216.43396</ele>
        <time>2014-06-20T15:30:47Z</time>
      </trkpt>
      <trkpt lat="43.94498" lon="1.92784">
        <ele>216.9146729</ele>
        <time>2014-06-20T15:30:52Z</time>
      </trkpt>
      <trkpt lat="43.94499" lon="1.92774">
        <ele>217.3953857</ele>
        <time>2014-06-20T15:30:57Z</time>
      </trkpt>
      <trkpt lat="43.94503" lon="1.92771">
        <ele>217.8759766</ele>
        <time>2014-06-20T15:31:02Z</time>
      </trkpt>
      <trkpt lat="43.94505" lon="1.92759">
        <ele>216.9146729</ele>
        <time>2014-06-20T15:31:07Z</time>
      </trkpt>
      <trkpt lat="43.94506" lon="1.92752">
        <ele>217.3953857</ele>
        <time>2014-06-20T15:31:12Z</time>
      </trkpt>
      <trkpt lat="43.94504" lon="1.9274">
        <ele>217.3953857</ele>
        <time>2014-06-20T15:31:22Z</time>
      </trkpt>
      <trkpt lat="43.94504" lon="1.92727">
        <ele>217.3953857</ele>
        <time>2014-06-20T15:31:27Z</time>
      </trkpt>
      <trkpt lat="43.94506" lon="1.92715">
        <ele>216.9146729</ele>
        <time>2014-06-20T15:31:32Z</time>
      </trkpt>
      <trkpt lat="43.94506" lon="1.92705">
        <ele>216.43396</ele>
        <time>2014-06-20T15:31:42Z</time>
      </trkpt>
      <trkpt lat="43.945" lon="1.92692">
        <ele>215.4726563</ele>
        <time>2014-06-20T15:31:52Z</time>
      </trkpt>
      <trkpt lat="43.94503" lon="1.92678">
        <ele>214.9919434</ele>
        <time>2014-06-20T15:31:57Z</time>
      </trkpt>
      <trkpt lat="43.94503" lon="1.92669">
        <ele>214.5112305</ele>
        <time>2014-06-20T15:32:02Z</time>
      </trkpt>
      <trkpt lat="43.94501" lon="1.92661">
        <ele>214.0306396</ele>
        <time>2014-06-20T15:32:07Z</time>
      </trkpt>
      <trkpt lat="43.945" lon="1.92653">
        <ele>213.5500488</ele>
        <time>2014-06-20T15:32:12Z</time>
      </trkpt>
      <trkpt lat="43.945" lon="1.92642">
        <ele>213.0693359</ele>
        <time>2014-06-20T15:32:17Z</time>
      </trkpt>
      <trkpt lat="43.94497" lon="1.92631">
        <ele>212.588623</ele>
        <time>2014-06-20T15:32:27Z</time>
      </trkpt>
      <trkpt lat="43.94497" lon="1.9262">
        <ele>212.1080322</ele>
        <time>2014-06-20T15:32:32Z</time>
      </trkpt>
      <trkpt lat="43.94495" lon="1.92605">
        <ele>211.6274414</ele>
        <time>2014-06-20T15:32:42Z</time>
      </trkpt>
      <trkpt lat="43.94492" lon="1.9259">
        <ele>211.1467285</ele>
        <time>2014-06-20T15:32:52Z</time>
      </trkpt>
      <trkpt lat="43.94493" lon="1.92576">
        <ele>212.1080322</ele>
        <time>2014-06-20T15:33:02Z</time>
      </trkpt>
      <trkpt lat="43.94497" lon="1.92571">
        <ele>213.5500488</ele>
        <time>2014-06-20T15:33:07Z</time>
      </trkpt>
      <trkpt lat="43.94494" lon="1.92566">
        <ele>214.5112305</ele>
        <time>2014-06-20T15:33:12Z</time>
      </trkpt>
      <trkpt lat="43.94492" lon="1.92557">
        <ele>216.43396</ele>
        <time>2014-06-20T15:33:17Z</time>
      </trkpt>
      <trkpt lat="43.94487" lon="1.92546">
        <ele>219.3179932</ele>
        <time>2014-06-20T15:33:27Z</time>
      </trkpt>
      <trkpt lat="43.94483" lon="1.92534">
        <ele>220.7598877</ele>
        <time>2014-06-20T15:33:32Z</time>
      </trkpt>
      <trkpt lat="43.94482" lon="1.92525">
        <ele>222.2017822</ele>
        <time>2014-06-20T15:33:37Z</time>
      </trkpt>
      <trkpt lat="43.9448" lon="1.92519">
        <ele>224.1245117</ele>
        <time>2014-06-20T15:33:42Z</time>
      </trkpt>
      <trkpt lat="43.94476" lon="1.92512">
        <ele>226.0471191</ele>
        <time>2014-06-20T15:33:47Z</time>
      </trkpt>
      <trkpt lat="43.94475" lon="1.92505">
        <ele>227.4891357</ele>
        <time>2014-06-20T15:33:52Z</time>
      </trkpt>
      <trkpt lat="43.94479" lon="1.92499">
        <ele>229.892334</ele>
        <time>2014-06-20T15:33:57Z</time>
      </trkpt>
      <trkpt lat="43.94475" lon="1.92489">
        <ele>231.8149414</ele>
        <time>2014-06-20T15:34:02Z</time>
      </trkpt>
      <trkpt lat="43.94473" lon="1.92483">
        <ele>233.7376709</ele>
        <time>2014-06-20T15:34:07Z</time>
      </trkpt>
      <trkpt lat="43.9447" lon="1.92476">
        <ele>235.1796875</ele>
        <time>2014-06-20T15:34:12Z</time>
      </trkpt>
      <trkpt lat="43.94468" lon="1.92463">
        <ele>236.1409912</ele>
        <time>2014-06-20T15:34:17Z</time>
      </trkpt>
      <trkpt lat="43.94465" lon="1.92456">
        <ele>237.5828857</ele>
        <time>2014-06-20T15:34:22Z</time>
      </trkpt>
      <trkpt lat="43.94461" lon="1.92451">
        <ele>239.0249023</ele>
        <time>2014-06-20T15:34:27Z</time>
      </trkpt>
      <trkpt lat="43.94456" lon="1.92441">
        <ele>240.467041</ele>
        <time>2014-06-20T15:34:32Z</time>
      </trkpt>
      <trkpt lat="43.94453" lon="1.92434">
        <ele>241.4282227</ele>
        <time>2014-06-20T15:34:37Z</time>
      </trkpt>
      <trkpt lat="43.94447" lon="1.92429">
        <ele>241.4282227</ele>
        <time>2014-06-20T15:34:42Z</time>
      </trkpt>
      <trkpt lat="43.94441" lon="1.92423">
        <ele>242.3896484</ele>
        <time>2014-06-20T15:34:47Z</time>
      </trkpt>
      <trkpt lat="43.94435" lon="1.92421">
        <ele>242.3896484</ele>
        <time>2014-06-20T15:34:57Z</time>
      </trkpt>
      <trkpt lat="43.9443" lon="1.92418">
        <ele>242.8702393</ele>
        <time>2014-06-20T15:35:02Z</time>
      </trkpt>
      <trkpt lat="43.94422" lon="1.92411">
        <ele>243.3508301</ele>
        <time>2014-06-20T15:35:07Z</time>
      </trkpt>
      <trkpt lat="43.94416" lon="1.92409">
        <ele>242.3896484</ele>
        <time>2014-06-20T15:35:12Z</time>
      </trkpt>
      <trkpt lat="43.9441" lon="1.92405">
        <ele>240.9476318</ele>
        <time>2014-06-20T15:35:22Z</time>
      </trkpt>
      <trkpt lat="43.94403" lon="1.92403">
        <ele>240.467041</ele>
        <time>2014-06-20T15:35:27Z</time>
      </trkpt>
      <trkpt lat="43.94395" lon="1.92399">
        <ele>240.9476318</ele>
        <time>2014-06-20T15:35:32Z</time>
      </trkpt>
      <trkpt lat="43.94388" lon="1.92393">
        <ele>240.9476318</ele>
        <time>2014-06-20T15:35:37Z</time>
      </trkpt>
      <trkpt lat="43.9438" lon="1.92394">
        <ele>240.9476318</ele>
        <time>2014-06-20T15:35:42Z</time>
      </trkpt>
      <trkpt lat="43.94374" lon="1.92394">
        <ele>240.9476318</ele>
        <time>2014-06-20T15:35:47Z</time>
      </trkpt>
      <trkpt lat="43.94365" lon="1.92397">
        <ele>240.9476318</ele>
        <time>2014-06-20T15:35:52Z</time>
      </trkpt>
      <trkpt lat="43.94354" lon="1.924">
        <ele>240.467041</ele>
        <time>2014-06-20T15:36:02Z</time>
      </trkpt>
      <trkpt lat="43.94347" lon="1.92401">
        <ele>240.9476318</ele>
        <time>2014-06-20T15:36:07Z</time>
      </trkpt>
      <trkpt lat="43.9434" lon="1.92402">
        <ele>240.467041</ele>
        <time>2014-06-20T15:36:12Z</time>
      </trkpt>
      <trkpt lat="43.94332" lon="1.92403">
        <ele>239.9862061</ele>
        <time>2014-06-20T15:36:17Z</time>
      </trkpt>
      <trkpt lat="43.94324" lon="1.92406">
        <ele>239.0249023</ele>
        <time>2014-06-20T15:36:22Z</time>
      </trkpt>
      <trkpt lat="43.94318" lon="1.92408">
        <ele>239.0249023</ele>
        <time>2014-06-20T15:36:27Z</time>
      </trkpt>
      <trkpt lat="43.94309" lon="1.92412">
        <ele>236.6217041</ele>
        <time>2014-06-20T15:36:32Z</time>
      </trkpt>
      <trkpt lat="43.94304" lon="1.92413">
        <ele>236.6217041</ele>
        <time>2014-06-20T15:36:37Z</time>
      </trkpt>
      <trkpt lat="43.943" lon="1.92416">
        <ele>237.1022949</ele>
        <time>2014-06-20T15:36:42Z</time>
      </trkpt>
      <trkpt lat="43.94294" lon="1.92418">
        <ele>235.1796875</ele>
        <time>2014-06-20T15:36:47Z</time>
      </trkpt>
      <trkpt lat="43.94285" lon="1.9242">
        <ele>233.2570801</ele>
        <time>2014-06-20T15:36:52Z</time>
      </trkpt>
      <trkpt lat="43.94278" lon="1.92421">
        <ele>233.2570801</ele>
        <time>2014-06-20T15:36:57Z</time>
      </trkpt>
      <trkpt lat="43.94268" lon="1.92422">
        <ele>231.8149414</ele>
        <time>2014-06-20T15:37:02Z</time>
      </trkpt>
      <trkpt lat="43.94262" lon="1.92426">
        <ele>231.8149414</ele>
        <time>2014-06-20T15:37:07Z</time>
      </trkpt>
      <trkpt lat="43.94256" lon="1.92429">
        <ele>232.2957764</ele>
        <time>2014-06-20T15:37:12Z</time>
      </trkpt>
      <trkpt lat="43.94249" lon="1.92432">
        <ele>230.3730469</ele>
        <time>2014-06-20T15:37:17Z</time>
      </trkpt>
      <trkpt lat="43.94242" lon="1.92435">
        <ele>228.4504395</ele>
        <time>2014-06-20T15:37:22Z</time>
      </trkpt>
      <trkpt lat="43.94235" lon="1.92436">
        <ele>227.9697266</ele>
        <time>2014-06-20T15:37:27Z</time>
      </trkpt>
      <trkpt lat="43.94231" lon="1.92439">
        <ele>227.0085449</ele>
        <time>2014-06-20T15:37:32Z</time>
      </trkpt>
      <trkpt lat="43.94227" lon="1.92442">
        <ele>227.4891357</ele>
        <time>2014-06-20T15:37:42Z</time>
      </trkpt>
      <trkpt lat="43.94225" lon="1.92443">
        <ele>227.9697266</ele>
        <time>2014-06-20T15:38:12Z</time>
      </trkpt>
      <trkpt lat="43.94216" lon="1.92447">
        <ele>228.4504395</ele>
        <time>2014-06-20T15:38:22Z</time>
      </trkpt>
      <trkpt lat="43.94209" lon="1.9245">
        <ele>230.3730469</ele>
        <time>2014-06-20T15:38:27Z</time>
      </trkpt>
      <trkpt lat="43.94201" lon="1.92454">
        <ele>228.9311523</ele>
        <time>2014-06-20T15:38:32Z</time>
      </trkpt>
      <trkpt lat="43.94194" lon="1.92456">
        <ele>227.9697266</ele>
        <time>2014-06-20T15:38:37Z</time>
      </trkpt>
      <trkpt lat="43.94188" lon="1.92459">
        <ele>226.527832</ele>
        <time>2014-06-20T15:38:42Z</time>
      </trkpt>
      <trkpt lat="43.94181" lon="1.92461">
        <ele>225.5665283</ele>
        <time>2014-06-20T15:38:47Z</time>
      </trkpt>
      <trkpt lat="43.94173" lon="1.92467">
        <ele>223.6437988</ele>
        <time>2014-06-20T15:38:52Z</time>
      </trkpt>
      <trkpt lat="43.94169" lon="1.92472">
        <ele>222.2017822</ele>
        <time>2014-06-20T15:38:57Z</time>
      </trkpt>
      <trkpt lat="43.94163" lon="1.92476">
        <ele>220.7598877</ele>
        <time>2014-06-20T15:39:02Z</time>
      </trkpt>
      <trkpt lat="43.94156" lon="1.92482">
        <ele>220.2791748</ele>
        <time>2014-06-20T15:39:07Z</time>
      </trkpt>
      <trkpt lat="43.94151" lon="1.92485">
        <ele>221.7211914</ele>
        <time>2014-06-20T15:39:12Z</time>
      </trkpt>
      <trkpt lat="43.94142" lon="1.92491">
        <ele>222.2017822</ele>
        <time>2014-06-20T15:39:22Z</time>
      </trkpt>
      <trkpt lat="43.94133" lon="1.92498">
        <ele>222.2017822</ele>
        <time>2014-06-20T15:39:27Z</time>
      </trkpt>
      <trkpt lat="43.94127" lon="1.92505">
        <ele>223.163208</ele>
        <time>2014-06-20T15:39:32Z</time>
      </trkpt>
      <trkpt lat="43.94118" lon="1.92515">
        <ele>225.0859375</ele>
        <time>2014-06-20T15:39:42Z</time>
      </trkpt>
      <trkpt lat="43.94113" lon="1.92524">
        <ele>224.1245117</ele>
        <time>2014-06-20T15:39:47Z</time>
      </trkpt>
      <trkpt lat="43.94107" lon="1.9253">
        <ele>223.6437988</ele>
        <time>2014-06-20T15:39:52Z</time>
      </trkpt>
      <trkpt lat="43.94098" lon="1.92537">
        <ele>221.7211914</ele>
        <time>2014-06-20T15:40:02Z</time>
      </trkpt>
      <trkpt lat="43.94091" lon="1.92545">
        <ele>221.2406006</ele>
        <time>2014-06-20T15:40:07Z</time>
      </trkpt>
      <trkpt lat="43.94086" lon="1.92552">
        <ele>220.2791748</ele>
        <time>2014-06-20T15:40:12Z</time>
      </trkpt>
      <trkpt lat="43.94082" lon="1.92556">
        <ele>220.2791748</ele>
        <time>2014-06-20T15:40:17Z</time>
      </trkpt>
      <trkpt lat="43.94071" lon="1.92568">
        <ele>220.2791748</ele>
        <time>2014-06-20T15:40:27Z</time>
      </trkpt>
      <trkpt lat="43.94067" lon="1.92579">
        <ele>219.798584</ele>
        <time>2014-06-20T15:40:32Z</time>
      </trkpt>
      <trkpt lat="43.94063" lon="1.92584">
        <ele>219.3179932</ele>
        <time>2014-06-20T15:40:37Z</time>
      </trkpt>
      <trkpt lat="43.94061" lon="1.9259">
        <ele>218.8372803</ele>
        <time>2014-06-20T15:40:42Z</time>
      </trkpt>
      <trkpt lat="43.94056" lon="1.926">
        <ele>219.3179932</ele>
        <time>2014-06-20T15:40:47Z</time>
      </trkpt>
      <trkpt lat="43.94049" lon="1.92607">
        <ele>218.3565674</ele>
        <time>2014-06-20T15:40:52Z</time>
      </trkpt>
      <trkpt lat="43.94044" lon="1.92617">
        <ele>217.3953857</ele>
        <time>2014-06-20T15:41:02Z</time>
      </trkpt>
      <trkpt lat="43.94035" lon="1.92625">
        <ele>216.9146729</ele>
        <time>2014-06-20T15:41:07Z</time>
      </trkpt>
      <trkpt lat="43.94027" lon="1.92635">
        <ele>214.9919434</ele>
        <time>2014-06-20T15:41:12Z</time>
      </trkpt>
      <trkpt lat="43.94022" lon="1.92636">
        <ele>214.9919434</ele>
        <time>2014-06-20T15:41:17Z</time>
      </trkpt>
      <trkpt lat="43.9402" lon="1.92642">
        <ele>214.9919434</ele>
        <time>2014-06-20T15:41:27Z</time>
      </trkpt>
      <trkpt lat="43.94015" lon="1.92649">
        <ele>215.9532471</ele>
        <time>2014-06-20T15:41:32Z</time>
      </trkpt>
      <trkpt lat="43.94009" lon="1.92656">
        <ele>215.9532471</ele>
        <time>2014-06-20T15:41:37Z</time>
      </trkpt>
      <trkpt lat="43.94005" lon="1.92663">
        <ele>216.43396</ele>
        <time>2014-06-20T15:41:42Z</time>
      </trkpt>
      <trkpt lat="43.93997" lon="1.92672">
        <ele>216.43396</ele>
        <time>2014-06-20T15:41:47Z</time>
      </trkpt>
      <trkpt lat="43.93993" lon="1.92676">
        <ele>216.43396</ele>
        <time>2014-06-20T15:41:52Z</time>
      </trkpt>
      <trkpt lat="43.93988" lon="1.92679">
        <ele>216.43396</ele>
        <time>2014-06-20T15:41:57Z</time>
      </trkpt>
      <trkpt lat="43.93983" lon="1.92687">
        <ele>216.43396</ele>
        <time>2014-06-20T15:42:02Z</time>
      </trkpt>
      <trkpt lat="43.93979" lon="1.92698">
        <ele>215.4726563</ele>
        <time>2014-06-20T15:42:07Z</time>
      </trkpt>
      <trkpt lat="43.93972" lon="1.92704">
        <ele>214.5112305</ele>
        <time>2014-06-20T15:42:12Z</time>
      </trkpt>
      <trkpt lat="43.93966" lon="1.92713">
        <ele>213.5500488</ele>
        <time>2014-06-20T15:42:22Z</time>
      </trkpt>
      <trkpt lat="43.93955" lon="1.92721">
        <ele>213.5500488</ele>
        <time>2014-06-20T15:42:27Z</time>
      </trkpt>
      <trkpt lat="43.93951" lon="1.92726">
        <ele>213.5500488</ele>
        <time>2014-06-20T15:42:32Z</time>
      </trkpt>
      <trkpt lat="43.93945" lon="1.92734">
        <ele>213.0693359</ele>
        <time>2014-06-20T15:42:42Z</time>
      </trkpt>
      <trkpt lat="43.93938" lon="1.92741">
        <ele>213.0693359</ele>
        <time>2014-06-20T15:42:47Z</time>
      </trkpt>
      <trkpt lat="43.93932" lon="1.92745">
        <ele>213.0693359</ele>
        <time>2014-06-20T15:42:52Z</time>
      </trkpt>
      <trkpt lat="43.93921" lon="1.92751">
        <ele>214.0306396</ele>
        <time>2014-06-20T15:43:02Z</time>
      </trkpt>
      <trkpt lat="43.93914" lon="1.92756">
        <ele>214.5112305</ele>
        <time>2014-06-20T15:43:07Z</time>
      </trkpt>
      <trkpt lat="43.93902" lon="1.92757">
        <ele>214.0306396</ele>
        <time>2014-06-20T15:43:17Z</time>
      </trkpt>
      <trkpt lat="43.93897" lon="1.92762">
        <ele>215.4726563</ele>
        <time>2014-06-20T15:43:22Z</time>
      </trkpt>
      <trkpt lat="43.93889" lon="1.92765">
        <ele>216.43396</ele>
        <time>2014-06-20T15:43:32Z</time>
      </trkpt>
      <trkpt lat="43.93882" lon="1.92769">
        <ele>215.9532471</ele>
        <time>2014-06-20T15:43:37Z</time>
      </trkpt>
      <trkpt lat="43.93871" lon="1.92775">
        <ele>212.588623</ele>
        <time>2014-06-20T15:43:47Z</time>
      </trkpt>
      <trkpt lat="43.93861" lon="1.92778">
        <ele>212.1080322</ele>
        <time>2014-06-20T15:43:52Z</time>
      </trkpt>
      <trkpt lat="43.93855" lon="1.92781">
        <ele>211.6274414</ele>
        <time>2014-06-20T15:43:57Z</time>
      </trkpt>
      <trkpt lat="43.93853" lon="1.92787">
        <ele>211.1467285</ele>
        <time>2014-06-20T15:44:02Z</time>
      </trkpt>
      <trkpt lat="43.93846" lon="1.92796">
        <ele>209.704834</ele>
        <time>2014-06-20T15:44:07Z</time>
      </trkpt>
      <trkpt lat="43.93841" lon="1.92804">
        <ele>208.2628174</ele>
        <time>2014-06-20T15:44:12Z</time>
      </trkpt>
      <trkpt lat="43.93837" lon="1.92809">
        <ele>206.3400879</ele>
        <time>2014-06-20T15:44:17Z</time>
      </trkpt>
      <trkpt lat="43.93829" lon="1.92812">
        <ele>204.8980713</ele>
        <time>2014-06-20T15:44:22Z</time>
      </trkpt>
      <trkpt lat="43.93823" lon="1.92813">
        <ele>203.9368896</ele>
        <time>2014-06-20T15:44:27Z</time>
      </trkpt>
      <trkpt lat="43.93817" lon="1.92818">
        <ele>203.4561768</ele>
        <time>2014-06-20T15:44:32Z</time>
      </trkpt>
      <trkpt lat="43.93811" lon="1.92824">
        <ele>202.9754639</ele>
        <time>2014-06-20T15:44:37Z</time>
      </trkpt>
      <trkpt lat="43.93806" lon="1.9283">
        <ele>201.5335693</ele>
        <time>2014-06-20T15:44:47Z</time>
      </trkpt>
      <trkpt lat="43.93796" lon="1.92834">
        <ele>200.5722656</ele>
        <time>2014-06-20T15:44:52Z</time>
      </trkpt>
      <trkpt lat="43.9379" lon="1.92838">
        <ele>201.0528564</ele>
        <time>2014-06-20T15:44:57Z</time>
      </trkpt>
      <trkpt lat="43.93785" lon="1.92846">
        <ele>200.5722656</ele>
        <time>2014-06-20T15:45:02Z</time>
      </trkpt>
      <trkpt lat="43.93782" lon="1.92853">
        <ele>201.0528564</ele>
        <time>2014-06-20T15:45:07Z</time>
      </trkpt>
      <trkpt lat="43.93775" lon="1.92855">
        <ele>201.0528564</ele>
        <time>2014-06-20T15:45:12Z</time>
      </trkpt>
      <trkpt lat="43.93769" lon="1.92861">
        <ele>203.4561768</ele>
        <time>2014-06-20T15:45:17Z</time>
      </trkpt>
      <trkpt lat="43.93764" lon="1.92868">
        <ele>202.9754639</ele>
        <time>2014-06-20T15:45:22Z</time>
      </trkpt>
      <trkpt lat="43.93759" lon="1.92872">
        <ele>203.4561768</ele>
        <time>2014-06-20T15:45:27Z</time>
      </trkpt>
      <trkpt lat="43.93751" lon="1.92878">
        <ele>204.4174805</ele>
        <time>2014-06-20T15:45:32Z</time>
      </trkpt>
      <trkpt lat="43.93741" lon="1.92879">
        <ele>202.0142822</ele>
        <time>2014-06-20T15:45:37Z</time>
      </trkpt>
      <trkpt lat="43.93729" lon="1.92889">
        <ele>199.6108398</ele>
        <time>2014-06-20T15:45:47Z</time>
      </trkpt>
      <trkpt lat="43.93724" lon="1.92893">
        <ele>197.6882324</ele>
        <time>2014-06-20T15:45:52Z</time>
      </trkpt>
      <trkpt lat="43.93718" lon="1.92898">
        <ele>194.3237305</ele>
        <time>2014-06-20T15:45:57Z</time>
      </trkpt>
      <trkpt lat="43.93711" lon="1.92904">
        <ele>192.8817139</ele>
        <time>2014-06-20T15:46:02Z</time>
      </trkpt>
      <trkpt lat="43.93704" lon="1.92911">
        <ele>193.3623047</ele>
        <time>2014-06-20T15:46:12Z</time>
      </trkpt>
      <trkpt lat="43.93696" lon="1.92918">
        <ele>193.3623047</ele>
        <time>2014-06-20T15:46:17Z</time>
      </trkpt>
      <trkpt lat="43.9369" lon="1.9292">
        <ele>192.401123</ele>
        <time>2014-06-20T15:46:22Z</time>
      </trkpt>
      <trkpt lat="43.93687" lon="1.92926">
        <ele>191.9202881</ele>
        <time>2014-06-20T15:46:27Z</time>
      </trkpt>
      <trkpt lat="43.93677" lon="1.92936">
        <ele>191.4395752</ele>
        <time>2014-06-20T15:46:32Z</time>
      </trkpt>
      <trkpt lat="43.93674" lon="1.92946">
        <ele>190.4783936</ele>
        <time>2014-06-20T15:46:42Z</time>
      </trkpt>
      <trkpt lat="43.93671" lon="1.9296">
        <ele>190.4783936</ele>
        <time>2014-06-20T15:46:47Z</time>
      </trkpt>
      <trkpt lat="43.93668" lon="1.92967">
        <ele>190.4783936</ele>
        <time>2014-06-20T15:46:52Z</time>
      </trkpt>
      <trkpt lat="43.93665" lon="1.92973">
        <ele>190.4783936</ele>
        <time>2014-06-20T15:46:57Z</time>
      </trkpt>
      <trkpt lat="43.9366" lon="1.92981">
        <ele>190.4783936</ele>
        <time>2014-06-20T15:47:02Z</time>
      </trkpt>
      <trkpt lat="43.93657" lon="1.92987">
        <ele>189.9976807</ele>
        <time>2014-06-20T15:47:07Z</time>
      </trkpt>
      <trkpt lat="43.93655" lon="1.92992">
        <ele>189.5169678</ele>
        <time>2014-06-20T15:47:12Z</time>
      </trkpt>
      <trkpt lat="43.93651" lon="1.93005">
        <ele>190.4783936</ele>
        <time>2014-06-20T15:47:17Z</time>
      </trkpt>
      <trkpt lat="43.93653" lon="1.93013">
        <ele>190.4783936</ele>
        <time>2014-06-20T15:47:22Z</time>
      </trkpt>
      <trkpt lat="43.93646" lon="1.93022">
        <ele>189.9976807</ele>
        <time>2014-06-20T15:47:27Z</time>
      </trkpt>
      <trkpt lat="43.93644" lon="1.93029">
        <ele>190.4783936</ele>
        <time>2014-06-20T15:47:32Z</time>
      </trkpt>
      <trkpt lat="43.9364" lon="1.93034">
        <ele>189.5169678</ele>
        <time>2014-06-20T15:47:37Z</time>
      </trkpt>
      <trkpt lat="43.93632" lon="1.93042">
        <ele>189.036377</ele>
        <time>2014-06-20T15:47:42Z</time>
      </trkpt>
      <trkpt lat="43.93631" lon="1.93053">
        <ele>188.5557861</ele>
        <time>2014-06-20T15:47:47Z</time>
      </trkpt>
      <trkpt lat="43.93627" lon="1.93055">
        <ele>189.5169678</ele>
        <time>2014-06-20T15:47:52Z</time>
      </trkpt>
      <trkpt lat="43.93622" lon="1.93062">
        <ele>189.036377</ele>
        <time>2014-06-20T15:47:57Z</time>
      </trkpt>
      <trkpt lat="43.9362" lon="1.93071">
        <ele>192.8817139</ele>
        <time>2014-06-20T15:48:02Z</time>
      </trkpt>
      <trkpt lat="43.93613" lon="1.93085">
        <ele>195.2849121</ele>
        <time>2014-06-20T15:48:12Z</time>
      </trkpt>
      <trkpt lat="43.93611" lon="1.93096">
        <ele>196.7269287</ele>
        <time>2014-06-20T15:48:17Z</time>
      </trkpt>
      <trkpt lat="43.93609" lon="1.93107">
        <ele>198.6495361</ele>
        <time>2014-06-20T15:48:27Z</time>
      </trkpt>
      <trkpt lat="43.93606" lon="1.93115">
        <ele>200.0916748</ele>
        <time>2014-06-20T15:48:32Z</time>
      </trkpt>
      <trkpt lat="43.93606" lon="1.93126">
        <ele>200.5722656</ele>
        <time>2014-06-20T15:48:37Z</time>
      </trkpt>
      <trkpt lat="43.93604" lon="1.93133">
        <ele>201.0528564</ele>
        <time>2014-06-20T15:48:42Z</time>
      </trkpt>
      <trkpt lat="43.93602" lon="1.93142">
        <ele>202.494873</ele>
        <time>2014-06-20T15:48:47Z</time>
      </trkpt>
      <trkpt lat="43.93595" lon="1.93151">
        <ele>201.5335693</ele>
        <time>2014-06-20T15:48:52Z</time>
      </trkpt>
      <trkpt lat="43.93589" lon="1.93157">
        <ele>199.6108398</ele>
        <time>2014-06-20T15:48:57Z</time>
      </trkpt>
      <trkpt lat="43.93583" lon="1.93172">
        <ele>199.6108398</ele>
        <time>2014-06-20T15:49:07Z</time>
      </trkpt>
      <trkpt lat="43.93574" lon="1.93179">
        <ele>194.8043213</ele>
        <time>2014-06-20T15:49:12Z</time>
      </trkpt>
      <trkpt lat="43.93568" lon="1.93183">
        <ele>193.3623047</ele>
        <time>2014-06-20T15:49:17Z</time>
      </trkpt>
      <trkpt lat="43.93564" lon="1.93189">
        <ele>192.8817139</ele>
        <time>2014-06-20T15:49:22Z</time>
      </trkpt>
      <trkpt lat="43.93557" lon="1.93199">
        <ele>191.4395752</ele>
        <time>2014-06-20T15:49:27Z</time>
      </trkpt>
      <trkpt lat="43.93554" lon="1.93205">
        <ele>189.5169678</ele>
        <time>2014-06-20T15:49:32Z</time>
      </trkpt>
      <trkpt lat="43.93545" lon="1.93219">
        <ele>189.5169678</ele>
        <time>2014-06-20T15:49:42Z</time>
      </trkpt>
      <trkpt lat="43.93537" lon="1.93226">
        <ele>187.5943604</ele>
        <time>2014-06-20T15:49:47Z</time>
      </trkpt>
      <trkpt lat="43.93532" lon="1.93237">
        <ele>185.6717529</ele>
        <time>2014-06-20T15:49:57Z</time>
      </trkpt>
      <trkpt lat="43.93527" lon="1.93247">
        <ele>186.6331787</ele>
        <time>2014-06-20T15:50:02Z</time>
      </trkpt>
      <trkpt lat="43.93523" lon="1.93251">
        <ele>187.5943604</ele>
        <time>2014-06-20T15:50:07Z</time>
      </trkpt>
      <trkpt lat="43.93519" lon="1.93258">
        <ele>189.036377</ele>
        <time>2014-06-20T15:50:12Z</time>
      </trkpt>
      <trkpt lat="43.93515" lon="1.93267">
        <ele>189.9976807</ele>
        <time>2014-06-20T15:50:17Z</time>
      </trkpt>
      <trkpt lat="43.9351" lon="1.93273">
        <ele>189.5169678</ele>
        <time>2014-06-20T15:50:22Z</time>
      </trkpt>
      <trkpt lat="43.93506" lon="1.93278">
        <ele>190.9589844</ele>
        <time>2014-06-20T15:50:27Z</time>
      </trkpt>
      <trkpt lat="43.93503" lon="1.93285">
        <ele>189.036377</ele>
        <time>2014-06-20T15:50:32Z</time>
      </trkpt>
      <trkpt lat="43.93498" lon="1.93295">
        <ele>188.5557861</ele>
        <time>2014-06-20T15:50:37Z</time>
      </trkpt>
      <trkpt lat="43.9349" lon="1.93302">
        <ele>187.1137695</ele>
        <time>2014-06-20T15:50:47Z</time>
      </trkpt>
      <trkpt lat="43.93483" lon="1.93312">
        <ele>185.1911621</ele>
        <time>2014-06-20T15:50:52Z</time>
      </trkpt>
      <trkpt lat="43.9348" lon="1.9332">
        <ele>183.7490234</ele>
        <time>2014-06-20T15:50:57Z</time>
      </trkpt>
      <trkpt lat="43.93477" lon="1.93321">
        <ele>182.3071289</ele>
        <time>2014-06-20T15:51:07Z</time>
      </trkpt>
      <trkpt lat="43.93475" lon="1.93324">
        <ele>181.3458252</ele>
        <time>2014-06-20T15:51:32Z</time>
      </trkpt>
      <trkpt lat="43.9347" lon="1.93331">
        <ele>181.3458252</ele>
        <time>2014-06-20T15:51:42Z</time>
      </trkpt>
      <trkpt lat="43.93467" lon="1.93337">
        <ele>181.826416</ele>
        <time>2014-06-20T15:51:47Z</time>
      </trkpt>
      <trkpt lat="43.93463" lon="1.93343">
        <ele>181.826416</ele>
        <time>2014-06-20T15:51:52Z</time>
      </trkpt>
      <trkpt lat="43.93459" lon="1.93351">
        <ele>184.2298584</ele>
        <time>2014-06-20T15:52:02Z</time>
      </trkpt>
      <trkpt lat="43.93455" lon="1.93354">
        <ele>184.7105713</ele>
        <time>2014-06-20T15:52:07Z</time>
      </trkpt>
      <trkpt lat="43.93448" lon="1.93362">
        <ele>184.2298584</ele>
        <time>2014-06-20T15:52:12Z</time>
      </trkpt>
      <trkpt lat="43.93446" lon="1.9337">
        <ele>184.7105713</ele>
        <time>2014-06-20T15:52:17Z</time>
      </trkpt>
      <trkpt lat="43.93443" lon="1.93378">
        <ele>185.6717529</ele>
        <time>2014-06-20T15:52:22Z</time>
      </trkpt>
      <trkpt lat="43.93437" lon="1.93383">
        <ele>185.1911621</ele>
        <time>2014-06-20T15:52:27Z</time>
      </trkpt>
      <trkpt lat="43.93436" lon="1.93389">
        <ele>184.7105713</ele>
        <time>2014-06-20T15:52:32Z</time>
      </trkpt>
      <trkpt lat="43.93435" lon="1.93399">
        <ele>183.7490234</ele>
        <time>2014-06-20T15:52:37Z</time>
      </trkpt>
      <trkpt lat="43.93435" lon="1.93407">
        <ele>182.7878418</ele>
        <time>2014-06-20T15:52:42Z</time>
      </trkpt>
      <trkpt lat="43.9343" lon="1.9341">
        <ele>182.3071289</ele>
        <time>2014-06-20T15:52:47Z</time>
      </trkpt>
      <trkpt lat="43.93427" lon="1.93417">
        <ele>180.8652344</ele>
        <time>2014-06-20T15:52:52Z</time>
      </trkpt>
      <trkpt lat="43.93423" lon="1.93426">
        <ele>180.8652344</ele>
        <time>2014-06-20T15:52:57Z</time>
      </trkpt>
      <trkpt lat="43.93416" lon="1.93434">
        <ele>180.3845215</ele>
        <time>2014-06-20T15:53:02Z</time>
      </trkpt>
      <trkpt lat="43.93411" lon="1.93438">
        <ele>177.5006104</ele>
        <time>2014-06-20T15:53:07Z</time>
      </trkpt>
      <trkpt lat="43.93409" lon="1.93445">
        <ele>176.0585938</ele>
        <time>2014-06-20T15:53:12Z</time>
      </trkpt>
      <trkpt lat="43.93405" lon="1.93452">
        <ele>175.09729</ele>
        <time>2014-06-20T15:53:17Z</time>
      </trkpt>
      <trkpt lat="43.93403" lon="1.93459">
        <ele>174.6165771</ele>
        <time>2014-06-20T15:53:22Z</time>
      </trkpt>
      <trkpt lat="43.93398" lon="1.93462">
        <ele>171.2520752</ele>
        <time>2014-06-20T15:53:27Z</time>
      </trkpt>
      <trkpt lat="43.93392" lon="1.93468">
        <ele>170.2906494</ele>
        <time>2014-06-20T15:53:32Z</time>
      </trkpt>
      <trkpt lat="43.93388" lon="1.93476">
        <ele>170.2906494</ele>
        <time>2014-06-20T15:53:37Z</time>
      </trkpt>
      <trkpt lat="43.93384" lon="1.93484">
        <ele>169.8100586</ele>
        <time>2014-06-20T15:53:42Z</time>
      </trkpt>
      <trkpt lat="43.9338" lon="1.9349">
        <ele>169.3294678</ele>
        <time>2014-06-20T15:53:47Z</time>
      </trkpt>
      <trkpt lat="43.93376" lon="1.93496">
        <ele>166.9260254</ele>
        <time>2014-06-20T15:53:52Z</time>
      </trkpt>
      <trkpt lat="43.93373" lon="1.93505">
        <ele>165.9647217</ele>
        <time>2014-06-20T15:53:57Z</time>
      </trkpt>
      <trkpt lat="43.93371" lon="1.93511">
        <ele>165.003418</ele>
        <time>2014-06-20T15:54:02Z</time>
      </trkpt>
      <trkpt lat="43.93367" lon="1.93515">
        <ele>164.0421143</ele>
        <time>2014-06-20T15:54:07Z</time>
      </trkpt>
      <trkpt lat="43.93362" lon="1.93523">
        <ele>162.1195068</ele>
        <time>2014-06-20T15:54:12Z</time>
      </trkpt>
      <trkpt lat="43.93356" lon="1.93532">
        <ele>161.1582031</ele>
        <time>2014-06-20T15:54:17Z</time>
      </trkpt>
      <trkpt lat="43.93351" lon="1.93538">
        <ele>159.7161865</ele>
        <time>2014-06-20T15:54:22Z</time>
      </trkpt>
      <trkpt lat="43.93344" lon="1.93548">
        <ele>158.7547607</ele>
        <time>2014-06-20T15:54:32Z</time>
      </trkpt>
      <trkpt lat="43.93336" lon="1.93559">
        <ele>157.3128662</ele>
        <time>2014-06-20T15:54:37Z</time>
      </trkpt>
      <trkpt lat="43.93332" lon="1.93565">
        <ele>157.3128662</ele>
        <time>2014-06-20T15:54:42Z</time>
      </trkpt>
      <trkpt lat="43.93335" lon="1.93564">
        <ele>156.8321533</ele>
        <time>2014-06-20T15:54:57Z</time>
      </trkpt>
      <trkpt lat="43.93333" lon="1.93569">
        <ele>156.3515625</ele>
        <time>2014-06-20T15:55:02Z</time>
      </trkpt>
      <trkpt lat="43.93327" lon="1.93576">
        <ele>156.8321533</ele>
        <time>2014-06-20T15:55:07Z</time>
      </trkpt>
      <trkpt lat="43.93322" lon="1.9358">
        <ele>156.3515625</ele>
        <time>2014-06-20T15:55:12Z</time>
      </trkpt>
      <trkpt lat="43.93315" lon="1.93593">
        <ele>155.8709717</ele>
        <time>2014-06-20T15:55:22Z</time>
      </trkpt>
      <trkpt lat="43.9331" lon="1.936">
        <ele>155.3902588</ele>
        <time>2014-06-20T15:55:27Z</time>
      </trkpt>
      <trkpt lat="43.93306" lon="1.93604">
        <ele>155.3902588</ele>
        <time>2014-06-20T15:55:32Z</time>
      </trkpt>
      <trkpt lat="43.93302" lon="1.93614">
        <ele>155.3902588</ele>
        <time>2014-06-20T15:55:37Z</time>
      </trkpt>
      <trkpt lat="43.93297" lon="1.93618">
        <ele>152.0257568</ele>
        <time>2014-06-20T15:55:42Z</time>
      </trkpt>
      <trkpt lat="43.93294" lon="1.93625">
        <ele>152.0257568</ele>
        <time>2014-06-20T15:55:47Z</time>
      </trkpt>
      <trkpt lat="43.93286" lon="1.93632">
        <ele>151.064209</ele>
        <time>2014-06-20T15:55:52Z</time>
      </trkpt>
      <trkpt lat="43.93281" lon="1.93639">
        <ele>151.064209</ele>
        <time>2014-06-20T15:55:57Z</time>
      </trkpt>
      <trkpt lat="43.93276" lon="1.93644">
        <ele>151.064209</ele>
        <time>2014-06-20T15:56:02Z</time>
      </trkpt>
      <trkpt lat="43.93269" lon="1.93648">
        <ele>150.5836182</ele>
        <time>2014-06-20T15:56:07Z</time>
      </trkpt>
      <trkpt lat="43.93265" lon="1.93646">
        <ele>152.5063477</ele>
        <time>2014-06-20T15:56:12Z</time>
      </trkpt>
      <trkpt lat="43.9326" lon="1.93639">
        <ele>152.5063477</ele>
        <time>2014-06-20T15:56:17Z</time>
      </trkpt>
      <trkpt lat="43.93256" lon="1.9363">
        <ele>152.0257568</ele>
        <time>2014-06-20T15:56:22Z</time>
      </trkpt>
      <trkpt lat="43.93251" lon="1.93623">
        <ele>152.9869385</ele>
        <time>2014-06-20T15:56:27Z</time>
      </trkpt>
      <trkpt lat="43.93244" lon="1.9361">
        <ele>152.0257568</ele>
        <time>2014-06-20T15:56:37Z</time>
      </trkpt>
      <trkpt lat="43.93237" lon="1.93601">
        <ele>152.0257568</ele>
        <time>2014-06-20T15:56:42Z</time>
      </trkpt>
      <trkpt lat="43.93233" lon="1.93598">
        <ele>152.9869385</ele>
        <time>2014-06-20T15:56:47Z</time>
      </trkpt>
      <trkpt lat="43.93228" lon="1.93599">
        <ele>153.4676514</ele>
        <time>2014-06-20T15:56:52Z</time>
      </trkpt>
      <trkpt lat="43.9322" lon="1.936">
        <ele>154.4289551</ele>
        <time>2014-06-20T15:56:57Z</time>
      </trkpt>
      <trkpt lat="43.93213" lon="1.93602">
        <ele>152.5063477</ele>
        <time>2014-06-20T15:57:02Z</time>
      </trkpt>
      <trkpt lat="43.93209" lon="1.93606">
        <ele>152.5063477</ele>
        <time>2014-06-20T15:57:12Z</time>
      </trkpt>
      <trkpt lat="43.93202" lon="1.9361">
        <ele>152.5063477</ele>
        <time>2014-06-20T15:57:17Z</time>
      </trkpt>
      <trkpt lat="43.93196" lon="1.93615">
        <ele>152.0257568</ele>
        <time>2014-06-20T15:57:22Z</time>
      </trkpt>
      <trkpt lat="43.9319" lon="1.93617">
        <ele>152.5063477</ele>
        <time>2014-06-20T15:57:27Z</time>
      </trkpt>
      <trkpt lat="43.93184" lon="1.9362">
        <ele>151.064209</ele>
        <time>2014-06-20T15:57:32Z</time>
      </trkpt>
      <trkpt lat="43.93177" lon="1.93626">
        <ele>149.6223145</ele>
        <time>2014-06-20T15:57:37Z</time>
      </trkpt>
      <trkpt lat="43.93171" lon="1.9363">
        <ele>148.6610107</ele>
        <time>2014-06-20T15:57:42Z</time>
      </trkpt>
      <trkpt lat="43.93162" lon="1.93631">
        <ele>148.6610107</ele>
        <time>2014-06-20T15:57:47Z</time>
      </trkpt>
      <trkpt lat="43.93156" lon="1.93634">
        <ele>148.1804199</ele>
        <time>2014-06-20T15:57:52Z</time>
      </trkpt>
      <trkpt lat="43.93149" lon="1.93639">
        <ele>147.699707</ele>
        <time>2014-06-20T15:57:57Z</time>
      </trkpt>
      <trkpt lat="43.93142" lon="1.93643">
        <ele>148.1804199</ele>
        <time>2014-06-20T15:58:02Z</time>
      </trkpt>
      <trkpt lat="43.93137" lon="1.93646">
        <ele>147.699707</ele>
        <time>2014-06-20T15:58:07Z</time>
      </trkpt>
      <trkpt lat="43.93131" lon="1.93652">
        <ele>147.2189941</ele>
        <time>2014-06-20T15:58:12Z</time>
      </trkpt>
      <trkpt lat="43.93125" lon="1.93657">
        <ele>148.1804199</ele>
        <time>2014-06-20T15:58:17Z</time>
      </trkpt>
      <trkpt lat="43.9312" lon="1.93659">
        <ele>150.1030273</ele>
        <time>2014-06-20T15:58:22Z</time>
      </trkpt>
      <trkpt lat="43.93112" lon="1.93663">
        <ele>151.5449219</ele>
        <time>2014-06-20T15:58:27Z</time>
      </trkpt>
      <trkpt lat="43.93106" lon="1.93666">
        <ele>152.5063477</ele>
        <time>2014-06-20T15:58:32Z</time>
      </trkpt>
      <trkpt lat="43.93101" lon="1.93667">
        <ele>154.4289551</ele>
        <time>2014-06-20T15:58:37Z</time>
      </trkpt>
      <trkpt lat="43.93096" lon="1.93668">
        <ele>156.3515625</ele>
        <time>2014-06-20T15:58:42Z</time>
      </trkpt>
      <trkpt lat="43.93082" lon="1.93665">
        <ele>154.9095459</ele>
        <time>2014-06-20T15:58:52Z</time>
      </trkpt>
      <trkpt lat="43.93077" lon="1.93662">
        <ele>156.8321533</ele>
        <time>2014-06-20T15:58:57Z</time>
      </trkpt>
      <trkpt lat="43.93072" lon="1.93659">
        <ele>158.7547607</ele>
        <time>2014-06-20T15:59:02Z</time>
      </trkpt>
      <trkpt lat="43.93065" lon="1.93655">
        <ele>160.6774902</ele>
        <time>2014-06-20T15:59:07Z</time>
      </trkpt>
      <trkpt lat="43.93059" lon="1.93653">
        <ele>161.1582031</ele>
        <time>2014-06-20T15:59:12Z</time>
      </trkpt>
      <trkpt lat="43.93053" lon="1.93651">
        <ele>159.2354736</ele>
        <time>2014-06-20T15:59:17Z</time>
      </trkpt>
      <trkpt lat="43.93047" lon="1.93649">
        <ele>159.7161865</ele>
        <time>2014-06-20T15:59:22Z</time>
      </trkpt>
      <trkpt lat="43.93037" lon="1.93645">
        <ele>154.9095459</ele>
        <time>2014-06-20T15:59:32Z</time>
      </trkpt>
      <trkpt lat="43.93029" lon="1.93642">
        <ele>153.9483643</ele>
        <time>2014-06-20T15:59:37Z</time>
      </trkpt>
      <trkpt lat="43.93023" lon="1.93641">
        <ele>154.9095459</ele>
        <time>2014-06-20T15:59:42Z</time>
      </trkpt>
      <trkpt lat="43.93017" lon="1.93639">
        <ele>154.4289551</ele>
        <time>2014-06-20T15:59:47Z</time>
      </trkpt>
      <trkpt lat="43.93008" lon="1.93637">
        <ele>153.4676514</ele>
        <time>2014-06-20T15:59:52Z</time>
      </trkpt>
      <trkpt lat="43.93" lon="1.93635">
        <ele>153.9483643</ele>
        <time>2014-06-20T15:59:57Z</time>
      </trkpt>
      <trkpt lat="43.92991" lon="1.9363">
        <ele>155.8709717</ele>
        <time>2014-06-20T16:00:07Z</time>
      </trkpt>
      <trkpt lat="43.92983" lon="1.93627">
        <ele>155.8709717</ele>
        <time>2014-06-20T16:00:12Z</time>
      </trkpt>
      <trkpt lat="43.92977" lon="1.93625">
        <ele>156.3515625</ele>
        <time>2014-06-20T16:00:17Z</time>
      </trkpt>
      <trkpt lat="43.9297" lon="1.9362">
        <ele>156.3515625</ele>
        <time>2014-06-20T16:00:27Z</time>
      </trkpt>
      <trkpt lat="43.92961" lon="1.93618">
        <ele>156.3515625</ele>
        <time>2014-06-20T16:00:32Z</time>
      </trkpt>
      <trkpt lat="43.92955" lon="1.93615">
        <ele>156.8321533</ele>
        <time>2014-06-20T16:00:37Z</time>
      </trkpt>
      <trkpt lat="43.9295" lon="1.93613">
        <ele>156.8321533</ele>
        <time>2014-06-20T16:00:42Z</time>
      </trkpt>
      <trkpt lat="43.92945" lon="1.93608">
        <ele>154.4289551</ele>
        <time>2014-06-20T16:00:47Z</time>
      </trkpt>
      <trkpt lat="43.92947" lon="1.93599">
        <ele>154.9095459</ele>
        <time>2014-06-20T16:00:52Z</time>
      </trkpt>
      <trkpt lat="43.92952" lon="1.93592">
        <ele>154.4289551</ele>
        <time>2014-06-20T16:00:57Z</time>
      </trkpt>
      <trkpt lat="43.92957" lon="1.93581">
        <ele>153.4676514</ele>
        <time>2014-06-20T16:01:07Z</time>
      </trkpt>
      <trkpt lat="43.92961" lon="1.93576">
        <ele>152.9869385</ele>
        <time>2014-06-20T16:01:12Z</time>
      </trkpt>
      <trkpt lat="43.92966" lon="1.93573">
        <ele>152.5063477</ele>
        <time>2014-06-20T16:01:17Z</time>
      </trkpt>
      <trkpt lat="43.92969" lon="1.93567">
        <ele>152.5063477</ele>
        <time>2014-06-20T16:01:22Z</time>
      </trkpt>
      <trkpt lat="43.92974" lon="1.93565">
        <ele>152.5063477</ele>
        <time>2014-06-20T16:01:27Z</time>
      </trkpt>
      <trkpt lat="43.92978" lon="1.9356">
        <ele>152.5063477</ele>
        <time>2014-06-20T16:01:32Z</time>
      </trkpt>
      <trkpt lat="43.92985" lon="1.9355">
        <ele>152.5063477</ele>
        <time>2014-06-20T16:01:37Z</time>
      </trkpt>
      <trkpt lat="43.92991" lon="1.93542">
        <ele>151.064209</ele>
        <time>2014-06-20T16:01:42Z</time>
      </trkpt>
      <trkpt lat="43.92997" lon="1.93535">
        <ele>150.5836182</ele>
        <time>2014-06-20T16:01:47Z</time>
      </trkpt>
      <trkpt lat="43.93001" lon="1.93525">
        <ele>149.6223145</ele>
        <time>2014-06-20T16:01:52Z</time>
      </trkpt>
      <trkpt lat="43.93" lon="1.93516">
        <ele>147.699707</ele>
        <time>2014-06-20T16:01:57Z</time>
      </trkpt>
      <trkpt lat="43.93006" lon="1.93513">
        <ele>145.7770996</ele>
        <time>2014-06-20T16:02:02Z</time>
      </trkpt>
      <trkpt lat="43.93012" lon="1.93509">
        <ele>144.3352051</ele>
        <time>2014-06-20T16:02:07Z</time>
      </trkpt>
      <trkpt lat="43.93019" lon="1.93503">
        <ele>143.8543701</ele>
        <time>2014-06-20T16:02:12Z</time>
      </trkpt>
      <trkpt lat="43.93027" lon="1.93494">
        <ele>141.9317627</ele>
        <time>2014-06-20T16:02:22Z</time>
      </trkpt>
      <trkpt lat="43.93034" lon="1.93487">
        <ele>140.4898682</ele>
        <time>2014-06-20T16:02:27Z</time>
      </trkpt>
      <trkpt lat="43.93039" lon="1.93481">
        <ele>140.0091553</ele>
        <time>2014-06-20T16:02:32Z</time>
      </trkpt>
      <trkpt lat="43.93047" lon="1.93481">
        <ele>139.5284424</ele>
        <time>2014-06-20T16:02:37Z</time>
      </trkpt>
      <trkpt lat="43.93052" lon="1.93474">
        <ele>140.970459</ele>
        <time>2014-06-20T16:02:42Z</time>
      </trkpt>
      <trkpt lat="43.93058" lon="1.93472">
        <ele>143.8543701</ele>
        <time>2014-06-20T16:02:47Z</time>
      </trkpt>
      <trkpt lat="43.93061" lon="1.93477">
        <ele>144.8157959</ele>
        <time>2014-06-20T16:02:57Z</time>
      </trkpt>
      <trkpt lat="43.93065" lon="1.93473">
        <ele>148.1804199</ele>
        <time>2014-06-20T16:03:12Z</time>
      </trkpt>
      <trkpt lat="43.93074" lon="1.93464">
        <ele>153.9483643</ele>
        <time>2014-06-20T16:03:22Z</time>
      </trkpt>
      <trkpt lat="43.93082" lon="1.93456">
        <ele>156.3515625</ele>
        <time>2014-06-20T16:03:27Z</time>
      </trkpt>
      <trkpt lat="43.93084" lon="1.9345">
        <ele>159.7161865</ele>
        <time>2014-06-20T16:03:32Z</time>
      </trkpt>
      <trkpt lat="43.93089" lon="1.93446">
        <ele>163.0808105</ele>
        <time>2014-06-20T16:03:37Z</time>
      </trkpt>
      <trkpt lat="43.93097" lon="1.93443">
        <ele>163.5615234</ele>
        <time>2014-06-20T16:03:42Z</time>
      </trkpt>
      <trkpt lat="43.93105" lon="1.93434">
        <ele>165.4841309</ele>
        <time>2014-06-20T16:03:47Z</time>
      </trkpt>
      <trkpt lat="43.93111" lon="1.93428">
        <ele>166.4453125</ele>
        <time>2014-06-20T16:03:52Z</time>
      </trkpt>
      <trkpt lat="43.93115" lon="1.93421">
        <ele>168.368042</ele>
        <time>2014-06-20T16:03:57Z</time>
      </trkpt>
      <trkpt lat="43.93122" lon="1.93416">
        <ele>167.8873291</ele>
        <time>2014-06-20T16:04:02Z</time>
      </trkpt>
      <trkpt lat="43.93129" lon="1.93416">
        <ele>169.3294678</ele>
        <time>2014-06-20T16:04:07Z</time>
      </trkpt>
      <trkpt lat="43.93136" lon="1.93415">
        <ele>171.732666</ele>
        <time>2014-06-20T16:04:12Z</time>
      </trkpt>
      <trkpt lat="43.9314" lon="1.93407">
        <ele>169.8100586</ele>
        <time>2014-06-20T16:04:17Z</time>
      </trkpt>
      <trkpt lat="43.93145" lon="1.934">
        <ele>170.7713623</ele>
        <time>2014-06-20T16:04:22Z</time>
      </trkpt>
      <trkpt lat="43.9315" lon="1.93398">
        <ele>172.6939697</ele>
        <time>2014-06-20T16:04:27Z</time>
      </trkpt>
      <trkpt lat="43.93158" lon="1.93394">
        <ele>175.09729</ele>
        <time>2014-06-20T16:04:32Z</time>
      </trkpt>
      <trkpt lat="43.93164" lon="1.93393">
        <ele>177.0200195</ele>
        <time>2014-06-20T16:04:37Z</time>
      </trkpt>
      <trkpt lat="43.93168" lon="1.93387">
        <ele>178.942627</ele>
        <time>2014-06-20T16:04:42Z</time>
      </trkpt>
      <trkpt lat="43.9317" lon="1.93378">
        <ele>176.0585938</ele>
        <time>2014-06-20T16:04:47Z</time>
      </trkpt>
      <trkpt lat="43.93174" lon="1.93373">
        <ele>174.6165771</ele>
        <time>2014-06-20T16:04:52Z</time>
      </trkpt>
      <trkpt lat="43.93177" lon="1.93368">
        <ele>175.09729</ele>
        <time>2014-06-20T16:04:57Z</time>
      </trkpt>
      <trkpt lat="43.93181" lon="1.93359">
        <ele>170.2906494</ele>
        <time>2014-06-20T16:05:02Z</time>
      </trkpt>
      <trkpt lat="43.93187" lon="1.93352">
        <ele>171.2520752</ele>
        <time>2014-06-20T16:05:12Z</time>
      </trkpt>
      <trkpt lat="43.93192" lon="1.93346">
        <ele>170.7713623</ele>
        <time>2014-06-20T16:05:17Z</time>
      </trkpt>
      <trkpt lat="43.9319" lon="1.93338">
        <ele>171.2520752</ele>
        <time>2014-06-20T16:05:27Z</time>
      </trkpt>
      <trkpt lat="43.93189" lon="1.93331">
        <ele>170.2906494</ele>
        <time>2014-06-20T16:05:32Z</time>
      </trkpt>
    </trkseg>
  </trk>
</gpx>